<?xml version="1.0" encoding="UTF-8" standalone="no" ?>
<gpx xmlns="http://www.topografix.com/GPX/1/1" xmlns:xsi="http://www.w3.org/2001/XMLSchema-instance" xsi:schemaLocation="http://www.topografix.com/GPX/1/1 http://www.topografix.com/GPX/1/1/gpx.xsd" version="1.1" creator="VisuGPX - https://www.visugpx.com">
  <metadata>
    <name>Fontaine de Vaucluse, pas de Sautet</name>
    <desc><![CDATA[Fontaine de Vaucluse]]></desc>
  </metadata>
  <trk>
    <name><![CDATA[Fontaine de Vaucluse, pas de Sautet_1]]></name>
    <trkseg>
      <trkpt lat="43.91966" lon="5.12724">
        <ele>111.4</ele>
        <time>2017-04-29T12:00:05Z</time>
      </trkpt>
      <trkpt lat="43.91966" lon="5.12724">
        <ele>111.4</ele>
        <time>2017-04-29T11:59:38Z</time>
      </trkpt>
      <trkpt lat="43.9196" lon="5.12728">
        <ele>106.9</ele>
        <time>2017-04-29T11:59:40Z</time>
      </trkpt>
      <trkpt lat="43.9195" lon="5.12729">
        <ele>103.1</ele>
        <time>2017-04-29T11:59:42Z</time>
      </trkpt>
      <trkpt lat="43.91941" lon="5.12728">
        <ele>99.3</ele>
        <time>2017-04-29T12:00:52Z</time>
      </trkpt>
      <trkpt lat="43.91937" lon="5.12731">
        <ele>94.8</ele>
        <time>2017-04-29T12:00:59Z</time>
      </trkpt>
      <trkpt lat="43.91934" lon="5.12729">
        <ele>92.6</ele>
        <time>2017-04-29T12:01:06Z</time>
      </trkpt>
      <trkpt lat="43.91928" lon="5.12726">
        <ele>92.7</ele>
        <time>2017-04-29T12:01:13Z</time>
      </trkpt>
      <trkpt lat="43.9192" lon="5.12723">
        <ele>91.5</ele>
        <time>2017-04-29T12:01:20Z</time>
      </trkpt>
      <trkpt lat="43.91916" lon="5.12714">
        <ele>89.1</ele>
        <time>2017-04-29T12:01:27Z</time>
      </trkpt>
      <trkpt lat="43.91911" lon="5.12705">
        <ele>88</ele>
        <time>2017-04-29T12:01:34Z</time>
      </trkpt>
      <trkpt lat="43.91904" lon="5.12703">
        <ele>86.9</ele>
        <time>2017-04-29T12:01:40Z</time>
      </trkpt>
      <trkpt lat="43.91899" lon="5.12699">
        <ele>86.8</ele>
        <time>2017-04-29T12:01:47Z</time>
      </trkpt>
      <trkpt lat="43.91897" lon="5.12696">
        <ele>88.8</ele>
        <time>2017-04-29T12:01:54Z</time>
      </trkpt>
      <trkpt lat="43.91889" lon="5.12695">
        <ele>91.9</ele>
        <time>2017-04-29T12:02:01Z</time>
      </trkpt>
      <trkpt lat="43.91882" lon="5.12693">
        <ele>94.5</ele>
        <time>2017-04-29T12:02:08Z</time>
      </trkpt>
      <trkpt lat="43.91878" lon="5.12688">
        <ele>96.3</ele>
        <time>2017-04-29T12:02:15Z</time>
      </trkpt>
      <trkpt lat="43.91872" lon="5.12686">
        <ele>98.2</ele>
        <time>2017-04-29T12:02:22Z</time>
      </trkpt>
      <trkpt lat="43.91866" lon="5.12688">
        <ele>100.6</ele>
        <time>2017-04-29T12:02:29Z</time>
      </trkpt>
      <trkpt lat="43.91863" lon="5.12683">
        <ele>101.8</ele>
        <time>2017-04-29T12:02:36Z</time>
      </trkpt>
      <trkpt lat="43.91859" lon="5.1268">
        <ele>103.7</ele>
        <time>2017-04-29T12:02:43Z</time>
      </trkpt>
      <trkpt lat="43.91855" lon="5.12681">
        <ele>105.9</ele>
        <time>2017-04-29T12:02:50Z</time>
      </trkpt>
      <trkpt lat="43.91848" lon="5.12677">
        <ele>107.7</ele>
        <time>2017-04-29T12:02:57Z</time>
      </trkpt>
      <trkpt lat="43.91841" lon="5.12674">
        <ele>108.9</ele>
        <time>2017-04-29T12:03:02Z</time>
      </trkpt>
      <trkpt lat="43.91833" lon="5.12672">
        <ele>110.1</ele>
        <time>2017-04-29T12:03:07Z</time>
      </trkpt>
      <trkpt lat="43.91826" lon="5.12668">
        <ele>111.4</ele>
        <time>2017-04-29T12:03:11Z</time>
      </trkpt>
      <trkpt lat="43.91819" lon="5.12672">
        <ele>111.6</ele>
        <time>2017-04-29T12:03:17Z</time>
      </trkpt>
      <trkpt lat="43.91812" lon="5.12667">
        <ele>113.2</ele>
        <time>2017-04-29T12:03:24Z</time>
      </trkpt>
      <trkpt lat="43.91805" lon="5.12667">
        <ele>115.6</ele>
        <time>2017-04-29T12:03:31Z</time>
      </trkpt>
      <trkpt lat="43.91797" lon="5.12667">
        <ele>118.1</ele>
        <time>2017-04-29T12:03:38Z</time>
      </trkpt>
      <trkpt lat="43.91788" lon="5.12667">
        <ele>120</ele>
        <time>2017-04-29T12:03:45Z</time>
      </trkpt>
      <trkpt lat="43.91781" lon="5.12667">
        <ele>120.8</ele>
        <time>2017-04-29T12:03:51Z</time>
      </trkpt>
      <trkpt lat="43.91774" lon="5.12665">
        <ele>117.2</ele>
        <time>2017-04-29T12:04:01Z</time>
      </trkpt>
      <trkpt lat="43.91771" lon="5.12675">
        <ele>107.9</ele>
        <time>2017-04-29T12:04:08Z</time>
      </trkpt>
      <trkpt lat="43.91766" lon="5.12676">
        <ele>104</ele>
        <time>2017-04-29T12:04:15Z</time>
      </trkpt>
      <trkpt lat="43.91763" lon="5.1268">
        <ele>99.5</ele>
        <time>2017-04-29T12:04:22Z</time>
      </trkpt>
      <trkpt lat="43.91758" lon="5.12682">
        <ele>97.4</ele>
        <time>2017-04-29T12:04:29Z</time>
      </trkpt>
      <trkpt lat="43.91751" lon="5.12685">
        <ele>96.3</ele>
        <time>2017-04-29T12:04:36Z</time>
      </trkpt>
      <trkpt lat="43.91744" lon="5.12687">
        <ele>94.6</ele>
        <time>2017-04-29T12:04:43Z</time>
      </trkpt>
      <trkpt lat="43.91736" lon="5.12689">
        <ele>93.9</ele>
        <time>2017-04-29T12:04:50Z</time>
      </trkpt>
      <trkpt lat="43.91729" lon="5.12686">
        <ele>94</ele>
        <time>2017-04-29T12:04:56Z</time>
      </trkpt>
      <trkpt lat="43.91721" lon="5.12689">
        <ele>93.1</ele>
        <time>2017-04-29T12:05:03Z</time>
      </trkpt>
      <trkpt lat="43.91713" lon="5.12687">
        <ele>92.9</ele>
        <time>2017-04-29T12:05:10Z</time>
      </trkpt>
      <trkpt lat="43.91707" lon="5.12685">
        <ele>92.6</ele>
        <time>2017-04-29T12:05:17Z</time>
      </trkpt>
      <trkpt lat="43.917" lon="5.12686">
        <ele>91.6</ele>
        <time>2017-04-29T12:05:24Z</time>
      </trkpt>
      <trkpt lat="43.91692" lon="5.12686">
        <ele>91.5</ele>
        <time>2017-04-29T12:05:30Z</time>
      </trkpt>
      <trkpt lat="43.91684" lon="5.12686">
        <ele>91.4</ele>
        <time>2017-04-29T12:05:35Z</time>
      </trkpt>
      <trkpt lat="43.91678" lon="5.12687">
        <ele>90.5</ele>
        <time>2017-04-29T12:05:42Z</time>
      </trkpt>
      <trkpt lat="43.91672" lon="5.12689">
        <ele>89.6</ele>
        <time>2017-04-29T12:05:49Z</time>
      </trkpt>
      <trkpt lat="43.91664" lon="5.12691">
        <ele>90</ele>
        <time>2017-04-29T12:05:56Z</time>
      </trkpt>
      <trkpt lat="43.91656" lon="5.12693">
        <ele>90.2</ele>
        <time>2017-04-29T12:06:02Z</time>
      </trkpt>
      <trkpt lat="43.91649" lon="5.12697">
        <ele>89.7</ele>
        <time>2017-04-29T12:06:09Z</time>
      </trkpt>
      <trkpt lat="43.9164" lon="5.12699">
        <ele>89.2</ele>
        <time>2017-04-29T12:06:15Z</time>
      </trkpt>
      <trkpt lat="43.91633" lon="5.127">
        <ele>89.8</ele>
        <time>2017-04-29T12:06:21Z</time>
      </trkpt>
      <trkpt lat="43.91626" lon="5.12694">
        <ele>88.7</ele>
        <time>2017-04-29T12:06:28Z</time>
      </trkpt>
      <trkpt lat="43.91619" lon="5.12697">
        <ele>87.7</ele>
        <time>2017-04-29T12:06:35Z</time>
      </trkpt>
      <trkpt lat="43.91613" lon="5.12697">
        <ele>87.1</ele>
        <time>2017-04-29T12:06:42Z</time>
      </trkpt>
      <trkpt lat="43.91607" lon="5.12702">
        <ele>85.9</ele>
        <time>2017-04-29T12:06:47Z</time>
      </trkpt>
      <trkpt lat="43.916" lon="5.12705">
        <ele>85.2</ele>
        <time>2017-04-29T12:06:54Z</time>
      </trkpt>
      <trkpt lat="43.91591" lon="5.12704">
        <ele>84.8</ele>
        <time>2017-04-29T12:07:01Z</time>
      </trkpt>
      <trkpt lat="43.91583" lon="5.12707">
        <ele>84.4</ele>
        <time>2017-04-29T12:07:07Z</time>
      </trkpt>
      <trkpt lat="43.91578" lon="5.12704">
        <ele>85.6</ele>
        <time>2017-04-29T12:07:14Z</time>
      </trkpt>
      <trkpt lat="43.91572" lon="5.12705">
        <ele>87.8</ele>
        <time>2017-04-29T12:07:21Z</time>
      </trkpt>
      <trkpt lat="43.91564" lon="5.12707">
        <ele>89.5</ele>
        <time>2017-04-29T12:07:27Z</time>
      </trkpt>
      <trkpt lat="43.91557" lon="5.12705">
        <ele>91.2</ele>
        <time>2017-04-29T12:07:34Z</time>
      </trkpt>
      <trkpt lat="43.91551" lon="5.12708">
        <ele>93.1</ele>
        <time>2017-04-29T12:07:41Z</time>
      </trkpt>
      <trkpt lat="43.91545" lon="5.12709">
        <ele>94.2</ele>
        <time>2017-04-29T12:07:48Z</time>
      </trkpt>
      <trkpt lat="43.91538" lon="5.12709">
        <ele>95.5</ele>
        <time>2017-04-29T12:07:55Z</time>
      </trkpt>
      <trkpt lat="43.91532" lon="5.12708">
        <ele>96.7</ele>
        <time>2017-04-29T12:08:02Z</time>
      </trkpt>
      <trkpt lat="43.91524" lon="5.12705">
        <ele>97.3</ele>
        <time>2017-04-29T12:08:09Z</time>
      </trkpt>
      <trkpt lat="43.91516" lon="5.12703">
        <ele>98.6</ele>
        <time>2017-04-29T12:08:16Z</time>
      </trkpt>
      <trkpt lat="43.91509" lon="5.127">
        <ele>99.8</ele>
        <time>2017-04-29T12:08:23Z</time>
      </trkpt>
      <trkpt lat="43.91503" lon="5.12695">
        <ele>100.9</ele>
        <time>2017-04-29T12:08:29Z</time>
      </trkpt>
      <trkpt lat="43.91496" lon="5.12691">
        <ele>102</ele>
        <time>2017-04-29T12:08:36Z</time>
      </trkpt>
      <trkpt lat="43.91489" lon="5.1269">
        <ele>102.8</ele>
        <time>2017-04-29T12:08:43Z</time>
      </trkpt>
      <trkpt lat="43.91481" lon="5.12695">
        <ele>102.9</ele>
        <time>2017-04-29T12:08:49Z</time>
      </trkpt>
      <trkpt lat="43.91475" lon="5.12697">
        <ele>103.6</ele>
        <time>2017-04-29T12:08:56Z</time>
      </trkpt>
      <trkpt lat="43.91472" lon="5.12699">
        <ele>104.6</ele>
        <time>2017-04-29T12:09:03Z</time>
      </trkpt>
      <trkpt lat="43.91466" lon="5.12702">
        <ele>105.5</ele>
        <time>2017-04-29T12:09:10Z</time>
      </trkpt>
      <trkpt lat="43.9146" lon="5.12707">
        <ele>106.2</ele>
        <time>2017-04-29T12:09:15Z</time>
      </trkpt>
      <trkpt lat="43.91453" lon="5.12711">
        <ele>107.7</ele>
        <time>2017-04-29T12:09:22Z</time>
      </trkpt>
      <trkpt lat="43.91446" lon="5.12716">
        <ele>108.7</ele>
        <time>2017-04-29T12:09:28Z</time>
      </trkpt>
      <trkpt lat="43.9144" lon="5.12723">
        <ele>109</ele>
        <time>2017-04-29T12:09:33Z</time>
      </trkpt>
      <trkpt lat="43.91432" lon="5.12728">
        <ele>109.4</ele>
        <time>2017-04-29T12:09:39Z</time>
      </trkpt>
      <trkpt lat="43.91426" lon="5.12733">
        <ele>109.2</ele>
        <time>2017-04-29T12:09:46Z</time>
      </trkpt>
      <trkpt lat="43.91418" lon="5.12737">
        <ele>108.4</ele>
        <time>2017-04-29T12:09:53Z</time>
      </trkpt>
      <trkpt lat="43.91411" lon="5.12743">
        <ele>107.7</ele>
        <time>2017-04-29T12:10:00Z</time>
      </trkpt>
      <trkpt lat="43.91405" lon="5.12747">
        <ele>107.8</ele>
        <time>2017-04-29T12:10:07Z</time>
      </trkpt>
      <trkpt lat="43.91397" lon="5.1275">
        <ele>108</ele>
        <time>2017-04-29T12:10:14Z</time>
      </trkpt>
      <trkpt lat="43.9139" lon="5.12756">
        <ele>107.8</ele>
        <time>2017-04-29T12:10:21Z</time>
      </trkpt>
      <trkpt lat="43.91384" lon="5.1276">
        <ele>108.4</ele>
        <time>2017-04-29T12:10:28Z</time>
      </trkpt>
      <trkpt lat="43.91377" lon="5.12766">
        <ele>109.2</ele>
        <time>2017-04-29T12:10:35Z</time>
      </trkpt>
      <trkpt lat="43.9137" lon="5.1277">
        <ele>110.4</ele>
        <time>2017-04-29T12:10:42Z</time>
      </trkpt>
      <trkpt lat="43.91366" lon="5.12774">
        <ele>111.1</ele>
        <time>2017-04-29T12:10:49Z</time>
      </trkpt>
      <trkpt lat="43.91364" lon="5.12783">
        <ele>112.3</ele>
        <time>2017-04-29T12:10:56Z</time>
      </trkpt>
      <trkpt lat="43.91362" lon="5.12791">
        <ele>113.6</ele>
        <time>2017-04-29T12:11:03Z</time>
      </trkpt>
      <trkpt lat="43.91359" lon="5.12794">
        <ele>112.7</ele>
        <time>2017-04-29T12:11:34Z</time>
      </trkpt>
      <trkpt lat="43.91353" lon="5.12798">
        <ele>111.9</ele>
        <time>2017-04-29T12:11:53Z</time>
      </trkpt>
      <trkpt lat="43.9136" lon="5.12801">
        <ele>112.1</ele>
        <time>2017-04-29T12:12:05Z</time>
      </trkpt>
      <trkpt lat="43.91365" lon="5.12809">
        <ele>111.7</ele>
        <time>2017-04-29T12:12:12Z</time>
      </trkpt>
      <trkpt lat="43.9137" lon="5.12817">
        <ele>111.6</ele>
        <time>2017-04-29T12:12:19Z</time>
      </trkpt>
      <trkpt lat="43.91375" lon="5.12825">
        <ele>111.9</ele>
        <time>2017-04-29T12:12:24Z</time>
      </trkpt>
      <trkpt lat="43.91378" lon="5.12834">
        <ele>112.5</ele>
        <time>2017-04-29T12:12:29Z</time>
      </trkpt>
      <trkpt lat="43.91382" lon="5.12841">
        <ele>113.2</ele>
        <time>2017-04-29T12:12:36Z</time>
      </trkpt>
      <trkpt lat="43.91384" lon="5.1285">
        <ele>113.5</ele>
        <time>2017-04-29T12:12:43Z</time>
      </trkpt>
      <trkpt lat="43.91386" lon="5.12862">
        <ele>113.8</ele>
        <time>2017-04-29T12:12:50Z</time>
      </trkpt>
      <trkpt lat="43.91389" lon="5.12872">
        <ele>114.4</ele>
        <time>2017-04-29T12:12:57Z</time>
      </trkpt>
      <trkpt lat="43.91391" lon="5.12883">
        <ele>115.2</ele>
        <time>2017-04-29T12:13:04Z</time>
      </trkpt>
      <trkpt lat="43.91394" lon="5.12893">
        <ele>115.9</ele>
        <time>2017-04-29T12:13:11Z</time>
      </trkpt>
      <trkpt lat="43.91397" lon="5.12902">
        <ele>116.3</ele>
        <time>2017-04-29T12:13:18Z</time>
      </trkpt>
      <trkpt lat="43.91401" lon="5.12908">
        <ele>116.9</ele>
        <time>2017-04-29T12:13:25Z</time>
      </trkpt>
      <trkpt lat="43.91405" lon="5.12914">
        <ele>117.4</ele>
        <time>2017-04-29T12:13:32Z</time>
      </trkpt>
      <trkpt lat="43.91407" lon="5.12914">
        <ele>117.8</ele>
        <time>2017-04-29T12:13:39Z</time>
      </trkpt>
      <trkpt lat="43.91411" lon="5.12905">
        <ele>118.3</ele>
        <time>2017-04-29T12:13:47Z</time>
      </trkpt>
      <trkpt lat="43.91405" lon="5.12924">
        <ele>119.3</ele>
        <time>2017-04-29T12:13:48Z</time>
      </trkpt>
      <trkpt lat="43.91405" lon="5.12927">
        <ele>119.5</ele>
        <time>2017-04-29T12:13:56Z</time>
      </trkpt>
      <trkpt lat="43.91413" lon="5.12927">
        <ele>117.5</ele>
        <time>2017-04-29T12:14:07Z</time>
      </trkpt>
      <trkpt lat="43.91418" lon="5.12933">
        <ele>118.2</ele>
        <time>2017-04-29T12:14:21Z</time>
      </trkpt>
      <trkpt lat="43.91422" lon="5.12937">
        <ele>118.9</ele>
        <time>2017-04-29T12:14:28Z</time>
      </trkpt>
      <trkpt lat="43.91426" lon="5.12944">
        <ele>119.5</ele>
        <time>2017-04-29T12:14:35Z</time>
      </trkpt>
      <trkpt lat="43.91429" lon="5.12951">
        <ele>120.1</ele>
        <time>2017-04-29T12:14:42Z</time>
      </trkpt>
      <trkpt lat="43.91432" lon="5.1296">
        <ele>120.7</ele>
        <time>2017-04-29T12:14:49Z</time>
      </trkpt>
      <trkpt lat="43.91435" lon="5.12967">
        <ele>121.1</ele>
        <time>2017-04-29T12:14:56Z</time>
      </trkpt>
      <trkpt lat="43.91438" lon="5.1297">
        <ele>121.4</ele>
        <time>2017-04-29T12:15:03Z</time>
      </trkpt>
      <trkpt lat="43.91442" lon="5.12978">
        <ele>122.5</ele>
        <time>2017-04-29T12:15:22Z</time>
      </trkpt>
      <trkpt lat="43.91446" lon="5.12983">
        <ele>122.7</ele>
        <time>2017-04-29T12:15:29Z</time>
      </trkpt>
      <trkpt lat="43.9145" lon="5.1299">
        <ele>123</ele>
        <time>2017-04-29T12:15:36Z</time>
      </trkpt>
      <trkpt lat="43.91451" lon="5.12994">
        <ele>123.7</ele>
        <time>2017-04-29T12:15:43Z</time>
      </trkpt>
      <trkpt lat="43.91453" lon="5.13001">
        <ele>124.3</ele>
        <time>2017-04-29T12:15:50Z</time>
      </trkpt>
      <trkpt lat="43.91455" lon="5.13007">
        <ele>124.7</ele>
        <time>2017-04-29T12:15:57Z</time>
      </trkpt>
      <trkpt lat="43.91458" lon="5.13015">
        <ele>125.1</ele>
        <time>2017-04-29T12:16:04Z</time>
      </trkpt>
      <trkpt lat="43.91462" lon="5.13021">
        <ele>125.5</ele>
        <time>2017-04-29T12:16:11Z</time>
      </trkpt>
      <trkpt lat="43.91466" lon="5.13029">
        <ele>125.6</ele>
        <time>2017-04-29T12:16:18Z</time>
      </trkpt>
      <trkpt lat="43.91466" lon="5.1304">
        <ele>125.9</ele>
        <time>2017-04-29T12:16:25Z</time>
      </trkpt>
      <trkpt lat="43.91468" lon="5.13051">
        <ele>125.9</ele>
        <time>2017-04-29T12:16:31Z</time>
      </trkpt>
      <trkpt lat="43.91466" lon="5.1306">
        <ele>126</ele>
        <time>2017-04-29T12:16:38Z</time>
      </trkpt>
      <trkpt lat="43.91465" lon="5.13068">
        <ele>125.9</ele>
        <time>2017-04-29T12:16:45Z</time>
      </trkpt>
      <trkpt lat="43.91462" lon="5.13078">
        <ele>125.8</ele>
        <time>2017-04-29T12:16:52Z</time>
      </trkpt>
      <trkpt lat="43.9146" lon="5.13088">
        <ele>125.9</ele>
        <time>2017-04-29T12:16:59Z</time>
      </trkpt>
      <trkpt lat="43.91459" lon="5.13095">
        <ele>125.8</ele>
        <time>2017-04-29T12:17:06Z</time>
      </trkpt>
      <trkpt lat="43.9146" lon="5.13101">
        <ele>126.1</ele>
        <time>2017-04-29T12:17:13Z</time>
      </trkpt>
      <trkpt lat="43.91458" lon="5.13109">
        <ele>126.2</ele>
        <time>2017-04-29T12:17:20Z</time>
      </trkpt>
      <trkpt lat="43.91458" lon="5.13118">
        <ele>126.3</ele>
        <time>2017-04-29T12:17:27Z</time>
      </trkpt>
      <trkpt lat="43.91463" lon="5.13128">
        <ele>126.9</ele>
        <time>2017-04-29T12:17:34Z</time>
      </trkpt>
      <trkpt lat="43.91462" lon="5.13137">
        <ele>127.9</ele>
        <time>2017-04-29T12:17:41Z</time>
      </trkpt>
      <trkpt lat="43.91465" lon="5.13146">
        <ele>128.7</ele>
        <time>2017-04-29T12:17:48Z</time>
      </trkpt>
      <trkpt lat="43.91468" lon="5.13153">
        <ele>130.2</ele>
        <time>2017-04-29T12:17:55Z</time>
      </trkpt>
      <trkpt lat="43.91471" lon="5.1316">
        <ele>133</ele>
        <time>2017-04-29T12:18:02Z</time>
      </trkpt>
      <trkpt lat="43.91474" lon="5.13168">
        <ele>135.1</ele>
        <time>2017-04-29T12:18:09Z</time>
      </trkpt>
      <trkpt lat="43.91477" lon="5.13177">
        <ele>136.5</ele>
        <time>2017-04-29T12:18:16Z</time>
      </trkpt>
      <trkpt lat="43.9148" lon="5.13183">
        <ele>138.5</ele>
        <time>2017-04-29T12:18:23Z</time>
      </trkpt>
      <trkpt lat="43.91484" lon="5.13189">
        <ele>139.7</ele>
        <time>2017-04-29T12:18:30Z</time>
      </trkpt>
      <trkpt lat="43.91489" lon="5.13195">
        <ele>141.3</ele>
        <time>2017-04-29T12:18:37Z</time>
      </trkpt>
      <trkpt lat="43.91493" lon="5.13195">
        <ele>142</ele>
        <time>2017-04-29T12:18:44Z</time>
      </trkpt>
      <trkpt lat="43.91497" lon="5.13189">
        <ele>142.6</ele>
        <time>2017-04-29T12:18:51Z</time>
      </trkpt>
      <trkpt lat="43.91499" lon="5.1319">
        <ele>143.7</ele>
        <time>2017-04-29T12:18:58Z</time>
      </trkpt>
      <trkpt lat="43.91502" lon="5.13195">
        <ele>144.5</ele>
        <time>2017-04-29T12:19:05Z</time>
      </trkpt>
      <trkpt lat="43.91507" lon="5.13202">
        <ele>144.5</ele>
        <time>2017-04-29T12:19:12Z</time>
      </trkpt>
      <trkpt lat="43.91508" lon="5.13209">
        <ele>144.8</ele>
        <time>2017-04-29T12:19:19Z</time>
      </trkpt>
      <trkpt lat="43.91509" lon="5.13214">
        <ele>145.4</ele>
        <time>2017-04-29T12:19:26Z</time>
      </trkpt>
      <trkpt lat="43.91509" lon="5.13223">
        <ele>146.6</ele>
        <time>2017-04-29T12:19:33Z</time>
      </trkpt>
      <trkpt lat="43.91508" lon="5.13231">
        <ele>147.6</ele>
        <time>2017-04-29T12:19:40Z</time>
      </trkpt>
      <trkpt lat="43.91507" lon="5.1324">
        <ele>148.8</ele>
        <time>2017-04-29T12:19:47Z</time>
      </trkpt>
      <trkpt lat="43.91509" lon="5.13246">
        <ele>150.1</ele>
        <time>2017-04-29T12:19:54Z</time>
      </trkpt>
      <trkpt lat="43.9151" lon="5.13253">
        <ele>151.9</ele>
        <time>2017-04-29T12:20:01Z</time>
      </trkpt>
      <trkpt lat="43.91514" lon="5.13258">
        <ele>152.8</ele>
        <time>2017-04-29T12:20:08Z</time>
      </trkpt>
      <trkpt lat="43.91515" lon="5.13263">
        <ele>154.2</ele>
        <time>2017-04-29T12:20:15Z</time>
      </trkpt>
      <trkpt lat="43.91515" lon="5.13269">
        <ele>155.4</ele>
        <time>2017-04-29T12:20:22Z</time>
      </trkpt>
      <trkpt lat="43.91518" lon="5.13275">
        <ele>157.2</ele>
        <time>2017-04-29T12:20:29Z</time>
      </trkpt>
      <trkpt lat="43.9152" lon="5.1328">
        <ele>158.4</ele>
        <time>2017-04-29T12:20:36Z</time>
      </trkpt>
      <trkpt lat="43.91523" lon="5.13287">
        <ele>159.4</ele>
        <time>2017-04-29T12:20:43Z</time>
      </trkpt>
      <trkpt lat="43.91525" lon="5.13293">
        <ele>160.7</ele>
        <time>2017-04-29T12:20:50Z</time>
      </trkpt>
      <trkpt lat="43.91526" lon="5.13301">
        <ele>161.7</ele>
        <time>2017-04-29T12:20:57Z</time>
      </trkpt>
      <trkpt lat="43.91526" lon="5.13308">
        <ele>163.1</ele>
        <time>2017-04-29T12:21:04Z</time>
      </trkpt>
      <trkpt lat="43.91526" lon="5.13317">
        <ele>164.3</ele>
        <time>2017-04-29T12:21:11Z</time>
      </trkpt>
      <trkpt lat="43.91528" lon="5.13325">
        <ele>165.7</ele>
        <time>2017-04-29T12:21:18Z</time>
      </trkpt>
      <trkpt lat="43.9153" lon="5.1333">
        <ele>167.7</ele>
        <time>2017-04-29T12:21:25Z</time>
      </trkpt>
      <trkpt lat="43.91531" lon="5.13338">
        <ele>169</ele>
        <time>2017-04-29T12:21:32Z</time>
      </trkpt>
      <trkpt lat="43.91531" lon="5.13346">
        <ele>170.1</ele>
        <time>2017-04-29T12:21:39Z</time>
      </trkpt>
      <trkpt lat="43.91534" lon="5.13353">
        <ele>171.6</ele>
        <time>2017-04-29T12:21:46Z</time>
      </trkpt>
      <trkpt lat="43.91538" lon="5.13359">
        <ele>173.5</ele>
        <time>2017-04-29T12:21:53Z</time>
      </trkpt>
      <trkpt lat="43.91543" lon="5.13364">
        <ele>174.7</ele>
        <time>2017-04-29T12:22:00Z</time>
      </trkpt>
      <trkpt lat="43.91549" lon="5.13369">
        <ele>175.8</ele>
        <time>2017-04-29T12:22:07Z</time>
      </trkpt>
      <trkpt lat="43.91553" lon="5.13376">
        <ele>176.9</ele>
        <time>2017-04-29T12:22:14Z</time>
      </trkpt>
      <trkpt lat="43.91557" lon="5.13381">
        <ele>178</ele>
        <time>2017-04-29T12:22:21Z</time>
      </trkpt>
      <trkpt lat="43.91561" lon="5.13383">
        <ele>179.1</ele>
        <time>2017-04-29T12:22:28Z</time>
      </trkpt>
      <trkpt lat="43.91568" lon="5.13385">
        <ele>180.1</ele>
        <time>2017-04-29T12:22:35Z</time>
      </trkpt>
      <trkpt lat="43.91574" lon="5.13386">
        <ele>181.1</ele>
        <time>2017-04-29T12:22:42Z</time>
      </trkpt>
      <trkpt lat="43.91578" lon="5.13388">
        <ele>182</ele>
        <time>2017-04-29T12:22:49Z</time>
      </trkpt>
      <trkpt lat="43.91581" lon="5.13389">
        <ele>182.7</ele>
        <time>2017-04-29T12:22:56Z</time>
      </trkpt>
      <trkpt lat="43.91581" lon="5.13396">
        <ele>183.3</ele>
        <time>2017-04-29T12:23:03Z</time>
      </trkpt>
      <trkpt lat="43.91581" lon="5.13401">
        <ele>183.6</ele>
        <time>2017-04-29T12:23:10Z</time>
      </trkpt>
      <trkpt lat="43.9158" lon="5.13409">
        <ele>183.9</ele>
        <time>2017-04-29T12:23:17Z</time>
      </trkpt>
      <trkpt lat="43.91585" lon="5.13416">
        <ele>184.3</ele>
        <time>2017-04-29T12:23:22Z</time>
      </trkpt>
      <trkpt lat="43.91592" lon="5.13423">
        <ele>184.9</ele>
        <time>2017-04-29T12:23:28Z</time>
      </trkpt>
      <trkpt lat="43.91595" lon="5.13429">
        <ele>186.4</ele>
        <time>2017-04-29T12:23:35Z</time>
      </trkpt>
      <trkpt lat="43.91591" lon="5.13435">
        <ele>187.6</ele>
        <time>2017-04-29T12:23:42Z</time>
      </trkpt>
      <trkpt lat="43.91595" lon="5.13441">
        <ele>188.5</ele>
        <time>2017-04-29T12:23:49Z</time>
      </trkpt>
      <trkpt lat="43.91594" lon="5.13447">
        <ele>190.2</ele>
        <time>2017-04-29T12:23:56Z</time>
      </trkpt>
      <trkpt lat="43.91594" lon="5.13453">
        <ele>191.8</ele>
        <time>2017-04-29T12:24:03Z</time>
      </trkpt>
      <trkpt lat="43.91601" lon="5.13458">
        <ele>193.6</ele>
        <time>2017-04-29T12:24:10Z</time>
      </trkpt>
      <trkpt lat="43.91606" lon="5.13461">
        <ele>194.5</ele>
        <time>2017-04-29T12:24:17Z</time>
      </trkpt>
      <trkpt lat="43.91608" lon="5.13463">
        <ele>195.7</ele>
        <time>2017-04-29T12:24:24Z</time>
      </trkpt>
      <trkpt lat="43.91604" lon="5.13464">
        <ele>196.8</ele>
        <time>2017-04-29T12:24:31Z</time>
      </trkpt>
      <trkpt lat="43.91596" lon="5.13467">
        <ele>196.9</ele>
        <time>2017-04-29T12:24:41Z</time>
      </trkpt>
      <trkpt lat="43.91589" lon="5.13468">
        <ele>197.1</ele>
        <time>2017-04-29T12:24:48Z</time>
      </trkpt>
      <trkpt lat="43.91583" lon="5.13467">
        <ele>197.8</ele>
        <time>2017-04-29T12:24:55Z</time>
      </trkpt>
      <trkpt lat="43.91577" lon="5.13464">
        <ele>198.6</ele>
        <time>2017-04-29T12:24:58Z</time>
      </trkpt>
      <trkpt lat="43.91569" lon="5.13463">
        <ele>200.4</ele>
        <time>2017-04-29T12:25:05Z</time>
      </trkpt>
      <trkpt lat="43.91567" lon="5.1347">
        <ele>201.3</ele>
        <time>2017-04-29T12:25:12Z</time>
      </trkpt>
      <trkpt lat="43.91571" lon="5.13476">
        <ele>201.9</ele>
        <time>2017-04-29T12:25:19Z</time>
      </trkpt>
      <trkpt lat="43.91576" lon="5.13478">
        <ele>202.1</ele>
        <time>2017-04-29T12:25:26Z</time>
      </trkpt>
      <trkpt lat="43.91579" lon="5.13481">
        <ele>202.2</ele>
        <time>2017-04-29T12:25:33Z</time>
      </trkpt>
      <trkpt lat="43.91588" lon="5.13479">
        <ele>204.1</ele>
        <time>2017-04-29T12:25:38Z</time>
      </trkpt>
      <trkpt lat="43.91596" lon="5.13477">
        <ele>206.1</ele>
        <time>2017-04-29T12:25:45Z</time>
      </trkpt>
      <trkpt lat="43.91603" lon="5.13477">
        <ele>208.4</ele>
        <time>2017-04-29T12:25:50Z</time>
      </trkpt>
      <trkpt lat="43.91604" lon="5.13483">
        <ele>208.7</ele>
        <time>2017-04-29T12:25:57Z</time>
      </trkpt>
      <trkpt lat="43.91604" lon="5.13487">
        <ele>209.3</ele>
        <time>2017-04-29T12:26:04Z</time>
      </trkpt>
      <trkpt lat="43.91604" lon="5.13491">
        <ele>210.3</ele>
        <time>2017-04-29T12:26:11Z</time>
      </trkpt>
      <trkpt lat="43.91608" lon="5.13496">
        <ele>210.5</ele>
        <time>2017-04-29T12:26:18Z</time>
      </trkpt>
      <trkpt lat="43.91612" lon="5.13501">
        <ele>210.6</ele>
        <time>2017-04-29T12:26:25Z</time>
      </trkpt>
      <trkpt lat="43.91614" lon="5.13507">
        <ele>210.8</ele>
        <time>2017-04-29T12:26:32Z</time>
      </trkpt>
      <trkpt lat="43.91615" lon="5.13515">
        <ele>211.5</ele>
        <time>2017-04-29T12:26:39Z</time>
      </trkpt>
      <trkpt lat="43.91614" lon="5.13524">
        <ele>212.6</ele>
        <time>2017-04-29T12:26:46Z</time>
      </trkpt>
      <trkpt lat="43.91616" lon="5.13531">
        <ele>213.2</ele>
        <time>2017-04-29T12:26:53Z</time>
      </trkpt>
      <trkpt lat="43.91619" lon="5.13536">
        <ele>213.7</ele>
        <time>2017-04-29T12:27:00Z</time>
      </trkpt>
      <trkpt lat="43.91626" lon="5.13541">
        <ele>214.4</ele>
        <time>2017-04-29T12:27:07Z</time>
      </trkpt>
      <trkpt lat="43.91632" lon="5.13546">
        <ele>215.3</ele>
        <time>2017-04-29T12:27:13Z</time>
      </trkpt>
      <trkpt lat="43.91637" lon="5.1355">
        <ele>216</ele>
        <time>2017-04-29T12:27:20Z</time>
      </trkpt>
      <trkpt lat="43.91642" lon="5.13556">
        <ele>216.9</ele>
        <time>2017-04-29T12:27:27Z</time>
      </trkpt>
      <trkpt lat="43.91647" lon="5.13562">
        <ele>217.8</ele>
        <time>2017-04-29T12:27:34Z</time>
      </trkpt>
      <trkpt lat="43.91652" lon="5.13569">
        <ele>218.5</ele>
        <time>2017-04-29T12:27:41Z</time>
      </trkpt>
      <trkpt lat="43.91656" lon="5.13574">
        <ele>219</ele>
        <time>2017-04-29T12:27:48Z</time>
      </trkpt>
      <trkpt lat="43.91661" lon="5.1358">
        <ele>219.7</ele>
        <time>2017-04-29T12:27:55Z</time>
      </trkpt>
      <trkpt lat="43.91664" lon="5.13585">
        <ele>220.4</ele>
        <time>2017-04-29T12:28:02Z</time>
      </trkpt>
      <trkpt lat="43.91669" lon="5.13591">
        <ele>220.7</ele>
        <time>2017-04-29T12:28:09Z</time>
      </trkpt>
      <trkpt lat="43.91672" lon="5.13594">
        <ele>221</ele>
        <time>2017-04-29T12:28:16Z</time>
      </trkpt>
      <trkpt lat="43.91678" lon="5.13595">
        <ele>221.5</ele>
        <time>2017-04-29T12:28:23Z</time>
      </trkpt>
      <trkpt lat="43.91683" lon="5.13599">
        <ele>221.8</ele>
        <time>2017-04-29T12:28:30Z</time>
      </trkpt>
      <trkpt lat="43.91691" lon="5.136">
        <ele>222.7</ele>
        <time>2017-04-29T12:28:37Z</time>
      </trkpt>
      <trkpt lat="43.91695" lon="5.136">
        <ele>224</ele>
        <time>2017-04-29T12:28:44Z</time>
      </trkpt>
      <trkpt lat="43.91702" lon="5.13601">
        <ele>225</ele>
        <time>2017-04-29T12:28:51Z</time>
      </trkpt>
      <trkpt lat="43.91708" lon="5.13603">
        <ele>226.2</ele>
        <time>2017-04-29T12:28:58Z</time>
      </trkpt>
      <trkpt lat="43.91715" lon="5.13608">
        <ele>227.3</ele>
        <time>2017-04-29T12:29:05Z</time>
      </trkpt>
      <trkpt lat="43.91719" lon="5.13612">
        <ele>228.4</ele>
        <time>2017-04-29T12:29:11Z</time>
      </trkpt>
      <trkpt lat="43.91725" lon="5.13617">
        <ele>229.6</ele>
        <time>2017-04-29T12:29:17Z</time>
      </trkpt>
      <trkpt lat="43.91729" lon="5.13623">
        <ele>230.4</ele>
        <time>2017-04-29T12:29:24Z</time>
      </trkpt>
      <trkpt lat="43.91731" lon="5.13629">
        <ele>230.6</ele>
        <time>2017-04-29T12:29:31Z</time>
      </trkpt>
      <trkpt lat="43.91733" lon="5.13636">
        <ele>230.9</ele>
        <time>2017-04-29T12:29:38Z</time>
      </trkpt>
      <trkpt lat="43.91737" lon="5.13643">
        <ele>231.9</ele>
        <time>2017-04-29T12:29:45Z</time>
      </trkpt>
      <trkpt lat="43.91735" lon="5.13652">
        <ele>233.2</ele>
        <time>2017-04-29T12:29:53Z</time>
      </trkpt>
      <trkpt lat="43.91731" lon="5.13657">
        <ele>234</ele>
        <time>2017-04-29T12:29:59Z</time>
      </trkpt>
      <trkpt lat="43.91731" lon="5.13662">
        <ele>235.2</ele>
        <time>2017-04-29T12:30:06Z</time>
      </trkpt>
      <trkpt lat="43.91731" lon="5.13669">
        <ele>235.9</ele>
        <time>2017-04-29T12:30:13Z</time>
      </trkpt>
      <trkpt lat="43.91734" lon="5.13679">
        <ele>236.4</ele>
        <time>2017-04-29T12:30:21Z</time>
      </trkpt>
      <trkpt lat="43.91739" lon="5.13687">
        <ele>236.8</ele>
        <time>2017-04-29T12:30:26Z</time>
      </trkpt>
      <trkpt lat="43.91738" lon="5.13694">
        <ele>238</ele>
        <time>2017-04-29T12:30:33Z</time>
      </trkpt>
      <trkpt lat="43.9174" lon="5.13701">
        <ele>238.8</ele>
        <time>2017-04-29T12:30:41Z</time>
      </trkpt>
      <trkpt lat="43.91743" lon="5.1371">
        <ele>239.7</ele>
        <time>2017-04-29T12:30:47Z</time>
      </trkpt>
      <trkpt lat="43.91745" lon="5.1372">
        <ele>240.2</ele>
        <time>2017-04-29T12:30:55Z</time>
      </trkpt>
      <trkpt lat="43.91745" lon="5.13727">
        <ele>240.7</ele>
        <time>2017-04-29T12:31:01Z</time>
      </trkpt>
      <trkpt lat="43.91746" lon="5.13735">
        <ele>241.4</ele>
        <time>2017-04-29T12:31:08Z</time>
      </trkpt>
      <trkpt lat="43.91745" lon="5.13742">
        <ele>242.1</ele>
        <time>2017-04-29T12:31:15Z</time>
      </trkpt>
      <trkpt lat="43.91748" lon="5.1375">
        <ele>244</ele>
        <time>2017-04-29T12:31:22Z</time>
      </trkpt>
      <trkpt lat="43.91749" lon="5.13759">
        <ele>245.5</ele>
        <time>2017-04-29T12:31:29Z</time>
      </trkpt>
      <trkpt lat="43.91747" lon="5.13766">
        <ele>247.2</ele>
        <time>2017-04-29T12:31:36Z</time>
      </trkpt>
      <trkpt lat="43.91745" lon="5.13771">
        <ele>247.9</ele>
        <time>2017-04-29T12:31:43Z</time>
      </trkpt>
      <trkpt lat="43.91752" lon="5.13774">
        <ele>249.9</ele>
        <time>2017-04-29T12:31:46Z</time>
      </trkpt>
      <trkpt lat="43.91761" lon="5.13784">
        <ele>252.4</ele>
        <time>2017-04-29T12:31:52Z</time>
      </trkpt>
      <trkpt lat="43.91769" lon="5.13787">
        <ele>253.2</ele>
        <time>2017-04-29T12:31:52Z</time>
      </trkpt>
      <trkpt lat="43.9176" lon="5.13788">
        <ele>253.5</ele>
        <time>2017-04-29T12:31:56Z</time>
      </trkpt>
      <trkpt lat="43.91752" lon="5.13788">
        <ele>253.9</ele>
        <time>2017-04-29T12:31:59Z</time>
      </trkpt>
      <trkpt lat="43.91745" lon="5.13787">
        <ele>253.7</ele>
        <time>2017-04-29T12:32:05Z</time>
      </trkpt>
      <trkpt lat="43.91737" lon="5.13785">
        <ele>253.6</ele>
        <time>2017-04-29T12:32:11Z</time>
      </trkpt>
      <trkpt lat="43.91731" lon="5.13787">
        <ele>253.3</ele>
        <time>2017-04-29T12:32:18Z</time>
      </trkpt>
      <trkpt lat="43.91723" lon="5.1379">
        <ele>253.7</ele>
        <time>2017-04-29T12:32:25Z</time>
      </trkpt>
      <trkpt lat="43.91716" lon="5.1379">
        <ele>254.2</ele>
        <time>2017-04-29T12:32:31Z</time>
      </trkpt>
      <trkpt lat="43.9171" lon="5.13796">
        <ele>255.2</ele>
        <time>2017-04-29T12:32:38Z</time>
      </trkpt>
      <trkpt lat="43.91706" lon="5.13799">
        <ele>256</ele>
        <time>2017-04-29T12:32:45Z</time>
      </trkpt>
      <trkpt lat="43.91698" lon="5.13803">
        <ele>257.1</ele>
        <time>2017-04-29T12:32:52Z</time>
      </trkpt>
      <trkpt lat="43.91694" lon="5.1381">
        <ele>257.4</ele>
        <time>2017-04-29T12:32:59Z</time>
      </trkpt>
      <trkpt lat="43.9169" lon="5.13817">
        <ele>258.2</ele>
        <time>2017-04-29T12:33:06Z</time>
      </trkpt>
      <trkpt lat="43.91687" lon="5.13823">
        <ele>259.3</ele>
        <time>2017-04-29T12:33:13Z</time>
      </trkpt>
      <trkpt lat="43.91688" lon="5.13833">
        <ele>259.3</ele>
        <time>2017-04-29T12:33:20Z</time>
      </trkpt>
      <trkpt lat="43.91681" lon="5.13838">
        <ele>259.1</ele>
        <time>2017-04-29T12:33:29Z</time>
      </trkpt>
      <trkpt lat="43.91673" lon="5.1384">
        <ele>258.9</ele>
        <time>2017-04-29T12:33:36Z</time>
      </trkpt>
      <trkpt lat="43.91669" lon="5.13845">
        <ele>257.8</ele>
        <time>2017-04-29T12:33:43Z</time>
      </trkpt>
      <trkpt lat="43.91665" lon="5.13852">
        <ele>256.8</ele>
        <time>2017-04-29T12:33:50Z</time>
      </trkpt>
      <trkpt lat="43.91663" lon="5.13858">
        <ele>256.2</ele>
        <time>2017-04-29T12:33:57Z</time>
      </trkpt>
      <trkpt lat="43.9166" lon="5.13864">
        <ele>255.5</ele>
        <time>2017-04-29T12:34:04Z</time>
      </trkpt>
      <trkpt lat="43.91658" lon="5.13869">
        <ele>255.7</ele>
        <time>2017-04-29T12:34:11Z</time>
      </trkpt>
      <trkpt lat="43.91655" lon="5.13875">
        <ele>256.3</ele>
        <time>2017-04-29T12:34:18Z</time>
      </trkpt>
      <trkpt lat="43.91653" lon="5.1388">
        <ele>258</ele>
        <time>2017-04-29T12:34:25Z</time>
      </trkpt>
      <trkpt lat="43.91652" lon="5.13887">
        <ele>259.2</ele>
        <time>2017-04-29T12:34:32Z</time>
      </trkpt>
      <trkpt lat="43.91651" lon="5.13888">
        <ele>259.7</ele>
        <time>2017-04-29T12:34:39Z</time>
      </trkpt>
      <trkpt lat="43.91655" lon="5.13897">
        <ele>260.8</ele>
        <time>2017-04-29T12:34:46Z</time>
      </trkpt>
      <trkpt lat="43.91657" lon="5.13903">
        <ele>261.7</ele>
        <time>2017-04-29T12:34:53Z</time>
      </trkpt>
      <trkpt lat="43.91659" lon="5.13909">
        <ele>262.7</ele>
        <time>2017-04-29T12:35:00Z</time>
      </trkpt>
      <trkpt lat="43.91663" lon="5.13914">
        <ele>263.5</ele>
        <time>2017-04-29T12:35:07Z</time>
      </trkpt>
      <trkpt lat="43.91669" lon="5.13919">
        <ele>263.9</ele>
        <time>2017-04-29T12:35:14Z</time>
      </trkpt>
      <trkpt lat="43.91669" lon="5.13925">
        <ele>264.5</ele>
        <time>2017-04-29T12:35:21Z</time>
      </trkpt>
      <trkpt lat="43.91673" lon="5.1393">
        <ele>265.2</ele>
        <time>2017-04-29T12:35:28Z</time>
      </trkpt>
      <trkpt lat="43.9168" lon="5.13931">
        <ele>266</ele>
        <time>2017-04-29T12:35:35Z</time>
      </trkpt>
      <trkpt lat="43.91682" lon="5.13926">
        <ele>266.6</ele>
        <time>2017-04-29T12:35:42Z</time>
      </trkpt>
      <trkpt lat="43.91681" lon="5.13925">
        <ele>267</ele>
        <time>2017-04-29T12:35:49Z</time>
      </trkpt>
      <trkpt lat="43.91684" lon="5.13928">
        <ele>267</ele>
        <time>2017-04-29T12:35:56Z</time>
      </trkpt>
      <trkpt lat="43.91687" lon="5.13934">
        <ele>267</ele>
        <time>2017-04-29T12:36:03Z</time>
      </trkpt>
      <trkpt lat="43.91689" lon="5.13939">
        <ele>266.8</ele>
        <time>2017-04-29T12:36:10Z</time>
      </trkpt>
      <trkpt lat="43.9169" lon="5.13946">
        <ele>266.6</ele>
        <time>2017-04-29T12:36:17Z</time>
      </trkpt>
      <trkpt lat="43.91691" lon="5.13951">
        <ele>266.6</ele>
        <time>2017-04-29T12:36:24Z</time>
      </trkpt>
      <trkpt lat="43.91694" lon="5.13958">
        <ele>266.4</ele>
        <time>2017-04-29T12:36:31Z</time>
      </trkpt>
      <trkpt lat="43.91694" lon="5.13966">
        <ele>266.5</ele>
        <time>2017-04-29T12:36:38Z</time>
      </trkpt>
      <trkpt lat="43.91695" lon="5.13974">
        <ele>266.4</ele>
        <time>2017-04-29T12:36:45Z</time>
      </trkpt>
      <trkpt lat="43.91695" lon="5.13983">
        <ele>266</ele>
        <time>2017-04-29T12:36:52Z</time>
      </trkpt>
      <trkpt lat="43.91698" lon="5.1399">
        <ele>265.9</ele>
        <time>2017-04-29T12:36:59Z</time>
      </trkpt>
      <trkpt lat="43.91701" lon="5.13998">
        <ele>264.9</ele>
        <time>2017-04-29T12:37:06Z</time>
      </trkpt>
      <trkpt lat="43.91698" lon="5.14003">
        <ele>265.9</ele>
        <time>2017-04-29T12:37:13Z</time>
      </trkpt>
      <trkpt lat="43.91703" lon="5.14009">
        <ele>266.2</ele>
        <time>2017-04-29T12:37:20Z</time>
      </trkpt>
      <trkpt lat="43.91708" lon="5.14017">
        <ele>265.2</ele>
        <time>2017-04-29T12:37:26Z</time>
      </trkpt>
      <trkpt lat="43.91712" lon="5.14023">
        <ele>265</ele>
        <time>2017-04-29T12:37:33Z</time>
      </trkpt>
      <trkpt lat="43.91718" lon="5.14029">
        <ele>264</ele>
        <time>2017-04-29T12:37:40Z</time>
      </trkpt>
      <trkpt lat="43.91723" lon="5.14033">
        <ele>263.5</ele>
        <time>2017-04-29T12:37:47Z</time>
      </trkpt>
      <trkpt lat="43.91724" lon="5.14036">
        <ele>263.5</ele>
        <time>2017-04-29T12:37:54Z</time>
      </trkpt>
      <trkpt lat="43.91726" lon="5.14047">
        <ele>266.6</ele>
        <time>2017-04-29T12:38:15Z</time>
      </trkpt>
      <trkpt lat="43.91731" lon="5.14054">
        <ele>266.7</ele>
        <time>2017-04-29T12:38:22Z</time>
      </trkpt>
      <trkpt lat="43.91735" lon="5.1406">
        <ele>266.4</ele>
        <time>2017-04-29T12:38:29Z</time>
      </trkpt>
      <trkpt lat="43.91738" lon="5.14068">
        <ele>265.8</ele>
        <time>2017-04-29T12:38:53Z</time>
      </trkpt>
      <trkpt lat="43.91736" lon="5.14076">
        <ele>265.1</ele>
        <time>2017-04-29T12:39:00Z</time>
      </trkpt>
      <trkpt lat="43.91734" lon="5.14083">
        <ele>264.5</ele>
        <time>2017-04-29T12:39:07Z</time>
      </trkpt>
      <trkpt lat="43.91734" lon="5.14088">
        <ele>263.9</ele>
        <time>2017-04-29T12:39:14Z</time>
      </trkpt>
      <trkpt lat="43.9173" lon="5.14094">
        <ele>264.4</ele>
        <time>2017-04-29T12:39:22Z</time>
      </trkpt>
      <trkpt lat="43.91724" lon="5.14094">
        <ele>265</ele>
        <time>2017-04-29T12:39:29Z</time>
      </trkpt>
      <trkpt lat="43.91725" lon="5.14104">
        <ele>264.5</ele>
        <time>2017-04-29T12:39:46Z</time>
      </trkpt>
      <trkpt lat="43.91727" lon="5.14106">
        <ele>264.2</ele>
        <time>2017-04-29T12:39:53Z</time>
      </trkpt>
      <trkpt lat="43.91732" lon="5.1412">
        <ele>286.5</ele>
        <time>2017-04-29T12:41:51Z</time>
      </trkpt>
      <trkpt lat="43.91731" lon="5.14127">
        <ele>286.7</ele>
        <time>2017-04-29T12:41:58Z</time>
      </trkpt>
      <trkpt lat="43.91731" lon="5.14136">
        <ele>287</ele>
        <time>2017-04-29T12:42:05Z</time>
      </trkpt>
      <trkpt lat="43.91731" lon="5.1414">
        <ele>287.3</ele>
        <time>2017-04-29T12:42:12Z</time>
      </trkpt>
      <trkpt lat="43.91729" lon="5.14148">
        <ele>287.7</ele>
        <time>2017-04-29T12:42:19Z</time>
      </trkpt>
      <trkpt lat="43.91729" lon="5.14155">
        <ele>287.9</ele>
        <time>2017-04-29T12:42:26Z</time>
      </trkpt>
      <trkpt lat="43.91725" lon="5.14162">
        <ele>288.4</ele>
        <time>2017-04-29T12:42:33Z</time>
      </trkpt>
      <trkpt lat="43.91723" lon="5.14171">
        <ele>288.5</ele>
        <time>2017-04-29T12:42:40Z</time>
      </trkpt>
      <trkpt lat="43.9172" lon="5.1418">
        <ele>288.5</ele>
        <time>2017-04-29T12:42:47Z</time>
      </trkpt>
      <trkpt lat="43.91717" lon="5.14188">
        <ele>288.3</ele>
        <time>2017-04-29T12:42:54Z</time>
      </trkpt>
      <trkpt lat="43.91716" lon="5.14197">
        <ele>288.2</ele>
        <time>2017-04-29T12:43:01Z</time>
      </trkpt>
      <trkpt lat="43.91719" lon="5.14206">
        <ele>288.1</ele>
        <time>2017-04-29T12:43:08Z</time>
      </trkpt>
      <trkpt lat="43.91721" lon="5.14214">
        <ele>288.3</ele>
        <time>2017-04-29T12:43:15Z</time>
      </trkpt>
      <trkpt lat="43.91724" lon="5.1422">
        <ele>288.2</ele>
        <time>2017-04-29T12:43:22Z</time>
      </trkpt>
      <trkpt lat="43.91728" lon="5.14226">
        <ele>288.1</ele>
        <time>2017-04-29T12:43:29Z</time>
      </trkpt>
      <trkpt lat="43.91731" lon="5.1423">
        <ele>287.9</ele>
        <time>2017-04-29T12:43:36Z</time>
      </trkpt>
      <trkpt lat="43.91737" lon="5.14233">
        <ele>287.8</ele>
        <time>2017-04-29T12:43:43Z</time>
      </trkpt>
      <trkpt lat="43.91743" lon="5.14233">
        <ele>287.8</ele>
        <time>2017-04-29T12:43:50Z</time>
      </trkpt>
      <trkpt lat="43.9175" lon="5.14227">
        <ele>287.9</ele>
        <time>2017-04-29T12:43:57Z</time>
      </trkpt>
      <trkpt lat="43.91756" lon="5.14225">
        <ele>287.4</ele>
        <time>2017-04-29T12:44:04Z</time>
      </trkpt>
      <trkpt lat="43.91761" lon="5.14222">
        <ele>286.9</ele>
        <time>2017-04-29T12:44:11Z</time>
      </trkpt>
      <trkpt lat="43.91763" lon="5.14217">
        <ele>285.9</ele>
        <time>2017-04-29T12:44:18Z</time>
      </trkpt>
      <trkpt lat="43.91765" lon="5.14215">
        <ele>284.4</ele>
        <time>2017-04-29T12:44:25Z</time>
      </trkpt>
      <trkpt lat="43.91768" lon="5.14211">
        <ele>282.7</ele>
        <time>2017-04-29T12:44:32Z</time>
      </trkpt>
      <trkpt lat="43.91775" lon="5.14208">
        <ele>281.4</ele>
        <time>2017-04-29T12:44:37Z</time>
      </trkpt>
      <trkpt lat="43.91782" lon="5.14206">
        <ele>280.1</ele>
        <time>2017-04-29T12:44:44Z</time>
      </trkpt>
      <trkpt lat="43.9179" lon="5.14205">
        <ele>280.4</ele>
        <time>2017-04-29T12:44:51Z</time>
      </trkpt>
      <trkpt lat="43.91797" lon="5.14203">
        <ele>280.5</ele>
        <time>2017-04-29T12:44:58Z</time>
      </trkpt>
      <trkpt lat="43.91802" lon="5.14198">
        <ele>281.6</ele>
        <time>2017-04-29T12:45:05Z</time>
      </trkpt>
      <trkpt lat="43.91809" lon="5.14197">
        <ele>283.6</ele>
        <time>2017-04-29T12:45:12Z</time>
      </trkpt>
      <trkpt lat="43.91817" lon="5.14197">
        <ele>286.2</ele>
        <time>2017-04-29T12:45:19Z</time>
      </trkpt>
      <trkpt lat="43.91819" lon="5.14193">
        <ele>297.4</ele>
        <time>2017-04-29T12:45:26Z</time>
      </trkpt>
      <trkpt lat="43.91824" lon="5.14193">
        <ele>302.2</ele>
        <time>2017-04-29T12:45:33Z</time>
      </trkpt>
      <trkpt lat="43.91827" lon="5.142">
        <ele>307.1</ele>
        <time>2017-04-29T12:45:40Z</time>
      </trkpt>
      <trkpt lat="43.91833" lon="5.14206">
        <ele>312.4</ele>
        <time>2017-04-29T12:45:47Z</time>
      </trkpt>
      <trkpt lat="43.91839" lon="5.14213">
        <ele>316.8</ele>
        <time>2017-04-29T12:45:54Z</time>
      </trkpt>
      <trkpt lat="43.91844" lon="5.14221">
        <ele>320.6</ele>
        <time>2017-04-29T12:46:01Z</time>
      </trkpt>
      <trkpt lat="43.91843" lon="5.14227">
        <ele>324.2</ele>
        <time>2017-04-29T12:46:08Z</time>
      </trkpt>
      <trkpt lat="43.91844" lon="5.14234">
        <ele>327</ele>
        <time>2017-04-29T12:46:15Z</time>
      </trkpt>
      <trkpt lat="43.91848" lon="5.14238">
        <ele>329.4</ele>
        <time>2017-04-29T12:46:21Z</time>
      </trkpt>
      <trkpt lat="43.91852" lon="5.14246">
        <ele>331.4</ele>
        <time>2017-04-29T12:46:28Z</time>
      </trkpt>
      <trkpt lat="43.91855" lon="5.14254">
        <ele>332.6</ele>
        <time>2017-04-29T12:46:35Z</time>
      </trkpt>
      <trkpt lat="43.91861" lon="5.14259">
        <ele>333</ele>
        <time>2017-04-29T12:46:41Z</time>
      </trkpt>
      <trkpt lat="43.91865" lon="5.14265">
        <ele>333.9</ele>
        <time>2017-04-29T12:46:49Z</time>
      </trkpt>
      <trkpt lat="43.91868" lon="5.14274">
        <ele>334.8</ele>
        <time>2017-04-29T12:46:55Z</time>
      </trkpt>
      <trkpt lat="43.91872" lon="5.14283">
        <ele>335.2</ele>
        <time>2017-04-29T12:47:02Z</time>
      </trkpt>
      <trkpt lat="43.91875" lon="5.14291">
        <ele>335.2</ele>
        <time>2017-04-29T12:47:09Z</time>
      </trkpt>
      <trkpt lat="43.91876" lon="5.14297">
        <ele>335.3</ele>
        <time>2017-04-29T12:47:16Z</time>
      </trkpt>
      <trkpt lat="43.91881" lon="5.14302">
        <ele>335.1</ele>
        <time>2017-04-29T12:47:23Z</time>
      </trkpt>
      <trkpt lat="43.91885" lon="5.14306">
        <ele>334.4</ele>
        <time>2017-04-29T12:47:30Z</time>
      </trkpt>
      <trkpt lat="43.91891" lon="5.1431">
        <ele>333.4</ele>
        <time>2017-04-29T12:47:37Z</time>
      </trkpt>
      <trkpt lat="43.91897" lon="5.14314">
        <ele>332.5</ele>
        <time>2017-04-29T12:47:44Z</time>
      </trkpt>
      <trkpt lat="43.91902" lon="5.14321">
        <ele>330.6</ele>
        <time>2017-04-29T12:47:51Z</time>
      </trkpt>
      <trkpt lat="43.91909" lon="5.14325">
        <ele>329</ele>
        <time>2017-04-29T12:47:57Z</time>
      </trkpt>
      <trkpt lat="43.91912" lon="5.14329">
        <ele>327.3</ele>
        <time>2017-04-29T12:48:04Z</time>
      </trkpt>
      <trkpt lat="43.91915" lon="5.14332">
        <ele>325.7</ele>
        <time>2017-04-29T12:48:11Z</time>
      </trkpt>
      <trkpt lat="43.9192" lon="5.14338">
        <ele>324.5</ele>
        <time>2017-04-29T12:48:18Z</time>
      </trkpt>
      <trkpt lat="43.91926" lon="5.14345">
        <ele>323.8</ele>
        <time>2017-04-29T12:48:24Z</time>
      </trkpt>
      <trkpt lat="43.91932" lon="5.14349">
        <ele>322.8</ele>
        <time>2017-04-29T12:48:31Z</time>
      </trkpt>
      <trkpt lat="43.91938" lon="5.14352">
        <ele>321.9</ele>
        <time>2017-04-29T12:48:38Z</time>
      </trkpt>
      <trkpt lat="43.9194" lon="5.14352">
        <ele>321.7</ele>
        <time>2017-04-29T12:48:45Z</time>
      </trkpt>
      <trkpt lat="43.91944" lon="5.14358">
        <ele>321.6</ele>
        <time>2017-04-29T12:48:52Z</time>
      </trkpt>
      <trkpt lat="43.91948" lon="5.14362">
        <ele>321.2</ele>
        <time>2017-04-29T12:48:59Z</time>
      </trkpt>
      <trkpt lat="43.91952" lon="5.14366">
        <ele>320.8</ele>
        <time>2017-04-29T12:49:06Z</time>
      </trkpt>
      <trkpt lat="43.91955" lon="5.14371">
        <ele>320.3</ele>
        <time>2017-04-29T12:49:13Z</time>
      </trkpt>
      <trkpt lat="43.91962" lon="5.14378">
        <ele>318.8</ele>
        <time>2017-04-29T12:49:20Z</time>
      </trkpt>
      <trkpt lat="43.91967" lon="5.14385">
        <ele>317.4</ele>
        <time>2017-04-29T12:49:27Z</time>
      </trkpt>
      <trkpt lat="43.91974" lon="5.14389">
        <ele>316.9</ele>
        <time>2017-04-29T12:49:34Z</time>
      </trkpt>
      <trkpt lat="43.91981" lon="5.14392">
        <ele>316.3</ele>
        <time>2017-04-29T12:49:41Z</time>
      </trkpt>
      <trkpt lat="43.91986" lon="5.14396">
        <ele>315.7</ele>
        <time>2017-04-29T12:49:48Z</time>
      </trkpt>
      <trkpt lat="43.91991" lon="5.14396">
        <ele>315.6</ele>
        <time>2017-04-29T12:49:55Z</time>
      </trkpt>
      <trkpt lat="43.91998" lon="5.14399">
        <ele>315.4</ele>
        <time>2017-04-29T12:50:02Z</time>
      </trkpt>
      <trkpt lat="43.92005" lon="5.144">
        <ele>315.7</ele>
        <time>2017-04-29T12:50:09Z</time>
      </trkpt>
      <trkpt lat="43.9201" lon="5.144">
        <ele>315.2</ele>
        <time>2017-04-29T12:50:16Z</time>
      </trkpt>
      <trkpt lat="43.92017" lon="5.14403">
        <ele>314.9</ele>
        <time>2017-04-29T12:50:24Z</time>
      </trkpt>
      <trkpt lat="43.92022" lon="5.14405">
        <ele>313.8</ele>
        <time>2017-04-29T12:50:30Z</time>
      </trkpt>
      <trkpt lat="43.92026" lon="5.14404">
        <ele>314.6</ele>
        <time>2017-04-29T12:50:37Z</time>
      </trkpt>
      <trkpt lat="43.92032" lon="5.14409">
        <ele>312.3</ele>
        <time>2017-04-29T12:51:53Z</time>
      </trkpt>
      <trkpt lat="43.92033" lon="5.14401">
        <ele>313.7</ele>
        <time>2017-04-29T12:52:21Z</time>
      </trkpt>
      <trkpt lat="43.92033" lon="5.14393">
        <ele>314.4</ele>
        <time>2017-04-29T12:52:27Z</time>
      </trkpt>
      <trkpt lat="43.92035" lon="5.14385">
        <ele>315.3</ele>
        <time>2017-04-29T12:52:34Z</time>
      </trkpt>
      <trkpt lat="43.92036" lon="5.14375">
        <ele>315.9</ele>
        <time>2017-04-29T12:52:41Z</time>
      </trkpt>
      <trkpt lat="43.92034" lon="5.14367">
        <ele>316.5</ele>
        <time>2017-04-29T12:52:48Z</time>
      </trkpt>
      <trkpt lat="43.92034" lon="5.14366">
        <ele>316.6</ele>
        <time>2017-04-29T12:52:55Z</time>
      </trkpt>
      <trkpt lat="43.92035" lon="5.14361">
        <ele>317.1</ele>
        <time>2017-04-29T12:53:17Z</time>
      </trkpt>
      <trkpt lat="43.92034" lon="5.1436">
        <ele>317.4</ele>
        <time>2017-04-29T12:53:23Z</time>
      </trkpt>
      <trkpt lat="43.92035" lon="5.1437">
        <ele>317.7</ele>
        <time>2017-04-29T12:53:30Z</time>
      </trkpt>
      <trkpt lat="43.92038" lon="5.1438">
        <ele>317.9</ele>
        <time>2017-04-29T12:53:37Z</time>
      </trkpt>
      <trkpt lat="43.9204" lon="5.14391">
        <ele>318.1</ele>
        <time>2017-04-29T12:53:44Z</time>
      </trkpt>
      <trkpt lat="43.92039" lon="5.14401">
        <ele>318.2</ele>
        <time>2017-04-29T12:53:51Z</time>
      </trkpt>
      <trkpt lat="43.92037" lon="5.14408">
        <ele>317.8</ele>
        <time>2017-04-29T12:53:58Z</time>
      </trkpt>
      <trkpt lat="43.92034" lon="5.14416">
        <ele>318.2</ele>
        <time>2017-04-29T12:54:05Z</time>
      </trkpt>
      <trkpt lat="43.92034" lon="5.1442">
        <ele>318</ele>
        <time>2017-04-29T12:54:12Z</time>
      </trkpt>
      <trkpt lat="43.92028" lon="5.1441">
        <ele>317.1</ele>
        <time>2017-04-29T12:54:27Z</time>
      </trkpt>
      <trkpt lat="43.92025" lon="5.14408">
        <ele>316.6</ele>
        <time>2017-04-29T12:54:34Z</time>
      </trkpt>
      <trkpt lat="43.92027" lon="5.14407">
        <ele>316.4</ele>
        <time>2017-04-29T12:55:56Z</time>
      </trkpt>
      <trkpt lat="43.9203" lon="5.14387">
        <ele>317.8</ele>
        <time>2017-04-29T12:56:55Z</time>
      </trkpt>
      <trkpt lat="43.92032" lon="5.14377">
        <ele>318.1</ele>
        <time>2017-04-29T12:57:01Z</time>
      </trkpt>
      <trkpt lat="43.92033" lon="5.14368">
        <ele>318.8</ele>
        <time>2017-04-29T12:57:08Z</time>
      </trkpt>
      <trkpt lat="43.92032" lon="5.14358">
        <ele>319.6</ele>
        <time>2017-04-29T12:57:15Z</time>
      </trkpt>
      <trkpt lat="43.92031" lon="5.14351">
        <ele>321.8</ele>
        <time>2017-04-29T12:57:22Z</time>
      </trkpt>
      <trkpt lat="43.9203" lon="5.14342">
        <ele>323.7</ele>
        <time>2017-04-29T12:57:29Z</time>
      </trkpt>
      <trkpt lat="43.92027" lon="5.1433">
        <ele>324.7</ele>
        <time>2017-04-29T12:57:36Z</time>
      </trkpt>
      <trkpt lat="43.92027" lon="5.14321">
        <ele>326</ele>
        <time>2017-04-29T12:57:43Z</time>
      </trkpt>
      <trkpt lat="43.92029" lon="5.14313">
        <ele>327.1</ele>
        <time>2017-04-29T12:57:50Z</time>
      </trkpt>
      <trkpt lat="43.92032" lon="5.14306">
        <ele>328.2</ele>
        <time>2017-04-29T12:57:57Z</time>
      </trkpt>
      <trkpt lat="43.92039" lon="5.14305">
        <ele>329.4</ele>
        <time>2017-04-29T12:58:04Z</time>
      </trkpt>
      <trkpt lat="43.92046" lon="5.14307">
        <ele>330.2</ele>
        <time>2017-04-29T12:58:09Z</time>
      </trkpt>
      <trkpt lat="43.92053" lon="5.14309">
        <ele>331</ele>
        <time>2017-04-29T12:58:14Z</time>
      </trkpt>
      <trkpt lat="43.9206" lon="5.14312">
        <ele>331.5</ele>
        <time>2017-04-29T12:58:21Z</time>
      </trkpt>
      <trkpt lat="43.92067" lon="5.14317">
        <ele>331.8</ele>
        <time>2017-04-29T12:58:28Z</time>
      </trkpt>
      <trkpt lat="43.92073" lon="5.14322">
        <ele>332</ele>
        <time>2017-04-29T12:58:35Z</time>
      </trkpt>
      <trkpt lat="43.92078" lon="5.14328">
        <ele>332.2</ele>
        <time>2017-04-29T12:58:42Z</time>
      </trkpt>
      <trkpt lat="43.92084" lon="5.14333">
        <ele>333.2</ele>
        <time>2017-04-29T12:58:49Z</time>
      </trkpt>
      <trkpt lat="43.9209" lon="5.14338">
        <ele>333.9</ele>
        <time>2017-04-29T12:58:56Z</time>
      </trkpt>
      <trkpt lat="43.92096" lon="5.14338">
        <ele>334.4</ele>
        <time>2017-04-29T12:59:03Z</time>
      </trkpt>
      <trkpt lat="43.92102" lon="5.14339">
        <ele>335.1</ele>
        <time>2017-04-29T12:59:10Z</time>
      </trkpt>
      <trkpt lat="43.92108" lon="5.14339">
        <ele>335.6</ele>
        <time>2017-04-29T12:59:17Z</time>
      </trkpt>
      <trkpt lat="43.92114" lon="5.1434">
        <ele>336.4</ele>
        <time>2017-04-29T12:59:24Z</time>
      </trkpt>
      <trkpt lat="43.92119" lon="5.14338">
        <ele>337.2</ele>
        <time>2017-04-29T12:59:31Z</time>
      </trkpt>
      <trkpt lat="43.92125" lon="5.14339">
        <ele>338.3</ele>
        <time>2017-04-29T12:59:38Z</time>
      </trkpt>
      <trkpt lat="43.92132" lon="5.14341">
        <ele>338.8</ele>
        <time>2017-04-29T12:59:45Z</time>
      </trkpt>
      <trkpt lat="43.9214" lon="5.14344">
        <ele>338.9</ele>
        <time>2017-04-29T12:59:52Z</time>
      </trkpt>
      <trkpt lat="43.92147" lon="5.14348">
        <ele>338.5</ele>
        <time>2017-04-29T12:59:59Z</time>
      </trkpt>
      <trkpt lat="43.92154" lon="5.14351">
        <ele>338.7</ele>
        <time>2017-04-29T13:00:06Z</time>
      </trkpt>
      <trkpt lat="43.92161" lon="5.14354">
        <ele>339.1</ele>
        <time>2017-04-29T13:00:13Z</time>
      </trkpt>
      <trkpt lat="43.92168" lon="5.14357">
        <ele>339.1</ele>
        <time>2017-04-29T13:00:20Z</time>
      </trkpt>
      <trkpt lat="43.92174" lon="5.14357">
        <ele>339</ele>
        <time>2017-04-29T13:00:27Z</time>
      </trkpt>
      <trkpt lat="43.92178" lon="5.14354">
        <ele>345</ele>
        <time>2017-04-29T13:00:34Z</time>
      </trkpt>
      <trkpt lat="43.92185" lon="5.14357">
        <ele>347.2</ele>
        <time>2017-04-29T13:00:41Z</time>
      </trkpt>
      <trkpt lat="43.92192" lon="5.14361">
        <ele>348.8</ele>
        <time>2017-04-29T13:00:48Z</time>
      </trkpt>
      <trkpt lat="43.92198" lon="5.14361">
        <ele>350.4</ele>
        <time>2017-04-29T13:00:55Z</time>
      </trkpt>
      <trkpt lat="43.92204" lon="5.14361">
        <ele>351</ele>
        <time>2017-04-29T13:01:02Z</time>
      </trkpt>
      <trkpt lat="43.9221" lon="5.14361">
        <ele>351.7</ele>
        <time>2017-04-29T13:01:09Z</time>
      </trkpt>
      <trkpt lat="43.92215" lon="5.14359">
        <ele>352.9</ele>
        <time>2017-04-29T13:01:16Z</time>
      </trkpt>
      <trkpt lat="43.92221" lon="5.14356">
        <ele>354.3</ele>
        <time>2017-04-29T13:01:23Z</time>
      </trkpt>
      <trkpt lat="43.92226" lon="5.14357">
        <ele>355.2</ele>
        <time>2017-04-29T13:01:30Z</time>
      </trkpt>
      <trkpt lat="43.92232" lon="5.14358">
        <ele>356.2</ele>
        <time>2017-04-29T13:01:37Z</time>
      </trkpt>
      <trkpt lat="43.92239" lon="5.1436">
        <ele>358.3</ele>
        <time>2017-04-29T13:01:44Z</time>
      </trkpt>
      <trkpt lat="43.92246" lon="5.1436">
        <ele>360.3</ele>
        <time>2017-04-29T13:01:51Z</time>
      </trkpt>
      <trkpt lat="43.92252" lon="5.14359">
        <ele>361.4</ele>
        <time>2017-04-29T13:01:59Z</time>
      </trkpt>
      <trkpt lat="43.92259" lon="5.14361">
        <ele>362.5</ele>
        <time>2017-04-29T13:02:05Z</time>
      </trkpt>
      <trkpt lat="43.92265" lon="5.14361">
        <ele>364</ele>
        <time>2017-04-29T13:02:12Z</time>
      </trkpt>
      <trkpt lat="43.92272" lon="5.14363">
        <ele>365.3</ele>
        <time>2017-04-29T13:02:19Z</time>
      </trkpt>
      <trkpt lat="43.9228" lon="5.14362">
        <ele>365.9</ele>
        <time>2017-04-29T13:02:26Z</time>
      </trkpt>
      <trkpt lat="43.92286" lon="5.14363">
        <ele>366</ele>
        <time>2017-04-29T13:02:33Z</time>
      </trkpt>
      <trkpt lat="43.92293" lon="5.14365">
        <ele>366.3</ele>
        <time>2017-04-29T13:02:40Z</time>
      </trkpt>
      <trkpt lat="43.92299" lon="5.14366">
        <ele>368.6</ele>
        <time>2017-04-29T13:02:47Z</time>
      </trkpt>
      <trkpt lat="43.92306" lon="5.14366">
        <ele>370.9</ele>
        <time>2017-04-29T13:02:54Z</time>
      </trkpt>
      <trkpt lat="43.92313" lon="5.14364">
        <ele>371.7</ele>
        <time>2017-04-29T13:03:01Z</time>
      </trkpt>
      <trkpt lat="43.92319" lon="5.14363">
        <ele>370.3</ele>
        <time>2017-04-29T13:03:08Z</time>
      </trkpt>
      <trkpt lat="43.92326" lon="5.14362">
        <ele>369.3</ele>
        <time>2017-04-29T13:03:15Z</time>
      </trkpt>
      <trkpt lat="43.92333" lon="5.14361">
        <ele>370.4</ele>
        <time>2017-04-29T13:03:22Z</time>
      </trkpt>
      <trkpt lat="43.9234" lon="5.14364">
        <ele>369.4</ele>
        <time>2017-04-29T13:03:29Z</time>
      </trkpt>
      <trkpt lat="43.92347" lon="5.14366">
        <ele>369</ele>
        <time>2017-04-29T13:03:36Z</time>
      </trkpt>
      <trkpt lat="43.92355" lon="5.14368">
        <ele>366.8</ele>
        <time>2017-04-29T13:03:42Z</time>
      </trkpt>
      <trkpt lat="43.92362" lon="5.1437">
        <ele>367.6</ele>
        <time>2017-04-29T13:03:49Z</time>
      </trkpt>
      <trkpt lat="43.92369" lon="5.14373">
        <ele>367.3</ele>
        <time>2017-04-29T13:03:56Z</time>
      </trkpt>
      <trkpt lat="43.92376" lon="5.14375">
        <ele>366.4</ele>
        <time>2017-04-29T13:04:02Z</time>
      </trkpt>
      <trkpt lat="43.92383" lon="5.14378">
        <ele>366.5</ele>
        <time>2017-04-29T13:04:09Z</time>
      </trkpt>
      <trkpt lat="43.9239" lon="5.14378">
        <ele>365.7</ele>
        <time>2017-04-29T13:04:16Z</time>
      </trkpt>
      <trkpt lat="43.92395" lon="5.14378">
        <ele>365</ele>
        <time>2017-04-29T13:04:23Z</time>
      </trkpt>
      <trkpt lat="43.92403" lon="5.14381">
        <ele>364.6</ele>
        <time>2017-04-29T13:04:30Z</time>
      </trkpt>
      <trkpt lat="43.9241" lon="5.14382">
        <ele>364.8</ele>
        <time>2017-04-29T13:04:37Z</time>
      </trkpt>
      <trkpt lat="43.92417" lon="5.14386">
        <ele>364.7</ele>
        <time>2017-04-29T13:04:44Z</time>
      </trkpt>
      <trkpt lat="43.92423" lon="5.14388">
        <ele>364.8</ele>
        <time>2017-04-29T13:04:51Z</time>
      </trkpt>
      <trkpt lat="43.9243" lon="5.14388">
        <ele>365.7</ele>
        <time>2017-04-29T13:04:58Z</time>
      </trkpt>
      <trkpt lat="43.92436" lon="5.14387">
        <ele>366.5</ele>
        <time>2017-04-29T13:05:05Z</time>
      </trkpt>
      <trkpt lat="43.92442" lon="5.14383">
        <ele>367.2</ele>
        <time>2017-04-29T13:05:12Z</time>
      </trkpt>
      <trkpt lat="43.92447" lon="5.14379">
        <ele>369</ele>
        <time>2017-04-29T13:05:19Z</time>
      </trkpt>
      <trkpt lat="43.92451" lon="5.14376">
        <ele>370.9</ele>
        <time>2017-04-29T13:05:26Z</time>
      </trkpt>
      <trkpt lat="43.92455" lon="5.14372">
        <ele>372.8</ele>
        <time>2017-04-29T13:05:33Z</time>
      </trkpt>
      <trkpt lat="43.92459" lon="5.14369">
        <ele>374.4</ele>
        <time>2017-04-29T13:05:40Z</time>
      </trkpt>
      <trkpt lat="43.92466" lon="5.14368">
        <ele>375.6</ele>
        <time>2017-04-29T13:05:47Z</time>
      </trkpt>
      <trkpt lat="43.92472" lon="5.14367">
        <ele>376.1</ele>
        <time>2017-04-29T13:05:54Z</time>
      </trkpt>
      <trkpt lat="43.92476" lon="5.14365">
        <ele>376</ele>
        <time>2017-04-29T13:06:01Z</time>
      </trkpt>
      <trkpt lat="43.92482" lon="5.14364">
        <ele>376.2</ele>
        <time>2017-04-29T13:06:08Z</time>
      </trkpt>
      <trkpt lat="43.9249" lon="5.14363">
        <ele>377.2</ele>
        <time>2017-04-29T13:06:15Z</time>
      </trkpt>
      <trkpt lat="43.92497" lon="5.14363">
        <ele>378.1</ele>
        <time>2017-04-29T13:06:22Z</time>
      </trkpt>
      <trkpt lat="43.92503" lon="5.14362">
        <ele>379.2</ele>
        <time>2017-04-29T13:06:29Z</time>
      </trkpt>
      <trkpt lat="43.92508" lon="5.14361">
        <ele>380.7</ele>
        <time>2017-04-29T13:06:36Z</time>
      </trkpt>
      <trkpt lat="43.92514" lon="5.14362">
        <ele>381.2</ele>
        <time>2017-04-29T13:06:44Z</time>
      </trkpt>
      <trkpt lat="43.92521" lon="5.14362">
        <ele>380.6</ele>
        <time>2017-04-29T13:06:50Z</time>
      </trkpt>
      <trkpt lat="43.92529" lon="5.14362">
        <ele>380.1</ele>
        <time>2017-04-29T13:06:57Z</time>
      </trkpt>
      <trkpt lat="43.92536" lon="5.14363">
        <ele>380.4</ele>
        <time>2017-04-29T13:07:05Z</time>
      </trkpt>
      <trkpt lat="43.92542" lon="5.14362">
        <ele>381.3</ele>
        <time>2017-04-29T13:07:11Z</time>
      </trkpt>
      <trkpt lat="43.92548" lon="5.14361">
        <ele>381</ele>
        <time>2017-04-29T13:07:18Z</time>
      </trkpt>
      <trkpt lat="43.92555" lon="5.14362">
        <ele>379.8</ele>
        <time>2017-04-29T13:07:25Z</time>
      </trkpt>
      <trkpt lat="43.92563" lon="5.14361">
        <ele>379</ele>
        <time>2017-04-29T13:07:31Z</time>
      </trkpt>
      <trkpt lat="43.92569" lon="5.14359">
        <ele>378.5</ele>
        <time>2017-04-29T13:07:38Z</time>
      </trkpt>
      <trkpt lat="43.92576" lon="5.14357">
        <ele>380</ele>
        <time>2017-04-29T13:07:45Z</time>
      </trkpt>
      <trkpt lat="43.92583" lon="5.14354">
        <ele>380.8</ele>
        <time>2017-04-29T13:07:52Z</time>
      </trkpt>
      <trkpt lat="43.92589" lon="5.14352">
        <ele>381</ele>
        <time>2017-04-29T13:07:59Z</time>
      </trkpt>
      <trkpt lat="43.92595" lon="5.14349">
        <ele>381.6</ele>
        <time>2017-04-29T13:08:06Z</time>
      </trkpt>
      <trkpt lat="43.92602" lon="5.14348">
        <ele>381.4</ele>
        <time>2017-04-29T13:08:13Z</time>
      </trkpt>
      <trkpt lat="43.92607" lon="5.14344">
        <ele>381.6</ele>
        <time>2017-04-29T13:08:20Z</time>
      </trkpt>
      <trkpt lat="43.92614" lon="5.1434">
        <ele>382.1</ele>
        <time>2017-04-29T13:08:27Z</time>
      </trkpt>
      <trkpt lat="43.92621" lon="5.14335">
        <ele>382.8</ele>
        <time>2017-04-29T13:08:34Z</time>
      </trkpt>
      <trkpt lat="43.92628" lon="5.14332">
        <ele>383.1</ele>
        <time>2017-04-29T13:08:41Z</time>
      </trkpt>
      <trkpt lat="43.92633" lon="5.14329">
        <ele>383.6</ele>
        <time>2017-04-29T13:08:48Z</time>
      </trkpt>
      <trkpt lat="43.9264" lon="5.14326">
        <ele>384.2</ele>
        <time>2017-04-29T13:08:55Z</time>
      </trkpt>
      <trkpt lat="43.92647" lon="5.14324">
        <ele>385.2</ele>
        <time>2017-04-29T13:09:03Z</time>
      </trkpt>
      <trkpt lat="43.92651" lon="5.14322">
        <ele>386</ele>
        <time>2017-04-29T13:09:09Z</time>
      </trkpt>
      <trkpt lat="43.92658" lon="5.14321">
        <ele>386.7</ele>
        <time>2017-04-29T13:09:16Z</time>
      </trkpt>
      <trkpt lat="43.92666" lon="5.14321">
        <ele>387.1</ele>
        <time>2017-04-29T13:09:23Z</time>
      </trkpt>
      <trkpt lat="43.92672" lon="5.14318">
        <ele>387</ele>
        <time>2017-04-29T13:09:30Z</time>
      </trkpt>
      <trkpt lat="43.92678" lon="5.14317">
        <ele>386.9</ele>
        <time>2017-04-29T13:09:37Z</time>
      </trkpt>
      <trkpt lat="43.92683" lon="5.14316">
        <ele>387.1</ele>
        <time>2017-04-29T13:09:44Z</time>
      </trkpt>
      <trkpt lat="43.9269" lon="5.14315">
        <ele>387.9</ele>
        <time>2017-04-29T13:09:51Z</time>
      </trkpt>
      <trkpt lat="43.92696" lon="5.14316">
        <ele>388.6</ele>
        <time>2017-04-29T13:09:58Z</time>
      </trkpt>
      <trkpt lat="43.92701" lon="5.14315">
        <ele>388.9</ele>
        <time>2017-04-29T13:10:05Z</time>
      </trkpt>
      <trkpt lat="43.92707" lon="5.14315">
        <ele>390.2</ele>
        <time>2017-04-29T13:10:12Z</time>
      </trkpt>
      <trkpt lat="43.92712" lon="5.14315">
        <ele>391.1</ele>
        <time>2017-04-29T13:10:19Z</time>
      </trkpt>
      <trkpt lat="43.92719" lon="5.14316">
        <ele>391</ele>
        <time>2017-04-29T13:10:26Z</time>
      </trkpt>
      <trkpt lat="43.92726" lon="5.14316">
        <ele>392.2</ele>
        <time>2017-04-29T13:10:33Z</time>
      </trkpt>
      <trkpt lat="43.92732" lon="5.14317">
        <ele>392.8</ele>
        <time>2017-04-29T13:10:40Z</time>
      </trkpt>
      <trkpt lat="43.92739" lon="5.14317">
        <ele>393.7</ele>
        <time>2017-04-29T13:10:47Z</time>
      </trkpt>
      <trkpt lat="43.92746" lon="5.14319">
        <ele>393.4</ele>
        <time>2017-04-29T13:10:54Z</time>
      </trkpt>
      <trkpt lat="43.92753" lon="5.14319">
        <ele>391.8</ele>
        <time>2017-04-29T13:11:01Z</time>
      </trkpt>
      <trkpt lat="43.9276" lon="5.14319">
        <ele>390.8</ele>
        <time>2017-04-29T13:11:08Z</time>
      </trkpt>
      <trkpt lat="43.92767" lon="5.14316">
        <ele>390.2</ele>
        <time>2017-04-29T13:11:15Z</time>
      </trkpt>
      <trkpt lat="43.92773" lon="5.14314">
        <ele>390.6</ele>
        <time>2017-04-29T13:11:22Z</time>
      </trkpt>
      <trkpt lat="43.92781" lon="5.14314">
        <ele>390.7</ele>
        <time>2017-04-29T13:11:29Z</time>
      </trkpt>
      <trkpt lat="43.92786" lon="5.1431">
        <ele>392.7</ele>
        <time>2017-04-29T13:11:36Z</time>
      </trkpt>
      <trkpt lat="43.92792" lon="5.14308">
        <ele>393.3</ele>
        <time>2017-04-29T13:11:43Z</time>
      </trkpt>
      <trkpt lat="43.92798" lon="5.14307">
        <ele>394</ele>
        <time>2017-04-29T13:11:50Z</time>
      </trkpt>
      <trkpt lat="43.92804" lon="5.14306">
        <ele>394</ele>
        <time>2017-04-29T13:11:57Z</time>
      </trkpt>
      <trkpt lat="43.92811" lon="5.14305">
        <ele>394.2</ele>
        <time>2017-04-29T13:12:04Z</time>
      </trkpt>
      <trkpt lat="43.92817" lon="5.14302">
        <ele>394.6</ele>
        <time>2017-04-29T13:12:11Z</time>
      </trkpt>
      <trkpt lat="43.9282" lon="5.14297">
        <ele>395.1</ele>
        <time>2017-04-29T13:12:18Z</time>
      </trkpt>
      <trkpt lat="43.92826" lon="5.14296">
        <ele>395.8</ele>
        <time>2017-04-29T13:12:25Z</time>
      </trkpt>
      <trkpt lat="43.92829" lon="5.14289">
        <ele>397.2</ele>
        <time>2017-04-29T13:12:32Z</time>
      </trkpt>
      <trkpt lat="43.92832" lon="5.14284">
        <ele>397.9</ele>
        <time>2017-04-29T13:12:39Z</time>
      </trkpt>
      <trkpt lat="43.92836" lon="5.1428">
        <ele>398.2</ele>
        <time>2017-04-29T13:12:46Z</time>
      </trkpt>
      <trkpt lat="43.92841" lon="5.14274">
        <ele>398.7</ele>
        <time>2017-04-29T13:12:53Z</time>
      </trkpt>
      <trkpt lat="43.92844" lon="5.14267">
        <ele>398.9</ele>
        <time>2017-04-29T13:13:00Z</time>
      </trkpt>
      <trkpt lat="43.92848" lon="5.1426">
        <ele>399.4</ele>
        <time>2017-04-29T13:13:07Z</time>
      </trkpt>
      <trkpt lat="43.92852" lon="5.14256">
        <ele>400.1</ele>
        <time>2017-04-29T13:13:14Z</time>
      </trkpt>
      <trkpt lat="43.92858" lon="5.14255">
        <ele>401.3</ele>
        <time>2017-04-29T13:13:21Z</time>
      </trkpt>
      <trkpt lat="43.92865" lon="5.14255">
        <ele>402</ele>
        <time>2017-04-29T13:13:28Z</time>
      </trkpt>
      <trkpt lat="43.92872" lon="5.14256">
        <ele>402.2</ele>
        <time>2017-04-29T13:13:35Z</time>
      </trkpt>
      <trkpt lat="43.92879" lon="5.14256">
        <ele>402.4</ele>
        <time>2017-04-29T13:13:42Z</time>
      </trkpt>
      <trkpt lat="43.92883" lon="5.14258">
        <ele>404.3</ele>
        <time>2017-04-29T13:13:49Z</time>
      </trkpt>
      <trkpt lat="43.92885" lon="5.14258">
        <ele>404.3</ele>
        <time>2017-04-29T13:13:56Z</time>
      </trkpt>
      <trkpt lat="43.92893" lon="5.14259">
        <ele>405.7</ele>
        <time>2017-04-29T13:14:06Z</time>
      </trkpt>
      <trkpt lat="43.929" lon="5.14261">
        <ele>406.2</ele>
        <time>2017-04-29T13:14:13Z</time>
      </trkpt>
      <trkpt lat="43.92907" lon="5.14262">
        <ele>407</ele>
        <time>2017-04-29T13:14:20Z</time>
      </trkpt>
      <trkpt lat="43.92913" lon="5.14261">
        <ele>408.3</ele>
        <time>2017-04-29T13:14:28Z</time>
      </trkpt>
      <trkpt lat="43.92918" lon="5.14259">
        <ele>409.6</ele>
        <time>2017-04-29T13:14:34Z</time>
      </trkpt>
      <trkpt lat="43.92922" lon="5.14259">
        <ele>410.8</ele>
        <time>2017-04-29T13:14:41Z</time>
      </trkpt>
      <trkpt lat="43.92927" lon="5.14257">
        <ele>411.8</ele>
        <time>2017-04-29T13:14:48Z</time>
      </trkpt>
      <trkpt lat="43.92935" lon="5.14257">
        <ele>412.9</ele>
        <time>2017-04-29T13:14:55Z</time>
      </trkpt>
      <trkpt lat="43.92942" lon="5.14259">
        <ele>413.8</ele>
        <time>2017-04-29T13:15:01Z</time>
      </trkpt>
      <trkpt lat="43.92947" lon="5.1426">
        <ele>414.8</ele>
        <time>2017-04-29T13:15:08Z</time>
      </trkpt>
      <trkpt lat="43.92953" lon="5.14261">
        <ele>414.7</ele>
        <time>2017-04-29T13:15:15Z</time>
      </trkpt>
      <trkpt lat="43.9296" lon="5.1426">
        <ele>414.8</ele>
        <time>2017-04-29T13:15:22Z</time>
      </trkpt>
      <trkpt lat="43.92965" lon="5.14259">
        <ele>414.7</ele>
        <time>2017-04-29T13:15:29Z</time>
      </trkpt>
      <trkpt lat="43.9297" lon="5.14256">
        <ele>415.1</ele>
        <time>2017-04-29T13:15:36Z</time>
      </trkpt>
      <trkpt lat="43.92976" lon="5.14254">
        <ele>415.9</ele>
        <time>2017-04-29T13:15:43Z</time>
      </trkpt>
      <trkpt lat="43.92984" lon="5.14254">
        <ele>416.8</ele>
        <time>2017-04-29T13:15:50Z</time>
      </trkpt>
      <trkpt lat="43.92989" lon="5.14253">
        <ele>418</ele>
        <time>2017-04-29T13:15:57Z</time>
      </trkpt>
      <trkpt lat="43.92995" lon="5.14253">
        <ele>418.2</ele>
        <time>2017-04-29T13:16:04Z</time>
      </trkpt>
      <trkpt lat="43.93002" lon="5.14254">
        <ele>418.4</ele>
        <time>2017-04-29T13:16:11Z</time>
      </trkpt>
      <trkpt lat="43.93009" lon="5.14256">
        <ele>418.6</ele>
        <time>2017-04-29T13:16:18Z</time>
      </trkpt>
      <trkpt lat="43.93016" lon="5.14257">
        <ele>419.6</ele>
        <time>2017-04-29T13:16:25Z</time>
      </trkpt>
      <trkpt lat="43.93023" lon="5.14261">
        <ele>420.4</ele>
        <time>2017-04-29T13:16:32Z</time>
      </trkpt>
      <trkpt lat="43.93029" lon="5.14265">
        <ele>420.6</ele>
        <time>2017-04-29T13:16:39Z</time>
      </trkpt>
      <trkpt lat="43.93035" lon="5.14267">
        <ele>421.3</ele>
        <time>2017-04-29T13:16:46Z</time>
      </trkpt>
      <trkpt lat="43.93042" lon="5.1427">
        <ele>422</ele>
        <time>2017-04-29T13:16:53Z</time>
      </trkpt>
      <trkpt lat="43.93048" lon="5.14271">
        <ele>424.3</ele>
        <time>2017-04-29T13:17:00Z</time>
      </trkpt>
      <trkpt lat="43.93054" lon="5.14275">
        <ele>425.1</ele>
        <time>2017-04-29T13:17:07Z</time>
      </trkpt>
      <trkpt lat="43.9306" lon="5.14278">
        <ele>426.4</ele>
        <time>2017-04-29T13:17:14Z</time>
      </trkpt>
      <trkpt lat="43.93065" lon="5.14283">
        <ele>429.4</ele>
        <time>2017-04-29T13:17:21Z</time>
      </trkpt>
      <trkpt lat="43.9307" lon="5.14288">
        <ele>430.4</ele>
        <time>2017-04-29T13:17:28Z</time>
      </trkpt>
      <trkpt lat="43.93072" lon="5.14296">
        <ele>431.1</ele>
        <time>2017-04-29T13:17:35Z</time>
      </trkpt>
      <trkpt lat="43.93076" lon="5.14303">
        <ele>431.7</ele>
        <time>2017-04-29T13:17:42Z</time>
      </trkpt>
      <trkpt lat="43.93077" lon="5.14308">
        <ele>432.6</ele>
        <time>2017-04-29T13:17:49Z</time>
      </trkpt>
      <trkpt lat="43.93079" lon="5.14319">
        <ele>432.3</ele>
        <time>2017-04-29T13:18:04Z</time>
      </trkpt>
      <trkpt lat="43.93081" lon="5.14326">
        <ele>432.2</ele>
        <time>2017-04-29T13:18:11Z</time>
      </trkpt>
      <trkpt lat="43.93083" lon="5.14335">
        <ele>431.8</ele>
        <time>2017-04-29T13:18:18Z</time>
      </trkpt>
      <trkpt lat="43.93086" lon="5.14344">
        <ele>431.8</ele>
        <time>2017-04-29T13:18:25Z</time>
      </trkpt>
      <trkpt lat="43.93088" lon="5.14352">
        <ele>431.3</ele>
        <time>2017-04-29T13:18:32Z</time>
      </trkpt>
      <trkpt lat="43.93092" lon="5.14356">
        <ele>431.2</ele>
        <time>2017-04-29T13:18:39Z</time>
      </trkpt>
      <trkpt lat="43.931" lon="5.14359">
        <ele>430.5</ele>
        <time>2017-04-29T13:18:46Z</time>
      </trkpt>
      <trkpt lat="43.93106" lon="5.14361">
        <ele>430.3</ele>
        <time>2017-04-29T13:18:53Z</time>
      </trkpt>
      <trkpt lat="43.93113" lon="5.14365">
        <ele>430.4</ele>
        <time>2017-04-29T13:19:00Z</time>
      </trkpt>
      <trkpt lat="43.93119" lon="5.14367">
        <ele>430.8</ele>
        <time>2017-04-29T13:19:07Z</time>
      </trkpt>
      <trkpt lat="43.93125" lon="5.14371">
        <ele>430.9</ele>
        <time>2017-04-29T13:19:14Z</time>
      </trkpt>
      <trkpt lat="43.9313" lon="5.14378">
        <ele>431</ele>
        <time>2017-04-29T13:19:22Z</time>
      </trkpt>
      <trkpt lat="43.93133" lon="5.14382">
        <ele>430.7</ele>
        <time>2017-04-29T13:19:28Z</time>
      </trkpt>
      <trkpt lat="43.93138" lon="5.14387">
        <ele>431.2</ele>
        <time>2017-04-29T13:19:35Z</time>
      </trkpt>
      <trkpt lat="43.93143" lon="5.14393">
        <ele>431.5</ele>
        <time>2017-04-29T13:19:42Z</time>
      </trkpt>
      <trkpt lat="43.93149" lon="5.14398">
        <ele>432</ele>
        <time>2017-04-29T13:19:49Z</time>
      </trkpt>
      <trkpt lat="43.93156" lon="5.14403">
        <ele>432</ele>
        <time>2017-04-29T13:19:56Z</time>
      </trkpt>
      <trkpt lat="43.93163" lon="5.14406">
        <ele>432.5</ele>
        <time>2017-04-29T13:20:03Z</time>
      </trkpt>
      <trkpt lat="43.93169" lon="5.14408">
        <ele>432.7</ele>
        <time>2017-04-29T13:20:10Z</time>
      </trkpt>
      <trkpt lat="43.93174" lon="5.1441">
        <ele>433.4</ele>
        <time>2017-04-29T13:20:17Z</time>
      </trkpt>
      <trkpt lat="43.93177" lon="5.14413">
        <ele>434.2</ele>
        <time>2017-04-29T13:20:24Z</time>
      </trkpt>
      <trkpt lat="43.9318" lon="5.14416">
        <ele>435.1</ele>
        <time>2017-04-29T13:20:31Z</time>
      </trkpt>
      <trkpt lat="43.93182" lon="5.14423">
        <ele>436.4</ele>
        <time>2017-04-29T13:20:38Z</time>
      </trkpt>
      <trkpt lat="43.93184" lon="5.14427">
        <ele>438.6</ele>
        <time>2017-04-29T13:20:45Z</time>
      </trkpt>
      <trkpt lat="43.93186" lon="5.14432">
        <ele>440</ele>
        <time>2017-04-29T13:20:52Z</time>
      </trkpt>
      <trkpt lat="43.93189" lon="5.14439">
        <ele>442.2</ele>
        <time>2017-04-29T13:20:59Z</time>
      </trkpt>
      <trkpt lat="43.93192" lon="5.14444">
        <ele>444.3</ele>
        <time>2017-04-29T13:21:06Z</time>
      </trkpt>
      <trkpt lat="43.93197" lon="5.14452">
        <ele>447.2</ele>
        <time>2017-04-29T13:21:22Z</time>
      </trkpt>
      <trkpt lat="43.93201" lon="5.1446">
        <ele>448.3</ele>
        <time>2017-04-29T13:21:29Z</time>
      </trkpt>
      <trkpt lat="43.93202" lon="5.14468">
        <ele>449.4</ele>
        <time>2017-04-29T13:21:36Z</time>
      </trkpt>
      <trkpt lat="43.93206" lon="5.14471">
        <ele>450.3</ele>
        <time>2017-04-29T13:21:45Z</time>
      </trkpt>
      <trkpt lat="43.93211" lon="5.14478">
        <ele>449.6</ele>
        <time>2017-04-29T13:22:10Z</time>
      </trkpt>
      <trkpt lat="43.93215" lon="5.14483">
        <ele>448.6</ele>
        <time>2017-04-29T13:22:17Z</time>
      </trkpt>
      <trkpt lat="43.93216" lon="5.1449">
        <ele>448.3</ele>
        <time>2017-04-29T13:22:24Z</time>
      </trkpt>
      <trkpt lat="43.93221" lon="5.14495">
        <ele>448.9</ele>
        <time>2017-04-29T13:22:31Z</time>
      </trkpt>
      <trkpt lat="43.93224" lon="5.145">
        <ele>450.3</ele>
        <time>2017-04-29T13:22:38Z</time>
      </trkpt>
      <trkpt lat="43.93229" lon="5.14508">
        <ele>451.3</ele>
        <time>2017-04-29T13:22:45Z</time>
      </trkpt>
      <trkpt lat="43.93233" lon="5.14515">
        <ele>452.4</ele>
        <time>2017-04-29T13:22:53Z</time>
      </trkpt>
      <trkpt lat="43.93238" lon="5.14521">
        <ele>453.4</ele>
        <time>2017-04-29T13:22:59Z</time>
      </trkpt>
      <trkpt lat="43.93241" lon="5.14528">
        <ele>453.6</ele>
        <time>2017-04-29T13:23:06Z</time>
      </trkpt>
      <trkpt lat="43.93245" lon="5.14533">
        <ele>454.1</ele>
        <time>2017-04-29T13:23:13Z</time>
      </trkpt>
      <trkpt lat="43.93249" lon="5.1454">
        <ele>454.5</ele>
        <time>2017-04-29T13:23:21Z</time>
      </trkpt>
      <trkpt lat="43.93251" lon="5.14547">
        <ele>455</ele>
        <time>2017-04-29T13:23:27Z</time>
      </trkpt>
      <trkpt lat="43.93256" lon="5.14554">
        <ele>455.4</ele>
        <time>2017-04-29T13:23:34Z</time>
      </trkpt>
      <trkpt lat="43.93258" lon="5.1456">
        <ele>455.5</ele>
        <time>2017-04-29T13:23:41Z</time>
      </trkpt>
      <trkpt lat="43.93261" lon="5.14567">
        <ele>455.7</ele>
        <time>2017-04-29T13:23:48Z</time>
      </trkpt>
      <trkpt lat="43.93267" lon="5.14575">
        <ele>456</ele>
        <time>2017-04-29T13:23:55Z</time>
      </trkpt>
      <trkpt lat="43.93274" lon="5.14578">
        <ele>456.3</ele>
        <time>2017-04-29T13:24:02Z</time>
      </trkpt>
      <trkpt lat="43.93281" lon="5.1458">
        <ele>456.7</ele>
        <time>2017-04-29T13:24:09Z</time>
      </trkpt>
      <trkpt lat="43.93286" lon="5.14581">
        <ele>456.9</ele>
        <time>2017-04-29T13:24:16Z</time>
      </trkpt>
      <trkpt lat="43.93292" lon="5.14583">
        <ele>457.4</ele>
        <time>2017-04-29T13:24:23Z</time>
      </trkpt>
      <trkpt lat="43.93298" lon="5.14583">
        <ele>457.9</ele>
        <time>2017-04-29T13:24:30Z</time>
      </trkpt>
      <trkpt lat="43.93303" lon="5.1458">
        <ele>459.9</ele>
        <time>2017-04-29T13:24:37Z</time>
      </trkpt>
      <trkpt lat="43.93308" lon="5.1458">
        <ele>463.7</ele>
        <time>2017-04-29T13:24:44Z</time>
      </trkpt>
      <trkpt lat="43.93314" lon="5.14585">
        <ele>469</ele>
        <time>2017-04-29T13:24:51Z</time>
      </trkpt>
      <trkpt lat="43.9332" lon="5.14591">
        <ele>471.4</ele>
        <time>2017-04-29T13:24:58Z</time>
      </trkpt>
      <trkpt lat="43.93325" lon="5.14594">
        <ele>474</ele>
        <time>2017-04-29T13:25:05Z</time>
      </trkpt>
      <trkpt lat="43.93327" lon="5.14595">
        <ele>475.9</ele>
        <time>2017-04-29T13:25:12Z</time>
      </trkpt>
      <trkpt lat="43.93332" lon="5.146">
        <ele>478.7</ele>
        <time>2017-04-29T13:25:19Z</time>
      </trkpt>
      <trkpt lat="43.93337" lon="5.14605">
        <ele>481.3</ele>
        <time>2017-04-29T13:25:26Z</time>
      </trkpt>
      <trkpt lat="43.93343" lon="5.14611">
        <ele>482</ele>
        <time>2017-04-29T13:25:34Z</time>
      </trkpt>
      <trkpt lat="43.93349" lon="5.14617">
        <ele>483.5</ele>
        <time>2017-04-29T13:25:40Z</time>
      </trkpt>
      <trkpt lat="43.93355" lon="5.14621">
        <ele>485.7</ele>
        <time>2017-04-29T13:25:47Z</time>
      </trkpt>
      <trkpt lat="43.9336" lon="5.14627">
        <ele>488.2</ele>
        <time>2017-04-29T13:25:54Z</time>
      </trkpt>
      <trkpt lat="43.93367" lon="5.14633">
        <ele>488.8</ele>
        <time>2017-04-29T13:26:01Z</time>
      </trkpt>
      <trkpt lat="43.93372" lon="5.1464">
        <ele>489.4</ele>
        <time>2017-04-29T13:26:08Z</time>
      </trkpt>
      <trkpt lat="43.93378" lon="5.14647">
        <ele>489.2</ele>
        <time>2017-04-29T13:26:15Z</time>
      </trkpt>
      <trkpt lat="43.93381" lon="5.14654">
        <ele>488.7</ele>
        <time>2017-04-29T13:26:22Z</time>
      </trkpt>
      <trkpt lat="43.93388" lon="5.14659">
        <ele>487.8</ele>
        <time>2017-04-29T13:26:28Z</time>
      </trkpt>
      <trkpt lat="43.93392" lon="5.14664">
        <ele>488</ele>
        <time>2017-04-29T13:26:35Z</time>
      </trkpt>
      <trkpt lat="43.93397" lon="5.1467">
        <ele>487.7</ele>
        <time>2017-04-29T13:26:42Z</time>
      </trkpt>
      <trkpt lat="43.93402" lon="5.14675">
        <ele>488</ele>
        <time>2017-04-29T13:26:49Z</time>
      </trkpt>
      <trkpt lat="43.93406" lon="5.1468">
        <ele>488.2</ele>
        <time>2017-04-29T13:26:56Z</time>
      </trkpt>
      <trkpt lat="43.93411" lon="5.14686">
        <ele>488.8</ele>
        <time>2017-04-29T13:27:03Z</time>
      </trkpt>
      <trkpt lat="43.93415" lon="5.14692">
        <ele>488.5</ele>
        <time>2017-04-29T13:27:10Z</time>
      </trkpt>
      <trkpt lat="43.93419" lon="5.14696">
        <ele>489</ele>
        <time>2017-04-29T13:27:17Z</time>
      </trkpt>
      <trkpt lat="43.93424" lon="5.14701">
        <ele>489.4</ele>
        <time>2017-04-29T13:27:25Z</time>
      </trkpt>
      <trkpt lat="43.93427" lon="5.14708">
        <ele>489.8</ele>
        <time>2017-04-29T13:27:32Z</time>
      </trkpt>
      <trkpt lat="43.93432" lon="5.14713">
        <ele>489.7</ele>
        <time>2017-04-29T13:27:39Z</time>
      </trkpt>
      <trkpt lat="43.93437" lon="5.14719">
        <ele>489.4</ele>
        <time>2017-04-29T13:27:46Z</time>
      </trkpt>
      <trkpt lat="43.93442" lon="5.14727">
        <ele>488.4</ele>
        <time>2017-04-29T13:27:53Z</time>
      </trkpt>
      <trkpt lat="43.93446" lon="5.14734">
        <ele>488.2</ele>
        <time>2017-04-29T13:28:00Z</time>
      </trkpt>
      <trkpt lat="43.93449" lon="5.1474">
        <ele>488.4</ele>
        <time>2017-04-29T13:28:07Z</time>
      </trkpt>
      <trkpt lat="43.93452" lon="5.14748">
        <ele>488.7</ele>
        <time>2017-04-29T13:28:14Z</time>
      </trkpt>
      <trkpt lat="43.93455" lon="5.14756">
        <ele>489.3</ele>
        <time>2017-04-29T13:28:22Z</time>
      </trkpt>
      <trkpt lat="43.93458" lon="5.14764">
        <ele>490</ele>
        <time>2017-04-29T13:28:28Z</time>
      </trkpt>
      <trkpt lat="43.93462" lon="5.14771">
        <ele>490.8</ele>
        <time>2017-04-29T13:28:35Z</time>
      </trkpt>
      <trkpt lat="43.93465" lon="5.14777">
        <ele>491.1</ele>
        <time>2017-04-29T13:28:42Z</time>
      </trkpt>
      <trkpt lat="43.9347" lon="5.14784">
        <ele>492.1</ele>
        <time>2017-04-29T13:28:49Z</time>
      </trkpt>
      <trkpt lat="43.93474" lon="5.14787">
        <ele>493</ele>
        <time>2017-04-29T13:28:56Z</time>
      </trkpt>
      <trkpt lat="43.93478" lon="5.14792">
        <ele>493.6</ele>
        <time>2017-04-29T13:29:03Z</time>
      </trkpt>
      <trkpt lat="43.93482" lon="5.14798">
        <ele>493.9</ele>
        <time>2017-04-29T13:29:10Z</time>
      </trkpt>
      <trkpt lat="43.93486" lon="5.14805">
        <ele>494.5</ele>
        <time>2017-04-29T13:29:17Z</time>
      </trkpt>
      <trkpt lat="43.93489" lon="5.14809">
        <ele>494.9</ele>
        <time>2017-04-29T13:29:24Z</time>
      </trkpt>
      <trkpt lat="43.93494" lon="5.14817">
        <ele>495</ele>
        <time>2017-04-29T13:29:37Z</time>
      </trkpt>
      <trkpt lat="43.93496" lon="5.14825">
        <ele>495.4</ele>
        <time>2017-04-29T13:29:44Z</time>
      </trkpt>
      <trkpt lat="43.935" lon="5.14833">
        <ele>495.4</ele>
        <time>2017-04-29T13:29:51Z</time>
      </trkpt>
      <trkpt lat="43.93504" lon="5.1484">
        <ele>495.7</ele>
        <time>2017-04-29T13:29:58Z</time>
      </trkpt>
      <trkpt lat="43.93505" lon="5.14849">
        <ele>496.1</ele>
        <time>2017-04-29T13:30:05Z</time>
      </trkpt>
      <trkpt lat="43.93508" lon="5.14856">
        <ele>496.5</ele>
        <time>2017-04-29T13:30:12Z</time>
      </trkpt>
      <trkpt lat="43.93511" lon="5.14862">
        <ele>497.1</ele>
        <time>2017-04-29T13:30:19Z</time>
      </trkpt>
      <trkpt lat="43.93513" lon="5.14868">
        <ele>498.5</ele>
        <time>2017-04-29T13:30:26Z</time>
      </trkpt>
      <trkpt lat="43.93516" lon="5.14875">
        <ele>499.5</ele>
        <time>2017-04-29T13:30:33Z</time>
      </trkpt>
      <trkpt lat="43.93519" lon="5.1488">
        <ele>500</ele>
        <time>2017-04-29T13:30:40Z</time>
      </trkpt>
      <trkpt lat="43.93524" lon="5.14885">
        <ele>500.8</ele>
        <time>2017-04-29T13:30:47Z</time>
      </trkpt>
      <trkpt lat="43.93527" lon="5.1489">
        <ele>501.4</ele>
        <time>2017-04-29T13:30:54Z</time>
      </trkpt>
      <trkpt lat="43.93533" lon="5.14896">
        <ele>502</ele>
        <time>2017-04-29T13:31:01Z</time>
      </trkpt>
      <trkpt lat="43.93538" lon="5.149">
        <ele>502.7</ele>
        <time>2017-04-29T13:31:08Z</time>
      </trkpt>
      <trkpt lat="43.93543" lon="5.14904">
        <ele>503.3</ele>
        <time>2017-04-29T13:31:15Z</time>
      </trkpt>
      <trkpt lat="43.93548" lon="5.14908">
        <ele>503.9</ele>
        <time>2017-04-29T13:31:22Z</time>
      </trkpt>
      <trkpt lat="43.93552" lon="5.1491">
        <ele>504.7</ele>
        <time>2017-04-29T13:31:29Z</time>
      </trkpt>
      <trkpt lat="43.93557" lon="5.14913">
        <ele>505</ele>
        <time>2017-04-29T13:31:36Z</time>
      </trkpt>
      <trkpt lat="43.93562" lon="5.14915">
        <ele>505.6</ele>
        <time>2017-04-29T13:31:43Z</time>
      </trkpt>
      <trkpt lat="43.93565" lon="5.14918">
        <ele>505.8</ele>
        <time>2017-04-29T13:31:50Z</time>
      </trkpt>
      <trkpt lat="43.93569" lon="5.14922">
        <ele>506.5</ele>
        <time>2017-04-29T13:31:57Z</time>
      </trkpt>
      <trkpt lat="43.93574" lon="5.14925">
        <ele>507.1</ele>
        <time>2017-04-29T13:32:04Z</time>
      </trkpt>
      <trkpt lat="43.93578" lon="5.14931">
        <ele>507.7</ele>
        <time>2017-04-29T13:32:11Z</time>
      </trkpt>
      <trkpt lat="43.9358" lon="5.14933">
        <ele>508.1</ele>
        <time>2017-04-29T13:32:18Z</time>
      </trkpt>
      <trkpt lat="43.93568" lon="5.14934">
        <ele>501.1</ele>
        <time>2017-04-29T13:35:38Z</time>
      </trkpt>
      <trkpt lat="43.93563" lon="5.14931">
        <ele>501.4</ele>
        <time>2017-04-29T13:35:45Z</time>
      </trkpt>
      <trkpt lat="43.93558" lon="5.14926">
        <ele>501.6</ele>
        <time>2017-04-29T13:35:52Z</time>
      </trkpt>
      <trkpt lat="43.93553" lon="5.14924">
        <ele>501.9</ele>
        <time>2017-04-29T13:35:59Z</time>
      </trkpt>
      <trkpt lat="43.93549" lon="5.1492">
        <ele>502.4</ele>
        <time>2017-04-29T13:36:06Z</time>
      </trkpt>
      <trkpt lat="43.93543" lon="5.14916">
        <ele>502.8</ele>
        <time>2017-04-29T13:36:13Z</time>
      </trkpt>
      <trkpt lat="43.93537" lon="5.14914">
        <ele>503.1</ele>
        <time>2017-04-29T13:36:20Z</time>
      </trkpt>
      <trkpt lat="43.93532" lon="5.1491">
        <ele>503.1</ele>
        <time>2017-04-29T13:36:27Z</time>
      </trkpt>
      <trkpt lat="43.93527" lon="5.14906">
        <ele>503.2</ele>
        <time>2017-04-29T13:36:34Z</time>
      </trkpt>
      <trkpt lat="43.93523" lon="5.14901">
        <ele>503.3</ele>
        <time>2017-04-29T13:36:41Z</time>
      </trkpt>
      <trkpt lat="43.93519" lon="5.14896">
        <ele>503.3</ele>
        <time>2017-04-29T13:36:48Z</time>
      </trkpt>
      <trkpt lat="43.93514" lon="5.14891">
        <ele>503.4</ele>
        <time>2017-04-29T13:36:55Z</time>
      </trkpt>
      <trkpt lat="43.9351" lon="5.14886">
        <ele>503.6</ele>
        <time>2017-04-29T13:37:02Z</time>
      </trkpt>
      <trkpt lat="43.93507" lon="5.14878">
        <ele>503.9</ele>
        <time>2017-04-29T13:37:09Z</time>
      </trkpt>
      <trkpt lat="43.93505" lon="5.1487">
        <ele>503.9</ele>
        <time>2017-04-29T13:37:16Z</time>
      </trkpt>
      <trkpt lat="43.93503" lon="5.14862">
        <ele>503.8</ele>
        <time>2017-04-29T13:37:23Z</time>
      </trkpt>
      <trkpt lat="43.93502" lon="5.14854">
        <ele>503.6</ele>
        <time>2017-04-29T13:37:30Z</time>
      </trkpt>
      <trkpt lat="43.93499" lon="5.14846">
        <ele>503.4</ele>
        <time>2017-04-29T13:37:37Z</time>
      </trkpt>
      <trkpt lat="43.93496" lon="5.14837">
        <ele>503.2</ele>
        <time>2017-04-29T13:37:44Z</time>
      </trkpt>
      <trkpt lat="43.93493" lon="5.1483">
        <ele>502.9</ele>
        <time>2017-04-29T13:37:51Z</time>
      </trkpt>
      <trkpt lat="43.93489" lon="5.14822">
        <ele>502.1</ele>
        <time>2017-04-29T13:37:58Z</time>
      </trkpt>
      <trkpt lat="43.93487" lon="5.14816">
        <ele>500.9</ele>
        <time>2017-04-29T13:38:05Z</time>
      </trkpt>
      <trkpt lat="43.93482" lon="5.1481">
        <ele>499.6</ele>
        <time>2017-04-29T13:38:12Z</time>
      </trkpt>
      <trkpt lat="43.93478" lon="5.14805">
        <ele>498.8</ele>
        <time>2017-04-29T13:38:19Z</time>
      </trkpt>
      <trkpt lat="43.93472" lon="5.14798">
        <ele>498.3</ele>
        <time>2017-04-29T13:38:26Z</time>
      </trkpt>
      <trkpt lat="43.93466" lon="5.14794">
        <ele>497.9</ele>
        <time>2017-04-29T13:38:33Z</time>
      </trkpt>
      <trkpt lat="43.93461" lon="5.14789">
        <ele>497.5</ele>
        <time>2017-04-29T13:38:40Z</time>
      </trkpt>
      <trkpt lat="43.93456" lon="5.14783">
        <ele>497.1</ele>
        <time>2017-04-29T13:38:47Z</time>
      </trkpt>
      <trkpt lat="43.93451" lon="5.14776">
        <ele>496.5</ele>
        <time>2017-04-29T13:38:54Z</time>
      </trkpt>
      <trkpt lat="43.93449" lon="5.14767">
        <ele>495.7</ele>
        <time>2017-04-29T13:39:01Z</time>
      </trkpt>
      <trkpt lat="43.93445" lon="5.14759">
        <ele>494.6</ele>
        <time>2017-04-29T13:39:08Z</time>
      </trkpt>
      <trkpt lat="43.93443" lon="5.14752">
        <ele>494</ele>
        <time>2017-04-29T13:39:15Z</time>
      </trkpt>
      <trkpt lat="43.93441" lon="5.14746">
        <ele>493.8</ele>
        <time>2017-04-29T13:39:22Z</time>
      </trkpt>
      <trkpt lat="43.93436" lon="5.14739">
        <ele>493.1</ele>
        <time>2017-04-29T13:39:29Z</time>
      </trkpt>
      <trkpt lat="43.93432" lon="5.14732">
        <ele>492.8</ele>
        <time>2017-04-29T13:39:36Z</time>
      </trkpt>
      <trkpt lat="43.93428" lon="5.14726">
        <ele>492.3</ele>
        <time>2017-04-29T13:39:43Z</time>
      </trkpt>
      <trkpt lat="43.93423" lon="5.14722">
        <ele>491.2</ele>
        <time>2017-04-29T13:39:50Z</time>
      </trkpt>
      <trkpt lat="43.93417" lon="5.14715">
        <ele>490.5</ele>
        <time>2017-04-29T13:39:57Z</time>
      </trkpt>
      <trkpt lat="43.93413" lon="5.14709">
        <ele>489.6</ele>
        <time>2017-04-29T13:40:04Z</time>
      </trkpt>
      <trkpt lat="43.93407" lon="5.14704">
        <ele>487.8</ele>
        <time>2017-04-29T13:40:11Z</time>
      </trkpt>
      <trkpt lat="43.93403" lon="5.14697">
        <ele>485.7</ele>
        <time>2017-04-29T13:40:18Z</time>
      </trkpt>
      <trkpt lat="43.93399" lon="5.1469">
        <ele>483.3</ele>
        <time>2017-04-29T13:40:25Z</time>
      </trkpt>
      <trkpt lat="43.93394" lon="5.14684">
        <ele>482.7</ele>
        <time>2017-04-29T13:40:32Z</time>
      </trkpt>
      <trkpt lat="43.9339" lon="5.14678">
        <ele>482.6</ele>
        <time>2017-04-29T13:40:39Z</time>
      </trkpt>
      <trkpt lat="43.93383" lon="5.14674">
        <ele>482.3</ele>
        <time>2017-04-29T13:40:46Z</time>
      </trkpt>
      <trkpt lat="43.93378" lon="5.14669">
        <ele>482.5</ele>
        <time>2017-04-29T13:40:53Z</time>
      </trkpt>
      <trkpt lat="43.93374" lon="5.14662">
        <ele>482.7</ele>
        <time>2017-04-29T13:41:00Z</time>
      </trkpt>
      <trkpt lat="43.93371" lon="5.14655">
        <ele>482.8</ele>
        <time>2017-04-29T13:41:07Z</time>
      </trkpt>
      <trkpt lat="43.93365" lon="5.14648">
        <ele>482.4</ele>
        <time>2017-04-29T13:41:14Z</time>
      </trkpt>
      <trkpt lat="43.9336" lon="5.14642">
        <ele>481.9</ele>
        <time>2017-04-29T13:41:21Z</time>
      </trkpt>
      <trkpt lat="43.93354" lon="5.14637">
        <ele>481.5</ele>
        <time>2017-04-29T13:41:28Z</time>
      </trkpt>
      <trkpt lat="43.93348" lon="5.14632">
        <ele>481.1</ele>
        <time>2017-04-29T13:41:35Z</time>
      </trkpt>
      <trkpt lat="43.93343" lon="5.14627">
        <ele>480.8</ele>
        <time>2017-04-29T13:41:42Z</time>
      </trkpt>
      <trkpt lat="43.93337" lon="5.14622">
        <ele>480.5</ele>
        <time>2017-04-29T13:41:49Z</time>
      </trkpt>
      <trkpt lat="43.9333" lon="5.14618">
        <ele>480.6</ele>
        <time>2017-04-29T13:41:56Z</time>
      </trkpt>
      <trkpt lat="43.93324" lon="5.14613">
        <ele>480.5</ele>
        <time>2017-04-29T13:42:03Z</time>
      </trkpt>
      <trkpt lat="43.93319" lon="5.14608">
        <ele>480.6</ele>
        <time>2017-04-29T13:42:10Z</time>
      </trkpt>
      <trkpt lat="43.93313" lon="5.14602">
        <ele>480.4</ele>
        <time>2017-04-29T13:42:17Z</time>
      </trkpt>
      <trkpt lat="43.93306" lon="5.14598">
        <ele>479.7</ele>
        <time>2017-04-29T13:42:24Z</time>
      </trkpt>
      <trkpt lat="43.93299" lon="5.14594">
        <ele>479.2</ele>
        <time>2017-04-29T13:42:31Z</time>
      </trkpt>
      <trkpt lat="43.93294" lon="5.14593">
        <ele>479</ele>
        <time>2017-04-29T13:42:38Z</time>
      </trkpt>
      <trkpt lat="43.93287" lon="5.14592">
        <ele>478</ele>
        <time>2017-04-29T13:42:45Z</time>
      </trkpt>
      <trkpt lat="43.9328" lon="5.1459">
        <ele>476.3</ele>
        <time>2017-04-29T13:42:52Z</time>
      </trkpt>
      <trkpt lat="43.93274" lon="5.14586">
        <ele>475.2</ele>
        <time>2017-04-29T13:42:59Z</time>
      </trkpt>
      <trkpt lat="43.93266" lon="5.14584">
        <ele>474.1</ele>
        <time>2017-04-29T13:43:06Z</time>
      </trkpt>
      <trkpt lat="43.93261" lon="5.14579">
        <ele>474</ele>
        <time>2017-04-29T13:43:13Z</time>
      </trkpt>
      <trkpt lat="43.93256" lon="5.14572">
        <ele>473.5</ele>
        <time>2017-04-29T13:43:20Z</time>
      </trkpt>
      <trkpt lat="43.9325" lon="5.14566">
        <ele>472.8</ele>
        <time>2017-04-29T13:43:27Z</time>
      </trkpt>
      <trkpt lat="43.93247" lon="5.14561">
        <ele>471.5</ele>
        <time>2017-04-29T13:43:34Z</time>
      </trkpt>
      <trkpt lat="43.93244" lon="5.14553">
        <ele>470.6</ele>
        <time>2017-04-29T13:43:41Z</time>
      </trkpt>
      <trkpt lat="43.93241" lon="5.14547">
        <ele>469.1</ele>
        <time>2017-04-29T13:43:48Z</time>
      </trkpt>
      <trkpt lat="43.93238" lon="5.1454">
        <ele>468.5</ele>
        <time>2017-04-29T13:43:55Z</time>
      </trkpt>
      <trkpt lat="43.93235" lon="5.14532">
        <ele>467.5</ele>
        <time>2017-04-29T13:44:02Z</time>
      </trkpt>
      <trkpt lat="43.9323" lon="5.14523">
        <ele>464.3</ele>
        <time>2017-04-29T13:44:09Z</time>
      </trkpt>
      <trkpt lat="43.93225" lon="5.14519">
        <ele>462.7</ele>
        <time>2017-04-29T13:44:16Z</time>
      </trkpt>
      <trkpt lat="43.93223" lon="5.14511">
        <ele>462.1</ele>
        <time>2017-04-29T13:44:23Z</time>
      </trkpt>
      <trkpt lat="43.93216" lon="5.14505">
        <ele>461.2</ele>
        <time>2017-04-29T13:44:30Z</time>
      </trkpt>
      <trkpt lat="43.93209" lon="5.14503">
        <ele>460.7</ele>
        <time>2017-04-29T13:44:37Z</time>
      </trkpt>
      <trkpt lat="43.93204" lon="5.14497">
        <ele>460.7</ele>
        <time>2017-04-29T13:44:44Z</time>
      </trkpt>
      <trkpt lat="43.93198" lon="5.14492">
        <ele>459.8</ele>
        <time>2017-04-29T13:44:51Z</time>
      </trkpt>
      <trkpt lat="43.93193" lon="5.14483">
        <ele>458.8</ele>
        <time>2017-04-29T13:44:58Z</time>
      </trkpt>
      <trkpt lat="43.93188" lon="5.14475">
        <ele>458.9</ele>
        <time>2017-04-29T13:45:05Z</time>
      </trkpt>
      <trkpt lat="43.93185" lon="5.14468">
        <ele>457.8</ele>
        <time>2017-04-29T13:45:12Z</time>
      </trkpt>
      <trkpt lat="43.93183" lon="5.14458">
        <ele>457.3</ele>
        <time>2017-04-29T13:45:19Z</time>
      </trkpt>
      <trkpt lat="43.93179" lon="5.14451">
        <ele>456.8</ele>
        <time>2017-04-29T13:45:26Z</time>
      </trkpt>
      <trkpt lat="43.93175" lon="5.14445">
        <ele>456.3</ele>
        <time>2017-04-29T13:45:33Z</time>
      </trkpt>
      <trkpt lat="43.93171" lon="5.14438">
        <ele>455.4</ele>
        <time>2017-04-29T13:45:40Z</time>
      </trkpt>
      <trkpt lat="43.9317" lon="5.14429">
        <ele>454.8</ele>
        <time>2017-04-29T13:45:47Z</time>
      </trkpt>
      <trkpt lat="43.93166" lon="5.14424">
        <ele>454.4</ele>
        <time>2017-04-29T13:45:54Z</time>
      </trkpt>
      <trkpt lat="43.93162" lon="5.14421">
        <ele>454.9</ele>
        <time>2017-04-29T13:46:01Z</time>
      </trkpt>
      <trkpt lat="43.93156" lon="5.14418">
        <ele>455.2</ele>
        <time>2017-04-29T13:46:08Z</time>
      </trkpt>
      <trkpt lat="43.93151" lon="5.14414">
        <ele>456.2</ele>
        <time>2017-04-29T13:46:15Z</time>
      </trkpt>
      <trkpt lat="43.93143" lon="5.14411">
        <ele>456.2</ele>
        <time>2017-04-29T13:46:22Z</time>
      </trkpt>
      <trkpt lat="43.93138" lon="5.14407">
        <ele>456.3</ele>
        <time>2017-04-29T13:46:29Z</time>
      </trkpt>
      <trkpt lat="43.93134" lon="5.14401">
        <ele>455.6</ele>
        <time>2017-04-29T13:46:36Z</time>
      </trkpt>
      <trkpt lat="43.93131" lon="5.14393">
        <ele>455.2</ele>
        <time>2017-04-29T13:46:50Z</time>
      </trkpt>
      <trkpt lat="43.93129" lon="5.14389">
        <ele>454.4</ele>
        <time>2017-04-29T13:46:57Z</time>
      </trkpt>
      <trkpt lat="43.93126" lon="5.14385">
        <ele>453.8</ele>
        <time>2017-04-29T13:47:04Z</time>
      </trkpt>
      <trkpt lat="43.93123" lon="5.14385">
        <ele>453.1</ele>
        <time>2017-04-29T13:47:11Z</time>
      </trkpt>
      <trkpt lat="43.93118" lon="5.14382">
        <ele>453.1</ele>
        <time>2017-04-29T13:47:18Z</time>
      </trkpt>
      <trkpt lat="43.93113" lon="5.14378">
        <ele>452.8</ele>
        <time>2017-04-29T13:47:25Z</time>
      </trkpt>
      <trkpt lat="43.93108" lon="5.14375">
        <ele>452.6</ele>
        <time>2017-04-29T13:47:32Z</time>
      </trkpt>
      <trkpt lat="43.93101" lon="5.14372">
        <ele>452.4</ele>
        <time>2017-04-29T13:47:39Z</time>
      </trkpt>
      <trkpt lat="43.93095" lon="5.14367">
        <ele>451.8</ele>
        <time>2017-04-29T13:47:45Z</time>
      </trkpt>
      <trkpt lat="43.9309" lon="5.14364">
        <ele>451.3</ele>
        <time>2017-04-29T13:47:52Z</time>
      </trkpt>
      <trkpt lat="43.93087" lon="5.14361">
        <ele>450.9</ele>
        <time>2017-04-29T13:47:59Z</time>
      </trkpt>
      <trkpt lat="43.93087" lon="5.14361">
        <ele>450.8</ele>
        <time>2017-04-29T13:48:06Z</time>
      </trkpt>
      <trkpt lat="43.93082" lon="5.14352">
        <ele>450.7</ele>
        <time>2017-04-29T13:48:12Z</time>
      </trkpt>
      <trkpt lat="43.93078" lon="5.14345">
        <ele>450.2</ele>
        <time>2017-04-29T13:48:19Z</time>
      </trkpt>
      <trkpt lat="43.93076" lon="5.14336">
        <ele>449.5</ele>
        <time>2017-04-29T13:48:26Z</time>
      </trkpt>
      <trkpt lat="43.93074" lon="5.14329">
        <ele>448.2</ele>
        <time>2017-04-29T13:48:33Z</time>
      </trkpt>
      <trkpt lat="43.93073" lon="5.14321">
        <ele>447.5</ele>
        <time>2017-04-29T13:48:40Z</time>
      </trkpt>
      <trkpt lat="43.93071" lon="5.14313">
        <ele>446.9</ele>
        <time>2017-04-29T13:48:47Z</time>
      </trkpt>
      <trkpt lat="43.93069" lon="5.14304">
        <ele>446.1</ele>
        <time>2017-04-29T13:48:54Z</time>
      </trkpt>
      <trkpt lat="43.93065" lon="5.14297">
        <ele>445.6</ele>
        <time>2017-04-29T13:49:01Z</time>
      </trkpt>
      <trkpt lat="43.93065" lon="5.1429">
        <ele>445.2</ele>
        <time>2017-04-29T13:49:08Z</time>
      </trkpt>
      <trkpt lat="43.93061" lon="5.14285">
        <ele>444.7</ele>
        <time>2017-04-29T13:49:15Z</time>
      </trkpt>
      <trkpt lat="43.93056" lon="5.14281">
        <ele>444.4</ele>
        <time>2017-04-29T13:49:22Z</time>
      </trkpt>
      <trkpt lat="43.9305" lon="5.1428">
        <ele>444.1</ele>
        <time>2017-04-29T13:49:29Z</time>
      </trkpt>
      <trkpt lat="43.93045" lon="5.14279">
        <ele>443</ele>
        <time>2017-04-29T13:49:36Z</time>
      </trkpt>
      <trkpt lat="43.9304" lon="5.14276">
        <ele>441</ele>
        <time>2017-04-29T13:49:53Z</time>
      </trkpt>
      <trkpt lat="43.93034" lon="5.14274">
        <ele>439.8</ele>
        <time>2017-04-29T13:50:00Z</time>
      </trkpt>
      <trkpt lat="43.93027" lon="5.14271">
        <ele>438.4</ele>
        <time>2017-04-29T13:50:07Z</time>
      </trkpt>
      <trkpt lat="43.93019" lon="5.14268">
        <ele>437</ele>
        <time>2017-04-29T13:50:14Z</time>
      </trkpt>
      <trkpt lat="43.93015" lon="5.14264">
        <ele>435.8</ele>
        <time>2017-04-29T13:50:21Z</time>
      </trkpt>
      <trkpt lat="43.93009" lon="5.14261">
        <ele>434.7</ele>
        <time>2017-04-29T13:50:28Z</time>
      </trkpt>
      <trkpt lat="43.93002" lon="5.14261">
        <ele>432.9</ele>
        <time>2017-04-29T13:50:35Z</time>
      </trkpt>
      <trkpt lat="43.92995" lon="5.1426">
        <ele>430.5</ele>
        <time>2017-04-29T13:50:41Z</time>
      </trkpt>
      <trkpt lat="43.92987" lon="5.14261">
        <ele>428.5</ele>
        <time>2017-04-29T13:50:48Z</time>
      </trkpt>
      <trkpt lat="43.92981" lon="5.14262">
        <ele>426.6</ele>
        <time>2017-04-29T13:50:55Z</time>
      </trkpt>
      <trkpt lat="43.92976" lon="5.14265">
        <ele>425.2</ele>
        <time>2017-04-29T13:51:02Z</time>
      </trkpt>
      <trkpt lat="43.9297" lon="5.14267">
        <ele>423.8</ele>
        <time>2017-04-29T13:51:09Z</time>
      </trkpt>
      <trkpt lat="43.92964" lon="5.14267">
        <ele>422.6</ele>
        <time>2017-04-29T13:51:16Z</time>
      </trkpt>
      <trkpt lat="43.92957" lon="5.14267">
        <ele>421.4</ele>
        <time>2017-04-29T13:51:23Z</time>
      </trkpt>
      <trkpt lat="43.92949" lon="5.14265">
        <ele>420.5</ele>
        <time>2017-04-29T13:51:30Z</time>
      </trkpt>
      <trkpt lat="43.92942" lon="5.14264">
        <ele>420.1</ele>
        <time>2017-04-29T13:51:36Z</time>
      </trkpt>
      <trkpt lat="43.92933" lon="5.14262">
        <ele>419.5</ele>
        <time>2017-04-29T13:51:43Z</time>
      </trkpt>
      <trkpt lat="43.92925" lon="5.14262">
        <ele>419.2</ele>
        <time>2017-04-29T13:51:50Z</time>
      </trkpt>
      <trkpt lat="43.92918" lon="5.14263">
        <ele>418.4</ele>
        <time>2017-04-29T13:51:57Z</time>
      </trkpt>
      <trkpt lat="43.92909" lon="5.14264">
        <ele>417.9</ele>
        <time>2017-04-29T13:52:04Z</time>
      </trkpt>
      <trkpt lat="43.92901" lon="5.14263">
        <ele>417</ele>
        <time>2017-04-29T13:52:11Z</time>
      </trkpt>
      <trkpt lat="43.92893" lon="5.14264">
        <ele>416.1</ele>
        <time>2017-04-29T13:52:18Z</time>
      </trkpt>
      <trkpt lat="43.92887" lon="5.14262">
        <ele>415.6</ele>
        <time>2017-04-29T13:52:25Z</time>
      </trkpt>
      <trkpt lat="43.92882" lon="5.1426">
        <ele>414.8</ele>
        <time>2017-04-29T13:52:32Z</time>
      </trkpt>
      <trkpt lat="43.92875" lon="5.14257">
        <ele>414.2</ele>
        <time>2017-04-29T13:52:38Z</time>
      </trkpt>
      <trkpt lat="43.92867" lon="5.14256">
        <ele>413.4</ele>
        <time>2017-04-29T13:52:45Z</time>
      </trkpt>
      <trkpt lat="43.9286" lon="5.14254">
        <ele>412.3</ele>
        <time>2017-04-29T13:52:52Z</time>
      </trkpt>
      <trkpt lat="43.92853" lon="5.14256">
        <ele>411.1</ele>
        <time>2017-04-29T13:52:59Z</time>
      </trkpt>
      <trkpt lat="43.92848" lon="5.14261">
        <ele>409.5</ele>
        <time>2017-04-29T13:53:06Z</time>
      </trkpt>
      <trkpt lat="43.92846" lon="5.14267">
        <ele>408.2</ele>
        <time>2017-04-29T13:53:13Z</time>
      </trkpt>
      <trkpt lat="43.92843" lon="5.14275">
        <ele>408</ele>
        <time>2017-04-29T13:53:20Z</time>
      </trkpt>
      <trkpt lat="43.92839" lon="5.1428">
        <ele>407.1</ele>
        <time>2017-04-29T13:53:27Z</time>
      </trkpt>
      <trkpt lat="43.92836" lon="5.14284">
        <ele>405.8</ele>
        <time>2017-04-29T13:53:34Z</time>
      </trkpt>
      <trkpt lat="43.92832" lon="5.14289">
        <ele>404</ele>
        <time>2017-04-29T13:53:41Z</time>
      </trkpt>
      <trkpt lat="43.92829" lon="5.14293">
        <ele>402.8</ele>
        <time>2017-04-29T13:53:48Z</time>
      </trkpt>
      <trkpt lat="43.92823" lon="5.14295">
        <ele>401.8</ele>
        <time>2017-04-29T13:53:55Z</time>
      </trkpt>
      <trkpt lat="43.92817" lon="5.14298">
        <ele>400.3</ele>
        <time>2017-04-29T13:54:02Z</time>
      </trkpt>
      <trkpt lat="43.9281" lon="5.14302">
        <ele>399.3</ele>
        <time>2017-04-29T13:54:09Z</time>
      </trkpt>
      <trkpt lat="43.92802" lon="5.14305">
        <ele>397.9</ele>
        <time>2017-04-29T13:54:16Z</time>
      </trkpt>
      <trkpt lat="43.92795" lon="5.14309">
        <ele>396.6</ele>
        <time>2017-04-29T13:54:23Z</time>
      </trkpt>
      <trkpt lat="43.92787" lon="5.1431">
        <ele>395.1</ele>
        <time>2017-04-29T13:54:30Z</time>
      </trkpt>
      <trkpt lat="43.9278" lon="5.14311">
        <ele>393.6</ele>
        <time>2017-04-29T13:54:37Z</time>
      </trkpt>
      <trkpt lat="43.92773" lon="5.14311">
        <ele>392.4</ele>
        <time>2017-04-29T13:54:43Z</time>
      </trkpt>
      <trkpt lat="43.92765" lon="5.14313">
        <ele>392.2</ele>
        <time>2017-04-29T13:54:50Z</time>
      </trkpt>
      <trkpt lat="43.92758" lon="5.14314">
        <ele>392.5</ele>
        <time>2017-04-29T13:54:56Z</time>
      </trkpt>
      <trkpt lat="43.92751" lon="5.14316">
        <ele>392.5</ele>
        <time>2017-04-29T13:55:03Z</time>
      </trkpt>
      <trkpt lat="43.92743" lon="5.14315">
        <ele>392.6</ele>
        <time>2017-04-29T13:55:10Z</time>
      </trkpt>
      <trkpt lat="43.92736" lon="5.14314">
        <ele>392.1</ele>
        <time>2017-04-29T13:55:16Z</time>
      </trkpt>
      <trkpt lat="43.92729" lon="5.14312">
        <ele>391.6</ele>
        <time>2017-04-29T13:55:23Z</time>
      </trkpt>
      <trkpt lat="43.92724" lon="5.1431">
        <ele>390.3</ele>
        <time>2017-04-29T13:55:30Z</time>
      </trkpt>
      <trkpt lat="43.92718" lon="5.14312">
        <ele>389.3</ele>
        <time>2017-04-29T13:55:48Z</time>
      </trkpt>
      <trkpt lat="43.92709" lon="5.14312">
        <ele>388.9</ele>
        <time>2017-04-29T13:55:55Z</time>
      </trkpt>
      <trkpt lat="43.92701" lon="5.14313">
        <ele>388.6</ele>
        <time>2017-04-29T13:56:02Z</time>
      </trkpt>
      <trkpt lat="43.92695" lon="5.14313">
        <ele>388.1</ele>
        <time>2017-04-29T13:56:09Z</time>
      </trkpt>
      <trkpt lat="43.92687" lon="5.14315">
        <ele>388</ele>
        <time>2017-04-29T13:56:16Z</time>
      </trkpt>
      <trkpt lat="43.92679" lon="5.14317">
        <ele>388.3</ele>
        <time>2017-04-29T13:56:23Z</time>
      </trkpt>
      <trkpt lat="43.92674" lon="5.1432">
        <ele>388.6</ele>
        <time>2017-04-29T13:56:30Z</time>
      </trkpt>
      <trkpt lat="43.92667" lon="5.14323">
        <ele>389</ele>
        <time>2017-04-29T13:56:37Z</time>
      </trkpt>
      <trkpt lat="43.9266" lon="5.14324">
        <ele>389.7</ele>
        <time>2017-04-29T13:56:44Z</time>
      </trkpt>
      <trkpt lat="43.92652" lon="5.14326">
        <ele>389.9</ele>
        <time>2017-04-29T13:56:51Z</time>
      </trkpt>
      <trkpt lat="43.92644" lon="5.14329">
        <ele>390.3</ele>
        <time>2017-04-29T13:56:58Z</time>
      </trkpt>
      <trkpt lat="43.92637" lon="5.14332">
        <ele>390.9</ele>
        <time>2017-04-29T13:57:05Z</time>
      </trkpt>
      <trkpt lat="43.9263" lon="5.14335">
        <ele>392</ele>
        <time>2017-04-29T13:57:12Z</time>
      </trkpt>
      <trkpt lat="43.92624" lon="5.14338">
        <ele>392.4</ele>
        <time>2017-04-29T13:57:19Z</time>
      </trkpt>
      <trkpt lat="43.92618" lon="5.14342">
        <ele>393.1</ele>
        <time>2017-04-29T13:57:26Z</time>
      </trkpt>
      <trkpt lat="43.92611" lon="5.14346">
        <ele>392.9</ele>
        <time>2017-04-29T13:57:33Z</time>
      </trkpt>
      <trkpt lat="43.92606" lon="5.14349">
        <ele>392.7</ele>
        <time>2017-04-29T13:57:40Z</time>
      </trkpt>
      <trkpt lat="43.92599" lon="5.14352">
        <ele>392.4</ele>
        <time>2017-04-29T13:57:47Z</time>
      </trkpt>
      <trkpt lat="43.92593" lon="5.14351">
        <ele>391.9</ele>
        <time>2017-04-29T13:57:54Z</time>
      </trkpt>
      <trkpt lat="43.9259" lon="5.14347">
        <ele>391.5</ele>
        <time>2017-04-29T13:58:01Z</time>
      </trkpt>
      <trkpt lat="43.92589" lon="5.14348">
        <ele>391.3</ele>
        <time>2017-04-29T13:58:08Z</time>
      </trkpt>
      <trkpt lat="43.92584" lon="5.14357">
        <ele>388.3</ele>
        <time>2017-04-29T13:58:38Z</time>
      </trkpt>
      <trkpt lat="43.92577" lon="5.14359">
        <ele>387.7</ele>
        <time>2017-04-29T13:58:45Z</time>
      </trkpt>
      <trkpt lat="43.92571" lon="5.14362">
        <ele>387.7</ele>
        <time>2017-04-29T13:58:52Z</time>
      </trkpt>
      <trkpt lat="43.92564" lon="5.14363">
        <ele>387.9</ele>
        <time>2017-04-29T13:58:59Z</time>
      </trkpt>
      <trkpt lat="43.92558" lon="5.14365">
        <ele>387.9</ele>
        <time>2017-04-29T13:59:06Z</time>
      </trkpt>
      <trkpt lat="43.92552" lon="5.14366">
        <ele>388.1</ele>
        <time>2017-04-29T13:59:13Z</time>
      </trkpt>
      <trkpt lat="43.92545" lon="5.14368">
        <ele>387.7</ele>
        <time>2017-04-29T13:59:20Z</time>
      </trkpt>
      <trkpt lat="43.92539" lon="5.14369">
        <ele>387.8</ele>
        <time>2017-04-29T13:59:27Z</time>
      </trkpt>
      <trkpt lat="43.92533" lon="5.1437">
        <ele>387.5</ele>
        <time>2017-04-29T13:59:34Z</time>
      </trkpt>
      <trkpt lat="43.9253" lon="5.1437">
        <ele>388.1</ele>
        <time>2017-04-29T13:59:41Z</time>
      </trkpt>
      <trkpt lat="43.92523" lon="5.14367">
        <ele>388.7</ele>
        <time>2017-04-29T14:00:11Z</time>
      </trkpt>
      <trkpt lat="43.92515" lon="5.14368">
        <ele>388.6</ele>
        <time>2017-04-29T14:00:17Z</time>
      </trkpt>
      <trkpt lat="43.92508" lon="5.14368">
        <ele>388</ele>
        <time>2017-04-29T14:00:24Z</time>
      </trkpt>
      <trkpt lat="43.92501" lon="5.14368">
        <ele>387.3</ele>
        <time>2017-04-29T14:00:31Z</time>
      </trkpt>
      <trkpt lat="43.92494" lon="5.1437">
        <ele>385.8</ele>
        <time>2017-04-29T14:00:38Z</time>
      </trkpt>
      <trkpt lat="43.92487" lon="5.14369">
        <ele>384.1</ele>
        <time>2017-04-29T14:00:45Z</time>
      </trkpt>
      <trkpt lat="43.9248" lon="5.1437">
        <ele>382.4</ele>
        <time>2017-04-29T14:00:52Z</time>
      </trkpt>
      <trkpt lat="43.92476" lon="5.1437">
        <ele>381</ele>
        <time>2017-04-29T14:00:59Z</time>
      </trkpt>
      <trkpt lat="43.92472" lon="5.1437">
        <ele>379.7</ele>
        <time>2017-04-29T14:01:06Z</time>
      </trkpt>
      <trkpt lat="43.92466" lon="5.14373">
        <ele>378</ele>
        <time>2017-04-29T14:01:13Z</time>
      </trkpt>
      <trkpt lat="43.92459" lon="5.14379">
        <ele>375.2</ele>
        <time>2017-04-29T14:01:19Z</time>
      </trkpt>
      <trkpt lat="43.92452" lon="5.14381">
        <ele>372.6</ele>
        <time>2017-04-29T14:01:26Z</time>
      </trkpt>
      <trkpt lat="43.92445" lon="5.14383">
        <ele>371.4</ele>
        <time>2017-04-29T14:01:32Z</time>
      </trkpt>
      <trkpt lat="43.92438" lon="5.14386">
        <ele>369.8</ele>
        <time>2017-04-29T14:01:39Z</time>
      </trkpt>
      <trkpt lat="43.9243" lon="5.14386">
        <ele>368.8</ele>
        <time>2017-04-29T14:01:46Z</time>
      </trkpt>
      <trkpt lat="43.92422" lon="5.14386">
        <ele>368.4</ele>
        <time>2017-04-29T14:01:52Z</time>
      </trkpt>
      <trkpt lat="43.92414" lon="5.14386">
        <ele>368.5</ele>
        <time>2017-04-29T14:01:59Z</time>
      </trkpt>
      <trkpt lat="43.92407" lon="5.14385">
        <ele>369.3</ele>
        <time>2017-04-29T14:02:06Z</time>
      </trkpt>
      <trkpt lat="43.92402" lon="5.14386">
        <ele>369.6</ele>
        <time>2017-04-29T14:02:13Z</time>
      </trkpt>
      <trkpt lat="43.92397" lon="5.14384">
        <ele>369.8</ele>
        <time>2017-04-29T14:02:20Z</time>
      </trkpt>
      <trkpt lat="43.92389" lon="5.14384">
        <ele>370.1</ele>
        <time>2017-04-29T14:02:27Z</time>
      </trkpt>
      <trkpt lat="43.92382" lon="5.14384">
        <ele>370.8</ele>
        <time>2017-04-29T14:02:34Z</time>
      </trkpt>
      <trkpt lat="43.92375" lon="5.14382">
        <ele>371.1</ele>
        <time>2017-04-29T14:02:41Z</time>
      </trkpt>
      <trkpt lat="43.92367" lon="5.1438">
        <ele>371.8</ele>
        <time>2017-04-29T14:02:48Z</time>
      </trkpt>
      <trkpt lat="43.9236" lon="5.14378">
        <ele>372.4</ele>
        <time>2017-04-29T14:02:54Z</time>
      </trkpt>
      <trkpt lat="43.92352" lon="5.14375">
        <ele>372.8</ele>
        <time>2017-04-29T14:03:01Z</time>
      </trkpt>
      <trkpt lat="43.92344" lon="5.14374">
        <ele>373</ele>
        <time>2017-04-29T14:03:07Z</time>
      </trkpt>
      <trkpt lat="43.92337" lon="5.14373">
        <ele>374</ele>
        <time>2017-04-29T14:03:14Z</time>
      </trkpt>
      <trkpt lat="43.92329" lon="5.14373">
        <ele>374.6</ele>
        <time>2017-04-29T14:03:21Z</time>
      </trkpt>
      <trkpt lat="43.92321" lon="5.14374">
        <ele>374.8</ele>
        <time>2017-04-29T14:03:27Z</time>
      </trkpt>
      <trkpt lat="43.92314" lon="5.14373">
        <ele>374.8</ele>
        <time>2017-04-29T14:03:34Z</time>
      </trkpt>
      <trkpt lat="43.92306" lon="5.14373">
        <ele>375.2</ele>
        <time>2017-04-29T14:03:41Z</time>
      </trkpt>
      <trkpt lat="43.923" lon="5.14373">
        <ele>374.8</ele>
        <time>2017-04-29T14:03:48Z</time>
      </trkpt>
      <trkpt lat="43.92293" lon="5.14375">
        <ele>374.5</ele>
        <time>2017-04-29T14:03:55Z</time>
      </trkpt>
      <trkpt lat="43.92285" lon="5.14373">
        <ele>374.6</ele>
        <time>2017-04-29T14:04:02Z</time>
      </trkpt>
      <trkpt lat="43.92277" lon="5.14373">
        <ele>374.4</ele>
        <time>2017-04-29T14:04:09Z</time>
      </trkpt>
      <trkpt lat="43.92269" lon="5.1437">
        <ele>374</ele>
        <time>2017-04-29T14:04:16Z</time>
      </trkpt>
      <trkpt lat="43.92263" lon="5.14369">
        <ele>373.4</ele>
        <time>2017-04-29T14:04:23Z</time>
      </trkpt>
      <trkpt lat="43.92257" lon="5.14368">
        <ele>373</ele>
        <time>2017-04-29T14:04:30Z</time>
      </trkpt>
      <trkpt lat="43.9225" lon="5.14366">
        <ele>372.6</ele>
        <time>2017-04-29T14:04:37Z</time>
      </trkpt>
      <trkpt lat="43.92243" lon="5.14366">
        <ele>371.7</ele>
        <time>2017-04-29T14:04:44Z</time>
      </trkpt>
      <trkpt lat="43.92236" lon="5.14366">
        <ele>371.5</ele>
        <time>2017-04-29T14:04:51Z</time>
      </trkpt>
      <trkpt lat="43.9223" lon="5.14362">
        <ele>371.6</ele>
        <time>2017-04-29T14:04:58Z</time>
      </trkpt>
      <trkpt lat="43.92224" lon="5.14363">
        <ele>371.7</ele>
        <time>2017-04-29T14:05:05Z</time>
      </trkpt>
      <trkpt lat="43.92216" lon="5.14367">
        <ele>371.7</ele>
        <time>2017-04-29T14:05:12Z</time>
      </trkpt>
      <trkpt lat="43.9221" lon="5.14368">
        <ele>371.5</ele>
        <time>2017-04-29T14:05:19Z</time>
      </trkpt>
      <trkpt lat="43.92203" lon="5.14369">
        <ele>371.2</ele>
        <time>2017-04-29T14:05:26Z</time>
      </trkpt>
      <trkpt lat="43.92197" lon="5.14369">
        <ele>371.2</ele>
        <time>2017-04-29T14:05:33Z</time>
      </trkpt>
      <trkpt lat="43.92191" lon="5.14368">
        <ele>370.9</ele>
        <time>2017-04-29T14:05:40Z</time>
      </trkpt>
      <trkpt lat="43.92183" lon="5.14367">
        <ele>369.1</ele>
        <time>2017-04-29T14:05:46Z</time>
      </trkpt>
      <trkpt lat="43.92176" lon="5.14363">
        <ele>367.9</ele>
        <time>2017-04-29T14:05:53Z</time>
      </trkpt>
      <trkpt lat="43.92168" lon="5.14362">
        <ele>367.3</ele>
        <time>2017-04-29T14:05:59Z</time>
      </trkpt>
      <trkpt lat="43.9216" lon="5.14361">
        <ele>366.8</ele>
        <time>2017-04-29T14:06:05Z</time>
      </trkpt>
      <trkpt lat="43.92153" lon="5.14358">
        <ele>366</ele>
        <time>2017-04-29T14:06:12Z</time>
      </trkpt>
      <trkpt lat="43.92145" lon="5.14355">
        <ele>365.3</ele>
        <time>2017-04-29T14:06:19Z</time>
      </trkpt>
      <trkpt lat="43.92138" lon="5.14351">
        <ele>365</ele>
        <time>2017-04-29T14:06:25Z</time>
      </trkpt>
      <trkpt lat="43.92131" lon="5.14349">
        <ele>363.9</ele>
        <time>2017-04-29T14:06:32Z</time>
      </trkpt>
      <trkpt lat="43.92124" lon="5.1435">
        <ele>363.2</ele>
        <time>2017-04-29T14:06:39Z</time>
      </trkpt>
      <trkpt lat="43.92117" lon="5.1435">
        <ele>362.4</ele>
        <time>2017-04-29T14:06:46Z</time>
      </trkpt>
      <trkpt lat="43.92109" lon="5.14351">
        <ele>361</ele>
        <time>2017-04-29T14:06:52Z</time>
      </trkpt>
      <trkpt lat="43.92102" lon="5.14353">
        <ele>359.7</ele>
        <time>2017-04-29T14:06:59Z</time>
      </trkpt>
      <trkpt lat="43.92094" lon="5.14352">
        <ele>357.8</ele>
        <time>2017-04-29T14:07:06Z</time>
      </trkpt>
      <trkpt lat="43.92088" lon="5.14349">
        <ele>355.5</ele>
        <time>2017-04-29T14:07:13Z</time>
      </trkpt>
      <trkpt lat="43.92082" lon="5.14346">
        <ele>354.7</ele>
        <time>2017-04-29T14:07:20Z</time>
      </trkpt>
      <trkpt lat="43.92075" lon="5.1434">
        <ele>353.4</ele>
        <time>2017-04-29T14:07:26Z</time>
      </trkpt>
      <trkpt lat="43.92071" lon="5.14334">
        <ele>352.1</ele>
        <time>2017-04-29T14:07:33Z</time>
      </trkpt>
      <trkpt lat="43.92064" lon="5.14328">
        <ele>351.3</ele>
        <time>2017-04-29T14:07:40Z</time>
      </trkpt>
      <trkpt lat="43.92057" lon="5.14322">
        <ele>350.5</ele>
        <time>2017-04-29T14:07:47Z</time>
      </trkpt>
      <trkpt lat="43.92051" lon="5.14316">
        <ele>349.6</ele>
        <time>2017-04-29T14:07:54Z</time>
      </trkpt>
      <trkpt lat="43.92045" lon="5.14312">
        <ele>349.1</ele>
        <time>2017-04-29T14:08:01Z</time>
      </trkpt>
      <trkpt lat="43.92037" lon="5.14309">
        <ele>347.4</ele>
        <time>2017-04-29T14:08:08Z</time>
      </trkpt>
      <trkpt lat="43.92032" lon="5.14312">
        <ele>344.7</ele>
        <time>2017-04-29T14:08:15Z</time>
      </trkpt>
      <trkpt lat="43.92029" lon="5.14319">
        <ele>341.9</ele>
        <time>2017-04-29T14:08:22Z</time>
      </trkpt>
      <trkpt lat="43.92027" lon="5.14328">
        <ele>339.1</ele>
        <time>2017-04-29T14:08:29Z</time>
      </trkpt>
      <trkpt lat="43.92027" lon="5.14338">
        <ele>336.6</ele>
        <time>2017-04-29T14:08:36Z</time>
      </trkpt>
      <trkpt lat="43.92027" lon="5.14347">
        <ele>334.8</ele>
        <time>2017-04-29T14:08:44Z</time>
      </trkpt>
      <trkpt lat="43.9203" lon="5.14356">
        <ele>332.3</ele>
        <time>2017-04-29T14:08:50Z</time>
      </trkpt>
      <trkpt lat="43.92029" lon="5.14365">
        <ele>328.7</ele>
        <time>2017-04-29T14:08:57Z</time>
      </trkpt>
      <trkpt lat="43.92029" lon="5.14373">
        <ele>326.3</ele>
        <time>2017-04-29T14:09:04Z</time>
      </trkpt>
      <trkpt lat="43.92026" lon="5.14378">
        <ele>323.8</ele>
        <time>2017-04-29T14:09:11Z</time>
      </trkpt>
      <trkpt lat="43.9202" lon="5.14382">
        <ele>321.7</ele>
        <time>2017-04-29T14:09:18Z</time>
      </trkpt>
      <trkpt lat="43.92016" lon="5.14386">
        <ele>318.9</ele>
        <time>2017-04-29T14:09:25Z</time>
      </trkpt>
      <trkpt lat="43.92008" lon="5.14389">
        <ele>317.2</ele>
        <time>2017-04-29T14:09:31Z</time>
      </trkpt>
      <trkpt lat="43.92" lon="5.1439">
        <ele>316</ele>
        <time>2017-04-29T14:09:37Z</time>
      </trkpt>
      <trkpt lat="43.91995" lon="5.1439">
        <ele>314.4</ele>
        <time>2017-04-29T14:09:44Z</time>
      </trkpt>
      <trkpt lat="43.91988" lon="5.14391">
        <ele>313.6</ele>
        <time>2017-04-29T14:09:49Z</time>
      </trkpt>
      <trkpt lat="43.91978" lon="5.14389">
        <ele>312.2</ele>
        <time>2017-04-29T14:09:55Z</time>
      </trkpt>
      <trkpt lat="43.91969" lon="5.14389">
        <ele>311.9</ele>
        <time>2017-04-29T14:10:01Z</time>
      </trkpt>
      <trkpt lat="43.91963" lon="5.14384">
        <ele>311.3</ele>
        <time>2017-04-29T14:10:08Z</time>
      </trkpt>
      <trkpt lat="43.91956" lon="5.14378">
        <ele>310.8</ele>
        <time>2017-04-29T14:10:15Z</time>
      </trkpt>
      <trkpt lat="43.91949" lon="5.14377">
        <ele>310.4</ele>
        <time>2017-04-29T14:10:20Z</time>
      </trkpt>
      <trkpt lat="43.91942" lon="5.14374">
        <ele>310.1</ele>
        <time>2017-04-29T14:10:27Z</time>
      </trkpt>
      <trkpt lat="43.91933" lon="5.14371">
        <ele>309.9</ele>
        <time>2017-04-29T14:10:32Z</time>
      </trkpt>
      <trkpt lat="43.91926" lon="5.14367">
        <ele>309.3</ele>
        <time>2017-04-29T14:10:39Z</time>
      </trkpt>
      <trkpt lat="43.91919" lon="5.14362">
        <ele>309.2</ele>
        <time>2017-04-29T14:10:45Z</time>
      </trkpt>
      <trkpt lat="43.91912" lon="5.14358">
        <ele>309.1</ele>
        <time>2017-04-29T14:10:50Z</time>
      </trkpt>
      <trkpt lat="43.91906" lon="5.14352">
        <ele>308.6</ele>
        <time>2017-04-29T14:10:57Z</time>
      </trkpt>
      <trkpt lat="43.91902" lon="5.14345">
        <ele>307.7</ele>
        <time>2017-04-29T14:11:04Z</time>
      </trkpt>
      <trkpt lat="43.91894" lon="5.14343">
        <ele>307.7</ele>
        <time>2017-04-29T14:11:10Z</time>
      </trkpt>
      <trkpt lat="43.91888" lon="5.14337">
        <ele>307.4</ele>
        <time>2017-04-29T14:11:17Z</time>
      </trkpt>
      <trkpt lat="43.91882" lon="5.14331">
        <ele>307.4</ele>
        <time>2017-04-29T14:11:24Z</time>
      </trkpt>
      <trkpt lat="43.91879" lon="5.14327">
        <ele>307.2</ele>
        <time>2017-04-29T14:11:31Z</time>
      </trkpt>
      <trkpt lat="43.91872" lon="5.14324">
        <ele>306.2</ele>
        <time>2017-04-29T14:11:37Z</time>
      </trkpt>
      <trkpt lat="43.91868" lon="5.14323">
        <ele>305.5</ele>
        <time>2017-04-29T14:11:44Z</time>
      </trkpt>
      <trkpt lat="43.91864" lon="5.14315">
        <ele>305.4</ele>
        <time>2017-04-29T14:11:51Z</time>
      </trkpt>
      <trkpt lat="43.9186" lon="5.14306">
        <ele>305.3</ele>
        <time>2017-04-29T14:11:58Z</time>
      </trkpt>
      <trkpt lat="43.91857" lon="5.14297">
        <ele>305</ele>
        <time>2017-04-29T14:12:05Z</time>
      </trkpt>
      <trkpt lat="43.91854" lon="5.14286">
        <ele>304.6</ele>
        <time>2017-04-29T14:12:12Z</time>
      </trkpt>
      <trkpt lat="43.9185" lon="5.14276">
        <ele>303.9</ele>
        <time>2017-04-29T14:12:19Z</time>
      </trkpt>
      <trkpt lat="43.91849" lon="5.14265">
        <ele>303.6</ele>
        <time>2017-04-29T14:12:25Z</time>
      </trkpt>
      <trkpt lat="43.91847" lon="5.14256">
        <ele>303.5</ele>
        <time>2017-04-29T14:12:32Z</time>
      </trkpt>
      <trkpt lat="43.91844" lon="5.14248">
        <ele>302.9</ele>
        <time>2017-04-29T14:12:39Z</time>
      </trkpt>
      <trkpt lat="43.9184" lon="5.14239">
        <ele>302.2</ele>
        <time>2017-04-29T14:12:45Z</time>
      </trkpt>
      <trkpt lat="43.91837" lon="5.14229">
        <ele>301.9</ele>
        <time>2017-04-29T14:12:51Z</time>
      </trkpt>
      <trkpt lat="43.91837" lon="5.14218">
        <ele>302</ele>
        <time>2017-04-29T14:12:57Z</time>
      </trkpt>
      <trkpt lat="43.91835" lon="5.14208">
        <ele>301.9</ele>
        <time>2017-04-29T14:13:04Z</time>
      </trkpt>
      <trkpt lat="43.9183" lon="5.14201">
        <ele>302</ele>
        <time>2017-04-29T14:13:11Z</time>
      </trkpt>
      <trkpt lat="43.91823" lon="5.14195">
        <ele>302.4</ele>
        <time>2017-04-29T14:13:18Z</time>
      </trkpt>
      <trkpt lat="43.91816" lon="5.14191">
        <ele>302.9</ele>
        <time>2017-04-29T14:13:25Z</time>
      </trkpt>
      <trkpt lat="43.91809" lon="5.1419">
        <ele>302.9</ele>
        <time>2017-04-29T14:13:32Z</time>
      </trkpt>
      <trkpt lat="43.91801" lon="5.1419">
        <ele>303.4</ele>
        <time>2017-04-29T14:13:39Z</time>
      </trkpt>
      <trkpt lat="43.91794" lon="5.14193">
        <ele>302.7</ele>
        <time>2017-04-29T14:13:46Z</time>
      </trkpt>
      <trkpt lat="43.91787" lon="5.14196">
        <ele>302.1</ele>
        <time>2017-04-29T14:13:52Z</time>
      </trkpt>
      <trkpt lat="43.91779" lon="5.142">
        <ele>301.9</ele>
        <time>2017-04-29T14:13:59Z</time>
      </trkpt>
      <trkpt lat="43.91772" lon="5.14203">
        <ele>301.9</ele>
        <time>2017-04-29T14:14:04Z</time>
      </trkpt>
      <trkpt lat="43.91765" lon="5.14208">
        <ele>301.8</ele>
        <time>2017-04-29T14:14:11Z</time>
      </trkpt>
      <trkpt lat="43.91759" lon="5.14215">
        <ele>301.1</ele>
        <time>2017-04-29T14:14:18Z</time>
      </trkpt>
      <trkpt lat="43.91754" lon="5.14221">
        <ele>299.9</ele>
        <time>2017-04-29T14:14:25Z</time>
      </trkpt>
      <trkpt lat="43.91749" lon="5.14226">
        <ele>298.4</ele>
        <time>2017-04-29T14:14:32Z</time>
      </trkpt>
      <trkpt lat="43.91744" lon="5.1423">
        <ele>297.9</ele>
        <time>2017-04-29T14:14:39Z</time>
      </trkpt>
      <trkpt lat="43.91737" lon="5.1423">
        <ele>297.3</ele>
        <time>2017-04-29T14:14:46Z</time>
      </trkpt>
      <trkpt lat="43.91729" lon="5.1423">
        <ele>296.4</ele>
        <time>2017-04-29T14:14:52Z</time>
      </trkpt>
      <trkpt lat="43.91722" lon="5.14227">
        <ele>296</ele>
        <time>2017-04-29T14:14:58Z</time>
      </trkpt>
      <trkpt lat="43.91715" lon="5.14222">
        <ele>295.3</ele>
        <time>2017-04-29T14:15:04Z</time>
      </trkpt>
      <trkpt lat="43.91709" lon="5.14214">
        <ele>294.8</ele>
        <time>2017-04-29T14:15:10Z</time>
      </trkpt>
      <trkpt lat="43.91708" lon="5.14204">
        <ele>294.3</ele>
        <time>2017-04-29T14:15:16Z</time>
      </trkpt>
      <trkpt lat="43.91708" lon="5.14193">
        <ele>293.8</ele>
        <time>2017-04-29T14:15:23Z</time>
      </trkpt>
      <trkpt lat="43.91709" lon="5.14182">
        <ele>293.9</ele>
        <time>2017-04-29T14:15:31Z</time>
      </trkpt>
      <trkpt lat="43.91714" lon="5.14173">
        <ele>294</ele>
        <time>2017-04-29T14:15:37Z</time>
      </trkpt>
      <trkpt lat="43.91716" lon="5.14163">
        <ele>293.4</ele>
        <time>2017-04-29T14:15:43Z</time>
      </trkpt>
      <trkpt lat="43.91716" lon="5.14152">
        <ele>292.1</ele>
        <time>2017-04-29T14:15:50Z</time>
      </trkpt>
      <trkpt lat="43.91717" lon="5.14141">
        <ele>291.6</ele>
        <time>2017-04-29T14:15:57Z</time>
      </trkpt>
      <trkpt lat="43.91719" lon="5.14131">
        <ele>290.6</ele>
        <time>2017-04-29T14:16:04Z</time>
      </trkpt>
      <trkpt lat="43.91722" lon="5.14119">
        <ele>289.9</ele>
        <time>2017-04-29T14:16:11Z</time>
      </trkpt>
      <trkpt lat="43.91722" lon="5.14109">
        <ele>288.5</ele>
        <time>2017-04-29T14:16:18Z</time>
      </trkpt>
      <trkpt lat="43.91722" lon="5.14098">
        <ele>287.4</ele>
        <time>2017-04-29T14:16:25Z</time>
      </trkpt>
      <trkpt lat="43.91724" lon="5.14087">
        <ele>286.7</ele>
        <time>2017-04-29T14:16:32Z</time>
      </trkpt>
      <trkpt lat="43.91727" lon="5.14078">
        <ele>285.9</ele>
        <time>2017-04-29T14:16:38Z</time>
      </trkpt>
      <trkpt lat="43.91727" lon="5.14069">
        <ele>284.3</ele>
        <time>2017-04-29T14:16:45Z</time>
      </trkpt>
      <trkpt lat="43.91727" lon="5.14058">
        <ele>282.9</ele>
        <time>2017-04-29T14:16:52Z</time>
      </trkpt>
      <trkpt lat="43.91726" lon="5.14048">
        <ele>280.2</ele>
        <time>2017-04-29T14:16:58Z</time>
      </trkpt>
      <trkpt lat="43.91721" lon="5.1404">
        <ele>279</ele>
        <time>2017-04-29T14:17:04Z</time>
      </trkpt>
      <trkpt lat="43.91715" lon="5.14032">
        <ele>278.6</ele>
        <time>2017-04-29T14:17:11Z</time>
      </trkpt>
      <trkpt lat="43.9171" lon="5.14025">
        <ele>278.8</ele>
        <time>2017-04-29T14:17:17Z</time>
      </trkpt>
      <trkpt lat="43.91703" lon="5.14019">
        <ele>279.8</ele>
        <time>2017-04-29T14:17:23Z</time>
      </trkpt>
      <trkpt lat="43.91696" lon="5.14012">
        <ele>281.1</ele>
        <time>2017-04-29T14:17:30Z</time>
      </trkpt>
      <trkpt lat="43.91693" lon="5.14007">
        <ele>281.8</ele>
        <time>2017-04-29T14:17:37Z</time>
      </trkpt>
      <trkpt lat="43.91691" lon="5.14006">
        <ele>282.4</ele>
        <time>2017-04-29T14:17:45Z</time>
      </trkpt>
      <trkpt lat="43.9169" lon="5.13996">
        <ele>282.6</ele>
        <time>2017-04-29T14:18:19Z</time>
      </trkpt>
      <trkpt lat="43.91689" lon="5.1399">
        <ele>282.8</ele>
        <time>2017-04-29T14:18:26Z</time>
      </trkpt>
      <trkpt lat="43.91685" lon="5.13982">
        <ele>282.7</ele>
        <time>2017-04-29T14:18:33Z</time>
      </trkpt>
      <trkpt lat="43.91683" lon="5.13975">
        <ele>282.7</ele>
        <time>2017-04-29T14:18:40Z</time>
      </trkpt>
      <trkpt lat="43.91682" lon="5.13968">
        <ele>282.5</ele>
        <time>2017-04-29T14:18:47Z</time>
      </trkpt>
      <trkpt lat="43.91683" lon="5.13959">
        <ele>282.4</ele>
        <time>2017-04-29T14:18:54Z</time>
      </trkpt>
      <trkpt lat="43.91682" lon="5.13953">
        <ele>282.3</ele>
        <time>2017-04-29T14:19:01Z</time>
      </trkpt>
      <trkpt lat="43.9168" lon="5.13946">
        <ele>282</ele>
        <time>2017-04-29T14:19:08Z</time>
      </trkpt>
      <trkpt lat="43.91679" lon="5.13936">
        <ele>281.9</ele>
        <time>2017-04-29T14:19:15Z</time>
      </trkpt>
      <trkpt lat="43.91673" lon="5.13931">
        <ele>281.5</ele>
        <time>2017-04-29T14:19:22Z</time>
      </trkpt>
      <trkpt lat="43.91666" lon="5.13929">
        <ele>281.2</ele>
        <time>2017-04-29T14:19:29Z</time>
      </trkpt>
      <trkpt lat="43.9166" lon="5.13924">
        <ele>280.9</ele>
        <time>2017-04-29T14:19:36Z</time>
      </trkpt>
      <trkpt lat="43.91654" lon="5.1392">
        <ele>280.4</ele>
        <time>2017-04-29T14:19:43Z</time>
      </trkpt>
      <trkpt lat="43.91649" lon="5.13912">
        <ele>280</ele>
        <time>2017-04-29T14:19:50Z</time>
      </trkpt>
      <trkpt lat="43.91648" lon="5.13904">
        <ele>279.1</ele>
        <time>2017-04-29T14:19:57Z</time>
      </trkpt>
      <trkpt lat="43.91646" lon="5.13898">
        <ele>278</ele>
        <time>2017-04-29T14:20:04Z</time>
      </trkpt>
      <trkpt lat="43.91645" lon="5.13893">
        <ele>276.4</ele>
        <time>2017-04-29T14:20:11Z</time>
      </trkpt>
      <trkpt lat="43.91644" lon="5.13888">
        <ele>275</ele>
        <time>2017-04-29T14:20:18Z</time>
      </trkpt>
      <trkpt lat="43.91643" lon="5.13886">
        <ele>274.1</ele>
        <time>2017-04-29T14:20:25Z</time>
      </trkpt>
      <trkpt lat="43.91641" lon="5.1388">
        <ele>272.4</ele>
        <time>2017-04-29T14:20:32Z</time>
      </trkpt>
      <trkpt lat="43.91641" lon="5.13871">
        <ele>270.8</ele>
        <time>2017-04-29T14:20:39Z</time>
      </trkpt>
      <trkpt lat="43.91645" lon="5.13862">
        <ele>269.4</ele>
        <time>2017-04-29T14:20:46Z</time>
      </trkpt>
      <trkpt lat="43.91646" lon="5.13857">
        <ele>267.9</ele>
        <time>2017-04-29T14:20:53Z</time>
      </trkpt>
      <trkpt lat="43.9165" lon="5.1385">
        <ele>266.4</ele>
        <time>2017-04-29T14:21:00Z</time>
      </trkpt>
      <trkpt lat="43.91656" lon="5.13843">
        <ele>265.3</ele>
        <time>2017-04-29T14:21:07Z</time>
      </trkpt>
      <trkpt lat="43.91661" lon="5.13837">
        <ele>264.4</ele>
        <time>2017-04-29T14:21:14Z</time>
      </trkpt>
      <trkpt lat="43.91667" lon="5.13831">
        <ele>264.4</ele>
        <time>2017-04-29T14:21:19Z</time>
      </trkpt>
      <trkpt lat="43.91673" lon="5.13824">
        <ele>263.5</ele>
        <time>2017-04-29T14:21:26Z</time>
      </trkpt>
      <trkpt lat="43.91677" lon="5.13817">
        <ele>262.4</ele>
        <time>2017-04-29T14:21:33Z</time>
      </trkpt>
      <trkpt lat="43.91676" lon="5.13811">
        <ele>261.4</ele>
        <time>2017-04-29T14:21:40Z</time>
      </trkpt>
      <trkpt lat="43.91677" lon="5.13803">
        <ele>260.5</ele>
        <time>2017-04-29T14:21:47Z</time>
      </trkpt>
      <trkpt lat="43.91682" lon="5.13796">
        <ele>259.3</ele>
        <time>2017-04-29T14:21:53Z</time>
      </trkpt>
      <trkpt lat="43.91687" lon="5.13789">
        <ele>256.7</ele>
        <time>2017-04-29T14:22:00Z</time>
      </trkpt>
      <trkpt lat="43.91693" lon="5.13782">
        <ele>254.6</ele>
        <time>2017-04-29T14:22:07Z</time>
      </trkpt>
      <trkpt lat="43.91697" lon="5.13777">
        <ele>253.5</ele>
        <time>2017-04-29T14:22:14Z</time>
      </trkpt>
      <trkpt lat="43.917" lon="5.13772">
        <ele>252</ele>
        <time>2017-04-29T14:22:21Z</time>
      </trkpt>
      <trkpt lat="43.91707" lon="5.1377">
        <ele>251</ele>
        <time>2017-04-29T14:22:28Z</time>
      </trkpt>
      <trkpt lat="43.91713" lon="5.1377">
        <ele>249.9</ele>
        <time>2017-04-29T14:22:35Z</time>
      </trkpt>
      <trkpt lat="43.91719" lon="5.13769">
        <ele>249</ele>
        <time>2017-04-29T14:22:42Z</time>
      </trkpt>
      <trkpt lat="43.91722" lon="5.13762">
        <ele>247.3</ele>
        <time>2017-04-29T14:22:49Z</time>
      </trkpt>
      <trkpt lat="43.91728" lon="5.13754">
        <ele>247.4</ele>
        <time>2017-04-29T14:22:56Z</time>
      </trkpt>
      <trkpt lat="43.91731" lon="5.13747">
        <ele>246.6</ele>
        <time>2017-04-29T14:23:03Z</time>
      </trkpt>
      <trkpt lat="43.91734" lon="5.1374">
        <ele>245.4</ele>
        <time>2017-04-29T14:23:10Z</time>
      </trkpt>
      <trkpt lat="43.91737" lon="5.13733">
        <ele>243.7</ele>
        <time>2017-04-29T14:23:17Z</time>
      </trkpt>
      <trkpt lat="43.91738" lon="5.13728">
        <ele>242.1</ele>
        <time>2017-04-29T14:23:24Z</time>
      </trkpt>
      <trkpt lat="43.91734" lon="5.13718">
        <ele>236.6</ele>
        <time>2017-04-29T14:26:22Z</time>
      </trkpt>
      <trkpt lat="43.91732" lon="5.13711">
        <ele>236.6</ele>
        <time>2017-04-29T14:26:29Z</time>
      </trkpt>
      <trkpt lat="43.91732" lon="5.13704">
        <ele>237.2</ele>
        <time>2017-04-29T14:26:36Z</time>
      </trkpt>
      <trkpt lat="43.91732" lon="5.13696">
        <ele>237.6</ele>
        <time>2017-04-29T14:26:43Z</time>
      </trkpt>
      <trkpt lat="43.9173" lon="5.13688">
        <ele>237.8</ele>
        <time>2017-04-29T14:26:50Z</time>
      </trkpt>
      <trkpt lat="43.91726" lon="5.13681">
        <ele>238.1</ele>
        <time>2017-04-29T14:26:57Z</time>
      </trkpt>
      <trkpt lat="43.91723" lon="5.13673">
        <ele>238.1</ele>
        <time>2017-04-29T14:27:04Z</time>
      </trkpt>
      <trkpt lat="43.91725" lon="5.13663">
        <ele>237.9</ele>
        <time>2017-04-29T14:27:11Z</time>
      </trkpt>
      <trkpt lat="43.91725" lon="5.13659">
        <ele>237.3</ele>
        <time>2017-04-29T14:27:18Z</time>
      </trkpt>
      <trkpt lat="43.91731" lon="5.13652">
        <ele>237.3</ele>
        <time>2017-04-29T14:27:33Z</time>
      </trkpt>
      <trkpt lat="43.91734" lon="5.13643">
        <ele>236.6</ele>
        <time>2017-04-29T14:27:40Z</time>
      </trkpt>
      <trkpt lat="43.91732" lon="5.13635">
        <ele>236.2</ele>
        <time>2017-04-29T14:27:47Z</time>
      </trkpt>
      <trkpt lat="43.91729" lon="5.13627">
        <ele>235.6</ele>
        <time>2017-04-29T14:27:54Z</time>
      </trkpt>
      <trkpt lat="43.91726" lon="5.1362">
        <ele>235</ele>
        <time>2017-04-29T14:28:01Z</time>
      </trkpt>
      <trkpt lat="43.91722" lon="5.13617">
        <ele>234.1</ele>
        <time>2017-04-29T14:28:08Z</time>
      </trkpt>
      <trkpt lat="43.91721" lon="5.13616">
        <ele>233.5</ele>
        <time>2017-04-29T14:28:15Z</time>
      </trkpt>
      <trkpt lat="43.91716" lon="5.13612">
        <ele>233</ele>
        <time>2017-04-29T14:28:22Z</time>
      </trkpt>
      <trkpt lat="43.9171" lon="5.1361">
        <ele>231.9</ele>
        <time>2017-04-29T14:28:29Z</time>
      </trkpt>
      <trkpt lat="43.91704" lon="5.13607">
        <ele>231.5</ele>
        <time>2017-04-29T14:28:36Z</time>
      </trkpt>
      <trkpt lat="43.91698" lon="5.13605">
        <ele>231.3</ele>
        <time>2017-04-29T14:28:43Z</time>
      </trkpt>
      <trkpt lat="43.91692" lon="5.13604">
        <ele>230.7</ele>
        <time>2017-04-29T14:28:50Z</time>
      </trkpt>
      <trkpt lat="43.91688" lon="5.13602">
        <ele>230.2</ele>
        <time>2017-04-29T14:28:57Z</time>
      </trkpt>
      <trkpt lat="43.91681" lon="5.13602">
        <ele>229.8</ele>
        <time>2017-04-29T14:29:04Z</time>
      </trkpt>
      <trkpt lat="43.91674" lon="5.136">
        <ele>228.9</ele>
        <time>2017-04-29T14:29:11Z</time>
      </trkpt>
      <trkpt lat="43.91668" lon="5.13594">
        <ele>228</ele>
        <time>2017-04-29T14:29:18Z</time>
      </trkpt>
      <trkpt lat="43.91662" lon="5.13587">
        <ele>227.3</ele>
        <time>2017-04-29T14:29:25Z</time>
      </trkpt>
      <trkpt lat="43.91657" lon="5.13581">
        <ele>226.6</ele>
        <time>2017-04-29T14:29:32Z</time>
      </trkpt>
      <trkpt lat="43.91653" lon="5.13576">
        <ele>225.9</ele>
        <time>2017-04-29T14:29:39Z</time>
      </trkpt>
      <trkpt lat="43.91647" lon="5.13569">
        <ele>224.8</ele>
        <time>2017-04-29T14:29:46Z</time>
      </trkpt>
      <trkpt lat="43.91645" lon="5.13562">
        <ele>224.2</ele>
        <time>2017-04-29T14:29:53Z</time>
      </trkpt>
      <trkpt lat="43.91639" lon="5.13556">
        <ele>223.6</ele>
        <time>2017-04-29T14:30:00Z</time>
      </trkpt>
      <trkpt lat="43.91633" lon="5.1355">
        <ele>222.7</ele>
        <time>2017-04-29T14:30:07Z</time>
      </trkpt>
      <trkpt lat="43.91626" lon="5.13544">
        <ele>221.9</ele>
        <time>2017-04-29T14:30:14Z</time>
      </trkpt>
      <trkpt lat="43.91622" lon="5.13537">
        <ele>221.6</ele>
        <time>2017-04-29T14:30:21Z</time>
      </trkpt>
      <trkpt lat="43.91615" lon="5.13531">
        <ele>221</ele>
        <time>2017-04-29T14:30:28Z</time>
      </trkpt>
      <trkpt lat="43.91612" lon="5.13523">
        <ele>219.8</ele>
        <time>2017-04-29T14:30:35Z</time>
      </trkpt>
      <trkpt lat="43.9161" lon="5.13516">
        <ele>218.9</ele>
        <time>2017-04-29T14:30:42Z</time>
      </trkpt>
      <trkpt lat="43.91609" lon="5.13508">
        <ele>218.2</ele>
        <time>2017-04-29T14:30:49Z</time>
      </trkpt>
      <trkpt lat="43.91604" lon="5.13502">
        <ele>217.1</ele>
        <time>2017-04-29T14:30:56Z</time>
      </trkpt>
      <trkpt lat="43.91601" lon="5.13498">
        <ele>216.1</ele>
        <time>2017-04-29T14:31:03Z</time>
      </trkpt>
      <trkpt lat="43.91599" lon="5.13493">
        <ele>215.3</ele>
        <time>2017-04-29T14:31:10Z</time>
      </trkpt>
      <trkpt lat="43.91598" lon="5.13489">
        <ele>213.7</ele>
        <time>2017-04-29T14:31:17Z</time>
      </trkpt>
      <trkpt lat="43.91592" lon="5.13484">
        <ele>210.7</ele>
        <time>2017-04-29T14:31:39Z</time>
      </trkpt>
      <trkpt lat="43.91592" lon="5.13485">
        <ele>209.1</ele>
        <time>2017-04-29T14:31:46Z</time>
      </trkpt>
      <trkpt lat="43.91591" lon="5.13479">
        <ele>208.2</ele>
        <time>2017-04-29T14:32:17Z</time>
      </trkpt>
      <trkpt lat="43.91588" lon="5.13478">
        <ele>207.1</ele>
        <time>2017-04-29T14:32:24Z</time>
      </trkpt>
      <trkpt lat="43.91578" lon="5.13481">
        <ele>203.2</ele>
        <time>2017-04-29T14:32:51Z</time>
      </trkpt>
      <trkpt lat="43.91575" lon="5.13483">
        <ele>201.2</ele>
        <time>2017-04-29T14:32:58Z</time>
      </trkpt>
      <trkpt lat="43.91571" lon="5.13475">
        <ele>199</ele>
        <time>2017-04-29T14:33:12Z</time>
      </trkpt>
      <trkpt lat="43.91568" lon="5.13469">
        <ele>198.5</ele>
        <time>2017-04-29T14:33:19Z</time>
      </trkpt>
      <trkpt lat="43.91564" lon="5.13461">
        <ele>198.8</ele>
        <time>2017-04-29T14:33:26Z</time>
      </trkpt>
      <trkpt lat="43.91565" lon="5.13454">
        <ele>200</ele>
        <time>2017-04-29T14:33:33Z</time>
      </trkpt>
      <trkpt lat="43.91572" lon="5.13452">
        <ele>200.4</ele>
        <time>2017-04-29T14:33:38Z</time>
      </trkpt>
      <trkpt lat="43.91579" lon="5.13456">
        <ele>199.6</ele>
        <time>2017-04-29T14:33:45Z</time>
      </trkpt>
      <trkpt lat="43.91584" lon="5.1346">
        <ele>198</ele>
        <time>2017-04-29T14:33:52Z</time>
      </trkpt>
      <trkpt lat="43.91589" lon="5.13464">
        <ele>197.3</ele>
        <time>2017-04-29T14:33:59Z</time>
      </trkpt>
      <trkpt lat="43.91594" lon="5.13468">
        <ele>196.5</ele>
        <time>2017-04-29T14:34:06Z</time>
      </trkpt>
      <trkpt lat="43.91598" lon="5.13467">
        <ele>195.9</ele>
        <time>2017-04-29T14:34:13Z</time>
      </trkpt>
      <trkpt lat="43.91602" lon="5.13466">
        <ele>195.6</ele>
        <time>2017-04-29T14:34:20Z</time>
      </trkpt>
      <trkpt lat="43.91608" lon="5.13466">
        <ele>195.3</ele>
        <time>2017-04-29T14:34:27Z</time>
      </trkpt>
      <trkpt lat="43.91608" lon="5.13463">
        <ele>195.3</ele>
        <time>2017-04-29T14:34:34Z</time>
      </trkpt>
      <trkpt lat="43.91598" lon="5.13467">
        <ele>194.8</ele>
        <time>2017-04-29T14:34:55Z</time>
      </trkpt>
      <trkpt lat="43.91594" lon="5.13464">
        <ele>195.1</ele>
        <time>2017-04-29T14:35:02Z</time>
      </trkpt>
      <trkpt lat="43.91593" lon="5.13456">
        <ele>196.5</ele>
        <time>2017-04-29T14:35:09Z</time>
      </trkpt>
      <trkpt lat="43.91592" lon="5.13449">
        <ele>196.9</ele>
        <time>2017-04-29T14:35:16Z</time>
      </trkpt>
      <trkpt lat="43.91591" lon="5.13441">
        <ele>196.7</ele>
        <time>2017-04-29T14:35:23Z</time>
      </trkpt>
      <trkpt lat="43.91588" lon="5.13433">
        <ele>196.7</ele>
        <time>2017-04-29T14:35:30Z</time>
      </trkpt>
      <trkpt lat="43.91581" lon="5.13434">
        <ele>196</ele>
        <time>2017-04-29T14:35:34Z</time>
      </trkpt>
      <trkpt lat="43.91577" lon="5.13426">
        <ele>196.5</ele>
        <time>2017-04-29T14:35:41Z</time>
      </trkpt>
      <trkpt lat="43.91571" lon="5.13428">
        <ele>195.7</ele>
        <time>2017-04-29T14:35:48Z</time>
      </trkpt>
      <trkpt lat="43.91576" lon="5.13421">
        <ele>196.8</ele>
        <time>2017-04-29T14:36:31Z</time>
      </trkpt>
      <trkpt lat="43.91575" lon="5.13413">
        <ele>194.9</ele>
        <time>2017-04-29T14:36:38Z</time>
      </trkpt>
      <trkpt lat="43.91572" lon="5.13405">
        <ele>193</ele>
        <time>2017-04-29T14:36:45Z</time>
      </trkpt>
      <trkpt lat="43.91567" lon="5.13399">
        <ele>192.1</ele>
        <time>2017-04-29T14:36:52Z</time>
      </trkpt>
      <trkpt lat="43.91564" lon="5.13396">
        <ele>190.9</ele>
        <time>2017-04-29T14:36:59Z</time>
      </trkpt>
      <trkpt lat="43.91562" lon="5.13394">
        <ele>190</ele>
        <time>2017-04-29T14:37:06Z</time>
      </trkpt>
      <trkpt lat="43.91559" lon="5.13391">
        <ele>188.6</ele>
        <time>2017-04-29T14:37:13Z</time>
      </trkpt>
      <trkpt lat="43.91557" lon="5.13388">
        <ele>187.2</ele>
        <time>2017-04-29T14:37:20Z</time>
      </trkpt>
      <trkpt lat="43.91552" lon="5.13386">
        <ele>185.7</ele>
        <time>2017-04-29T14:37:27Z</time>
      </trkpt>
      <trkpt lat="43.91546" lon="5.13382">
        <ele>184.2</ele>
        <time>2017-04-29T14:37:34Z</time>
      </trkpt>
      <trkpt lat="43.91539" lon="5.13375">
        <ele>182.8</ele>
        <time>2017-04-29T14:37:41Z</time>
      </trkpt>
      <trkpt lat="43.91533" lon="5.13368">
        <ele>180.7</ele>
        <time>2017-04-29T14:37:48Z</time>
      </trkpt>
      <trkpt lat="43.91528" lon="5.13361">
        <ele>179</ele>
        <time>2017-04-29T14:37:55Z</time>
      </trkpt>
      <trkpt lat="43.91524" lon="5.13353">
        <ele>177.7</ele>
        <time>2017-04-29T14:38:02Z</time>
      </trkpt>
      <trkpt lat="43.91522" lon="5.13344">
        <ele>176.9</ele>
        <time>2017-04-29T14:38:09Z</time>
      </trkpt>
      <trkpt lat="43.91519" lon="5.13338">
        <ele>176.2</ele>
        <time>2017-04-29T14:38:16Z</time>
      </trkpt>
      <trkpt lat="43.91518" lon="5.13331">
        <ele>175.1</ele>
        <time>2017-04-29T14:38:23Z</time>
      </trkpt>
      <trkpt lat="43.91518" lon="5.13322">
        <ele>173.3</ele>
        <time>2017-04-29T14:38:30Z</time>
      </trkpt>
      <trkpt lat="43.91518" lon="5.13314">
        <ele>172.5</ele>
        <time>2017-04-29T14:38:37Z</time>
      </trkpt>
      <trkpt lat="43.91516" lon="5.13306">
        <ele>171.8</ele>
        <time>2017-04-29T14:38:44Z</time>
      </trkpt>
      <trkpt lat="43.91516" lon="5.13298">
        <ele>171</ele>
        <time>2017-04-29T14:38:51Z</time>
      </trkpt>
      <trkpt lat="43.91514" lon="5.13288">
        <ele>168.4</ele>
        <time>2017-04-29T14:38:58Z</time>
      </trkpt>
      <trkpt lat="43.91515" lon="5.13277">
        <ele>165.6</ele>
        <time>2017-04-29T14:39:05Z</time>
      </trkpt>
      <trkpt lat="43.91512" lon="5.13272">
        <ele>164.4</ele>
        <time>2017-04-29T14:39:12Z</time>
      </trkpt>
      <trkpt lat="43.91509" lon="5.13265">
        <ele>163</ele>
        <time>2017-04-29T14:39:19Z</time>
      </trkpt>
      <trkpt lat="43.91505" lon="5.13257">
        <ele>161.2</ele>
        <time>2017-04-29T14:39:26Z</time>
      </trkpt>
      <trkpt lat="43.91502" lon="5.13251">
        <ele>159.8</ele>
        <time>2017-04-29T14:39:33Z</time>
      </trkpt>
      <trkpt lat="43.91501" lon="5.13245">
        <ele>158.7</ele>
        <time>2017-04-29T14:39:40Z</time>
      </trkpt>
      <trkpt lat="43.91502" lon="5.13238">
        <ele>157.6</ele>
        <time>2017-04-29T14:39:47Z</time>
      </trkpt>
      <trkpt lat="43.91503" lon="5.1323">
        <ele>156.8</ele>
        <time>2017-04-29T14:39:54Z</time>
      </trkpt>
      <trkpt lat="43.91504" lon="5.13222">
        <ele>156</ele>
        <time>2017-04-29T14:40:01Z</time>
      </trkpt>
      <trkpt lat="43.91504" lon="5.13214">
        <ele>154.4</ele>
        <time>2017-04-29T14:40:08Z</time>
      </trkpt>
      <trkpt lat="43.91504" lon="5.13207">
        <ele>153</ele>
        <time>2017-04-29T14:40:15Z</time>
      </trkpt>
      <trkpt lat="43.91508" lon="5.13199">
        <ele>152.8</ele>
        <time>2017-04-29T14:42:30Z</time>
      </trkpt>
      <trkpt lat="43.91512" lon="5.13193">
        <ele>153.1</ele>
        <time>2017-04-29T14:42:37Z</time>
      </trkpt>
      <trkpt lat="43.91515" lon="5.13185">
        <ele>154</ele>
        <time>2017-04-29T14:42:44Z</time>
      </trkpt>
      <trkpt lat="43.91513" lon="5.13177">
        <ele>154.4</ele>
        <time>2017-04-29T14:42:51Z</time>
      </trkpt>
      <trkpt lat="43.91513" lon="5.13172">
        <ele>154.1</ele>
        <time>2017-04-29T14:42:58Z</time>
      </trkpt>
      <trkpt lat="43.91516" lon="5.13165">
        <ele>154.4</ele>
        <time>2017-04-29T14:43:05Z</time>
      </trkpt>
      <trkpt lat="43.91516" lon="5.13157">
        <ele>154.5</ele>
        <time>2017-04-29T14:43:12Z</time>
      </trkpt>
      <trkpt lat="43.91515" lon="5.13151">
        <ele>154.2</ele>
        <time>2017-04-29T14:43:19Z</time>
      </trkpt>
      <trkpt lat="43.91515" lon="5.13143">
        <ele>154.1</ele>
        <time>2017-04-29T14:43:26Z</time>
      </trkpt>
      <trkpt lat="43.91516" lon="5.13136">
        <ele>154.2</ele>
        <time>2017-04-29T14:43:33Z</time>
      </trkpt>
      <trkpt lat="43.91517" lon="5.13128">
        <ele>154.6</ele>
        <time>2017-04-29T14:43:40Z</time>
      </trkpt>
      <trkpt lat="43.91517" lon="5.13124">
        <ele>154.6</ele>
        <time>2017-04-29T14:43:47Z</time>
      </trkpt>
      <trkpt lat="43.91519" lon="5.13118">
        <ele>154.9</ele>
        <time>2017-04-29T14:43:54Z</time>
      </trkpt>
      <trkpt lat="43.91521" lon="5.13111">
        <ele>155.2</ele>
        <time>2017-04-29T14:44:01Z</time>
      </trkpt>
      <trkpt lat="43.91524" lon="5.13103">
        <ele>155.5</ele>
        <time>2017-04-29T14:44:08Z</time>
      </trkpt>
      <trkpt lat="43.91526" lon="5.13096">
        <ele>155.5</ele>
        <time>2017-04-29T14:44:15Z</time>
      </trkpt>
      <trkpt lat="43.91529" lon="5.1309">
        <ele>156</ele>
        <time>2017-04-29T14:44:22Z</time>
      </trkpt>
      <trkpt lat="43.91533" lon="5.13082">
        <ele>156.4</ele>
        <time>2017-04-29T14:44:29Z</time>
      </trkpt>
      <trkpt lat="43.91535" lon="5.13076">
        <ele>156.7</ele>
        <time>2017-04-29T14:44:36Z</time>
      </trkpt>
      <trkpt lat="43.91539" lon="5.13067">
        <ele>156.7</ele>
        <time>2017-04-29T14:44:43Z</time>
      </trkpt>
      <trkpt lat="43.91543" lon="5.1306">
        <ele>157.2</ele>
        <time>2017-04-29T14:44:50Z</time>
      </trkpt>
      <trkpt lat="43.91547" lon="5.13052">
        <ele>157.9</ele>
        <time>2017-04-29T14:44:57Z</time>
      </trkpt>
      <trkpt lat="43.9155" lon="5.13043">
        <ele>158.6</ele>
        <time>2017-04-29T14:45:04Z</time>
      </trkpt>
      <trkpt lat="43.91552" lon="5.13036">
        <ele>159.4</ele>
        <time>2017-04-29T14:45:11Z</time>
      </trkpt>
      <trkpt lat="43.91556" lon="5.13029">
        <ele>160.4</ele>
        <time>2017-04-29T14:45:18Z</time>
      </trkpt>
      <trkpt lat="43.91558" lon="5.13022">
        <ele>161.1</ele>
        <time>2017-04-29T14:45:25Z</time>
      </trkpt>
      <trkpt lat="43.9156" lon="5.1302">
        <ele>161.7</ele>
        <time>2017-04-29T14:45:32Z</time>
      </trkpt>
      <trkpt lat="43.9156" lon="5.13013">
        <ele>162.5</ele>
        <time>2017-04-29T14:45:47Z</time>
      </trkpt>
      <trkpt lat="43.91562" lon="5.13007">
        <ele>162.4</ele>
        <time>2017-04-29T14:45:54Z</time>
      </trkpt>
      <trkpt lat="43.91566" lon="5.13001">
        <ele>162</ele>
        <time>2017-04-29T14:46:01Z</time>
      </trkpt>
      <trkpt lat="43.9157" lon="5.12994">
        <ele>161.9</ele>
        <time>2017-04-29T14:46:08Z</time>
      </trkpt>
      <trkpt lat="43.91571" lon="5.12986">
        <ele>162</ele>
        <time>2017-04-29T14:46:15Z</time>
      </trkpt>
      <trkpt lat="43.91572" lon="5.1298">
        <ele>162</ele>
        <time>2017-04-29T14:46:22Z</time>
      </trkpt>
      <trkpt lat="43.91579" lon="5.12975">
        <ele>161.7</ele>
        <time>2017-04-29T14:46:29Z</time>
      </trkpt>
      <trkpt lat="43.91587" lon="5.12972">
        <ele>161.5</ele>
        <time>2017-04-29T14:46:34Z</time>
      </trkpt>
      <trkpt lat="43.91594" lon="5.12968">
        <ele>161.6</ele>
        <time>2017-04-29T14:46:40Z</time>
      </trkpt>
      <trkpt lat="43.916" lon="5.12962">
        <ele>162</ele>
        <time>2017-04-29T14:46:45Z</time>
      </trkpt>
      <trkpt lat="43.91606" lon="5.1296">
        <ele>163.3</ele>
        <time>2017-04-29T14:46:52Z</time>
      </trkpt>
      <trkpt lat="43.91612" lon="5.12959">
        <ele>165.2</ele>
        <time>2017-04-29T14:46:59Z</time>
      </trkpt>
      <trkpt lat="43.91617" lon="5.12956">
        <ele>166.8</ele>
        <time>2017-04-29T14:47:06Z</time>
      </trkpt>
      <trkpt lat="43.91624" lon="5.12958">
        <ele>169.4</ele>
        <time>2017-04-29T14:47:13Z</time>
      </trkpt>
      <trkpt lat="43.9163" lon="5.12958">
        <ele>172.3</ele>
        <time>2017-04-29T14:47:20Z</time>
      </trkpt>
      <trkpt lat="43.91635" lon="5.12956">
        <ele>176.4</ele>
        <time>2017-04-29T14:47:27Z</time>
      </trkpt>
      <trkpt lat="43.9164" lon="5.12956">
        <ele>180.1</ele>
        <time>2017-04-29T14:47:34Z</time>
      </trkpt>
      <trkpt lat="43.91644" lon="5.12959">
        <ele>183.7</ele>
        <time>2017-04-29T14:47:41Z</time>
      </trkpt>
      <trkpt lat="43.91647" lon="5.12959">
        <ele>187.5</ele>
        <time>2017-04-29T14:47:48Z</time>
      </trkpt>
      <trkpt lat="43.91653" lon="5.12962">
        <ele>191.3</ele>
        <time>2017-04-29T14:47:55Z</time>
      </trkpt>
      <trkpt lat="43.91659" lon="5.12963">
        <ele>194.7</ele>
        <time>2017-04-29T14:48:02Z</time>
      </trkpt>
      <trkpt lat="43.91666" lon="5.12962">
        <ele>198.3</ele>
        <time>2017-04-29T14:48:09Z</time>
      </trkpt>
      <trkpt lat="43.91671" lon="5.12962">
        <ele>201.4</ele>
        <time>2017-04-29T14:48:16Z</time>
      </trkpt>
      <trkpt lat="43.91671" lon="5.12963">
        <ele>200.8</ele>
        <time>2017-04-29T14:48:23Z</time>
      </trkpt>
      <trkpt lat="43.91676" lon="5.12963">
        <ele>200.3</ele>
        <time>2017-04-29T14:48:30Z</time>
      </trkpt>
      <trkpt lat="43.91682" lon="5.12965">
        <ele>201.6</ele>
        <time>2017-04-29T14:48:37Z</time>
      </trkpt>
      <trkpt lat="43.91688" lon="5.12966">
        <ele>202.5</ele>
        <time>2017-04-29T14:48:44Z</time>
      </trkpt>
      <trkpt lat="43.91694" lon="5.12968">
        <ele>204.3</ele>
        <time>2017-04-29T14:48:51Z</time>
      </trkpt>
      <trkpt lat="43.91702" lon="5.12968">
        <ele>205.1</ele>
        <time>2017-04-29T14:48:58Z</time>
      </trkpt>
      <trkpt lat="43.91707" lon="5.12967">
        <ele>206.3</ele>
        <time>2017-04-29T14:49:05Z</time>
      </trkpt>
      <trkpt lat="43.91712" lon="5.12967">
        <ele>206.9</ele>
        <time>2017-04-29T14:49:12Z</time>
      </trkpt>
      <trkpt lat="43.9172" lon="5.12963">
        <ele>207.5</ele>
        <time>2017-04-29T14:49:18Z</time>
      </trkpt>
      <trkpt lat="43.91727" lon="5.12962">
        <ele>206.8</ele>
        <time>2017-04-29T14:49:25Z</time>
      </trkpt>
      <trkpt lat="43.91733" lon="5.12962">
        <ele>208.7</ele>
        <time>2017-04-29T14:49:32Z</time>
      </trkpt>
      <trkpt lat="43.9174" lon="5.12962">
        <ele>209.6</ele>
        <time>2017-04-29T14:49:39Z</time>
      </trkpt>
      <trkpt lat="43.91745" lon="5.12963">
        <ele>210.7</ele>
        <time>2017-04-29T14:49:46Z</time>
      </trkpt>
      <trkpt lat="43.91749" lon="5.12964">
        <ele>212</ele>
        <time>2017-04-29T14:49:53Z</time>
      </trkpt>
      <trkpt lat="43.91754" lon="5.12962">
        <ele>212.1</ele>
        <time>2017-04-29T14:50:00Z</time>
      </trkpt>
      <trkpt lat="43.9176" lon="5.1296">
        <ele>212.1</ele>
        <time>2017-04-29T14:50:07Z</time>
      </trkpt>
      <trkpt lat="43.91766" lon="5.12961">
        <ele>211.1</ele>
        <time>2017-04-29T14:50:14Z</time>
      </trkpt>
      <trkpt lat="43.91773" lon="5.12962">
        <ele>207.8</ele>
        <time>2017-04-29T14:50:21Z</time>
      </trkpt>
      <trkpt lat="43.91779" lon="5.12963">
        <ele>206.5</ele>
        <time>2017-04-29T14:50:28Z</time>
      </trkpt>
      <trkpt lat="43.91785" lon="5.12962">
        <ele>204</ele>
        <time>2017-04-29T14:50:35Z</time>
      </trkpt>
      <trkpt lat="43.91792" lon="5.12962">
        <ele>202.5</ele>
        <time>2017-04-29T14:50:42Z</time>
      </trkpt>
      <trkpt lat="43.91799" lon="5.12963">
        <ele>200.2</ele>
        <time>2017-04-29T14:50:49Z</time>
      </trkpt>
      <trkpt lat="43.91804" lon="5.12965">
        <ele>199.3</ele>
        <time>2017-04-29T14:50:56Z</time>
      </trkpt>
      <trkpt lat="43.91808" lon="5.12966">
        <ele>197.7</ele>
        <time>2017-04-29T14:51:03Z</time>
      </trkpt>
      <trkpt lat="43.91815" lon="5.12968">
        <ele>196.4</ele>
        <time>2017-04-29T14:51:10Z</time>
      </trkpt>
      <trkpt lat="43.91822" lon="5.12969">
        <ele>195.3</ele>
        <time>2017-04-29T14:51:17Z</time>
      </trkpt>
      <trkpt lat="43.9183" lon="5.12968">
        <ele>192.7</ele>
        <time>2017-04-29T14:51:23Z</time>
      </trkpt>
      <trkpt lat="43.91836" lon="5.1297">
        <ele>191.9</ele>
        <time>2017-04-29T14:51:30Z</time>
      </trkpt>
      <trkpt lat="43.91843" lon="5.12973">
        <ele>192</ele>
        <time>2017-04-29T14:51:37Z</time>
      </trkpt>
      <trkpt lat="43.91851" lon="5.12977">
        <ele>190.7</ele>
        <time>2017-04-29T14:51:42Z</time>
      </trkpt>
      <trkpt lat="43.91858" lon="5.12978">
        <ele>189</ele>
        <time>2017-04-29T14:51:49Z</time>
      </trkpt>
      <trkpt lat="43.9186" lon="5.12979">
        <ele>188.3</ele>
        <time>2017-04-29T14:51:56Z</time>
      </trkpt>
      <trkpt lat="43.91865" lon="5.12987">
        <ele>185.5</ele>
        <time>2017-04-29T14:52:09Z</time>
      </trkpt>
      <trkpt lat="43.91871" lon="5.12991">
        <ele>183.1</ele>
        <time>2017-04-29T14:52:16Z</time>
      </trkpt>
      <trkpt lat="43.91873" lon="5.12995">
        <ele>181</ele>
        <time>2017-04-29T14:52:23Z</time>
      </trkpt>
      <trkpt lat="43.91879" lon="5.12999">
        <ele>175.6</ele>
        <time>2017-04-29T14:52:56Z</time>
      </trkpt>
      <trkpt lat="43.91882" lon="5.13003">
        <ele>175.8</ele>
        <time>2017-04-29T14:53:03Z</time>
      </trkpt>
      <trkpt lat="43.91883" lon="5.13007">
        <ele>175.3</ele>
        <time>2017-04-29T14:53:10Z</time>
      </trkpt>
      <trkpt lat="43.91881" lon="5.1301">
        <ele>174.1</ele>
        <time>2017-04-29T14:53:17Z</time>
      </trkpt>
      <trkpt lat="43.91866" lon="5.13018">
        <ele>172.4</ele>
        <time>2017-04-29T14:54:20Z</time>
      </trkpt>
      <trkpt lat="43.91872" lon="5.13013">
        <ele>170.4</ele>
        <time>2017-04-29T14:54:53Z</time>
      </trkpt>
      <trkpt lat="43.91878" lon="5.1301">
        <ele>171</ele>
        <time>2017-04-29T14:55:00Z</time>
      </trkpt>
      <trkpt lat="43.91885" lon="5.13007">
        <ele>171.8</ele>
        <time>2017-04-29T14:55:07Z</time>
      </trkpt>
      <trkpt lat="43.9189" lon="5.13007">
        <ele>171.6</ele>
        <time>2017-04-29T14:55:14Z</time>
      </trkpt>
      <trkpt lat="43.91894" lon="5.13007">
        <ele>171.7</ele>
        <time>2017-04-29T14:55:21Z</time>
      </trkpt>
      <trkpt lat="43.91896" lon="5.13004">
        <ele>171.7</ele>
        <time>2017-04-29T14:55:28Z</time>
      </trkpt>
      <trkpt lat="43.91901" lon="5.13001">
        <ele>171.9</ele>
        <time>2017-04-29T14:55:35Z</time>
      </trkpt>
      <trkpt lat="43.91907" lon="5.12999">
        <ele>172</ele>
        <time>2017-04-29T14:55:42Z</time>
      </trkpt>
      <trkpt lat="43.91913" lon="5.12996">
        <ele>172.1</ele>
        <time>2017-04-29T14:55:49Z</time>
      </trkpt>
      <trkpt lat="43.91918" lon="5.12994">
        <ele>172.5</ele>
        <time>2017-04-29T14:55:56Z</time>
      </trkpt>
      <trkpt lat="43.91926" lon="5.12991">
        <ele>172.6</ele>
        <time>2017-04-29T14:56:03Z</time>
      </trkpt>
      <trkpt lat="43.91933" lon="5.1299">
        <ele>172.3</ele>
        <time>2017-04-29T14:56:10Z</time>
      </trkpt>
      <trkpt lat="43.91937" lon="5.12994">
        <ele>172</ele>
        <time>2017-04-29T14:56:17Z</time>
      </trkpt>
      <trkpt lat="43.91942" lon="5.12994">
        <ele>171.2</ele>
        <time>2017-04-29T14:56:24Z</time>
      </trkpt>
      <trkpt lat="43.91947" lon="5.12991">
        <ele>170.3</ele>
        <time>2017-04-29T14:56:31Z</time>
      </trkpt>
      <trkpt lat="43.9195" lon="5.1299">
        <ele>169.4</ele>
        <time>2017-04-29T14:56:38Z</time>
      </trkpt>
      <trkpt lat="43.91955" lon="5.12988">
        <ele>168.1</ele>
        <time>2017-04-29T14:56:45Z</time>
      </trkpt>
      <trkpt lat="43.9196" lon="5.12988">
        <ele>164.8</ele>
        <time>2017-04-29T14:56:52Z</time>
      </trkpt>
      <trkpt lat="43.91968" lon="5.12991">
        <ele>162.3</ele>
        <time>2017-04-29T14:56:59Z</time>
      </trkpt>
      <trkpt lat="43.91972" lon="5.12993">
        <ele>161.1</ele>
        <time>2017-04-29T14:57:06Z</time>
      </trkpt>
      <trkpt lat="43.91979" lon="5.12994">
        <ele>160.2</ele>
        <time>2017-04-29T14:57:13Z</time>
      </trkpt>
      <trkpt lat="43.91987" lon="5.12995">
        <ele>159.4</ele>
        <time>2017-04-29T14:57:20Z</time>
      </trkpt>
      <trkpt lat="43.91995" lon="5.12997">
        <ele>158.6</ele>
        <time>2017-04-29T14:57:26Z</time>
      </trkpt>
      <trkpt lat="43.91996" lon="5.13005">
        <ele>156.4</ele>
        <time>2017-04-29T14:57:33Z</time>
      </trkpt>
      <trkpt lat="43.92002" lon="5.13009">
        <ele>155</ele>
        <time>2017-04-29T14:57:40Z</time>
      </trkpt>
      <trkpt lat="43.92007" lon="5.13013">
        <ele>153.9</ele>
        <time>2017-04-29T14:57:47Z</time>
      </trkpt>
      <trkpt lat="43.92013" lon="5.13014">
        <ele>152.8</ele>
        <time>2017-04-29T14:57:54Z</time>
      </trkpt>
      <trkpt lat="43.92018" lon="5.13012">
        <ele>151.4</ele>
        <time>2017-04-29T14:58:01Z</time>
      </trkpt>
      <trkpt lat="43.92022" lon="5.13008">
        <ele>150.1</ele>
        <time>2017-04-29T14:58:08Z</time>
      </trkpt>
      <trkpt lat="43.92027" lon="5.13004">
        <ele>149.2</ele>
        <time>2017-04-29T14:58:15Z</time>
      </trkpt>
      <trkpt lat="43.92031" lon="5.13002">
        <ele>148.4</ele>
        <time>2017-04-29T14:58:22Z</time>
      </trkpt>
      <trkpt lat="43.92036" lon="5.13002">
        <ele>147.8</ele>
        <time>2017-04-29T14:58:29Z</time>
      </trkpt>
      <trkpt lat="43.9204" lon="5.13002">
        <ele>147.3</ele>
        <time>2017-04-29T14:58:36Z</time>
      </trkpt>
      <trkpt lat="43.92041" lon="5.13004">
        <ele>146.3</ele>
        <time>2017-04-29T14:58:43Z</time>
      </trkpt>
      <trkpt lat="43.92047" lon="5.13001">
        <ele>145.7</ele>
        <time>2017-04-29T14:59:00Z</time>
      </trkpt>
      <trkpt lat="43.92051" lon="5.13">
        <ele>145.3</ele>
        <time>2017-04-29T14:59:07Z</time>
      </trkpt>
      <trkpt lat="43.92054" lon="5.12999">
        <ele>144.9</ele>
        <time>2017-04-29T14:59:14Z</time>
      </trkpt>
      <trkpt lat="43.92061" lon="5.12996">
        <ele>144.3</ele>
        <time>2017-04-29T14:59:30Z</time>
      </trkpt>
      <trkpt lat="43.92063" lon="5.12995">
        <ele>144.1</ele>
        <time>2017-04-29T14:59:37Z</time>
      </trkpt>
      <trkpt lat="43.92067" lon="5.13002">
        <ele>141.5</ele>
        <time>2017-04-29T14:59:59Z</time>
      </trkpt>
      <trkpt lat="43.92063" lon="5.13008">
        <ele>139.5</ele>
        <time>2017-04-29T15:00:20Z</time>
      </trkpt>
      <trkpt lat="43.92061" lon="5.13011">
        <ele>139.9</ele>
        <time>2017-04-29T15:00:27Z</time>
      </trkpt>
      <trkpt lat="43.92065" lon="5.13012">
        <ele>140.5</ele>
        <time>2017-04-29T15:00:48Z</time>
      </trkpt>
      <trkpt lat="43.92063" lon="5.13007">
        <ele>140.1</ele>
        <time>2017-04-29T15:01:25Z</time>
      </trkpt>
      <trkpt lat="43.92069" lon="5.13004">
        <ele>139.5</ele>
        <time>2017-04-29T15:01:32Z</time>
      </trkpt>
      <trkpt lat="43.9207" lon="5.13001">
        <ele>138.1</ele>
        <time>2017-04-29T15:01:39Z</time>
      </trkpt>
      <trkpt lat="43.92072" lon="5.12996">
        <ele>137.1</ele>
        <time>2017-04-29T15:01:46Z</time>
      </trkpt>
      <trkpt lat="43.92071" lon="5.12988">
        <ele>136.7</ele>
        <time>2017-04-29T15:01:53Z</time>
      </trkpt>
      <trkpt lat="43.92071" lon="5.12979">
        <ele>136.3</ele>
        <time>2017-04-29T15:02:00Z</time>
      </trkpt>
      <trkpt lat="43.92072" lon="5.1297">
        <ele>136.2</ele>
        <time>2017-04-29T15:02:07Z</time>
      </trkpt>
      <trkpt lat="43.92077" lon="5.12963">
        <ele>136.4</ele>
        <time>2017-04-29T15:02:12Z</time>
      </trkpt>
      <trkpt lat="43.92081" lon="5.12953">
        <ele>135.9</ele>
        <time>2017-04-29T15:02:19Z</time>
      </trkpt>
      <trkpt lat="43.92082" lon="5.12947">
        <ele>136.5</ele>
        <time>2017-04-29T15:02:26Z</time>
      </trkpt>
      <trkpt lat="43.92083" lon="5.12938">
        <ele>137.8</ele>
        <time>2017-04-29T15:02:33Z</time>
      </trkpt>
      <trkpt lat="43.92085" lon="5.12932">
        <ele>138.3</ele>
        <time>2017-04-29T15:02:40Z</time>
      </trkpt>
      <trkpt lat="43.92084" lon="5.12929">
        <ele>139</ele>
        <time>2017-04-29T15:02:47Z</time>
      </trkpt>
      <trkpt lat="43.92086" lon="5.12936">
        <ele>139</ele>
        <time>2017-04-29T15:03:06Z</time>
      </trkpt>
      <trkpt lat="43.92089" lon="5.12937">
        <ele>138.5</ele>
        <time>2017-04-29T15:03:13Z</time>
      </trkpt>
      <trkpt lat="43.92092" lon="5.12941">
        <ele>138.4</ele>
        <time>2017-04-29T15:03:20Z</time>
      </trkpt>
      <trkpt lat="43.92098" lon="5.12943">
        <ele>138</ele>
        <time>2017-04-29T15:03:27Z</time>
      </trkpt>
      <trkpt lat="43.92105" lon="5.1294">
        <ele>137.7</ele>
        <time>2017-04-29T15:03:34Z</time>
      </trkpt>
      <trkpt lat="43.92107" lon="5.12939">
        <ele>137.6</ele>
        <time>2017-04-29T15:03:41Z</time>
      </trkpt>
      <trkpt lat="43.9211" lon="5.12934">
        <ele>137.9</ele>
        <time>2017-04-29T15:03:48Z</time>
      </trkpt>
      <trkpt lat="43.92111" lon="5.12939">
        <ele>137.8</ele>
        <time>2017-04-29T15:03:55Z</time>
      </trkpt>
      <trkpt lat="43.92109" lon="5.1294">
        <ele>138.6</ele>
        <time>2017-04-29T15:04:02Z</time>
      </trkpt>
      <trkpt lat="43.92105" lon="5.1295">
        <ele>139</ele>
        <time>2017-04-29T15:04:15Z</time>
      </trkpt>
      <trkpt lat="43.92104" lon="5.12951">
        <ele>139.6</ele>
        <time>2017-04-29T15:04:22Z</time>
      </trkpt>
      <trkpt lat="43.92097" lon="5.12956">
        <ele>140.6</ele>
        <time>2017-04-29T15:04:34Z</time>
      </trkpt>
      <trkpt lat="43.92093" lon="5.12963">
        <ele>141.1</ele>
        <time>2017-04-29T15:04:41Z</time>
      </trkpt>
      <trkpt lat="43.92094" lon="5.12965">
        <ele>141.3</ele>
        <time>2017-04-29T15:04:48Z</time>
      </trkpt>
      <trkpt lat="43.9209" lon="5.12973">
        <ele>142.4</ele>
        <time>2017-04-29T15:05:15Z</time>
      </trkpt>
      <trkpt lat="43.92092" lon="5.12976">
        <ele>143.2</ele>
        <time>2017-04-29T15:05:22Z</time>
      </trkpt>
      <trkpt lat="43.92096" lon="5.1298">
        <ele>143.9</ele>
        <time>2017-04-29T15:05:29Z</time>
      </trkpt>
      <trkpt lat="43.92098" lon="5.12982">
        <ele>144.8</ele>
        <time>2017-04-29T15:05:36Z</time>
      </trkpt>
      <trkpt lat="43.92086" lon="5.1298">
        <ele>147.4</ele>
        <time>2017-04-29T15:07:11Z</time>
      </trkpt>
      <trkpt lat="43.9208" lon="5.12985">
        <ele>147.8</ele>
        <time>2017-04-29T15:07:25Z</time>
      </trkpt>
      <trkpt lat="43.92079" lon="5.12991">
        <ele>148.1</ele>
        <time>2017-04-29T15:07:32Z</time>
      </trkpt>
      <trkpt lat="43.92077" lon="5.12995">
        <ele>148.5</ele>
        <time>2017-04-29T15:07:39Z</time>
      </trkpt>
      <trkpt lat="43.92084" lon="5.12984">
        <ele>148</ele>
        <time>2017-04-29T15:08:11Z</time>
      </trkpt>
      <trkpt lat="43.92076" lon="5.12991">
        <ele>147.9</ele>
        <time>2017-04-29T15:08:32Z</time>
      </trkpt>
      <trkpt lat="43.92084" lon="5.12989">
        <ele>148</ele>
        <time>2017-04-29T15:09:04Z</time>
      </trkpt>
      <trkpt lat="43.92084" lon="5.12987">
        <ele>148</ele>
        <time>2017-04-29T15:09:11Z</time>
      </trkpt>
      <trkpt lat="43.92089" lon="5.12982">
        <ele>148.2</ele>
        <time>2017-04-29T15:09:20Z</time>
      </trkpt>
      <trkpt lat="43.92092" lon="5.12976">
        <ele>148.5</ele>
        <time>2017-04-29T15:09:27Z</time>
      </trkpt>
      <trkpt lat="43.92087" lon="5.12974">
        <ele>148.6</ele>
        <time>2017-04-29T15:09:34Z</time>
      </trkpt>
      <trkpt lat="43.92083" lon="5.12971">
        <ele>148.4</ele>
        <time>2017-04-29T15:09:41Z</time>
      </trkpt>
      <trkpt lat="43.92081" lon="5.12965">
        <ele>148.4</ele>
        <time>2017-04-29T15:10:09Z</time>
      </trkpt>
      <trkpt lat="43.92081" lon="5.12963">
        <ele>148.9</ele>
        <time>2017-04-29T15:10:16Z</time>
      </trkpt>
      <trkpt lat="43.92083" lon="5.12956">
        <ele>149.4</ele>
        <time>2017-04-29T15:10:23Z</time>
      </trkpt>
      <trkpt lat="43.92085" lon="5.12948">
        <ele>149.9</ele>
        <time>2017-04-29T15:10:30Z</time>
      </trkpt>
      <trkpt lat="43.92087" lon="5.1294">
        <ele>150.1</ele>
        <time>2017-04-29T15:10:37Z</time>
      </trkpt>
      <trkpt lat="43.92085" lon="5.12938">
        <ele>148.8</ele>
        <time>2017-04-29T15:10:44Z</time>
      </trkpt>
      <trkpt lat="43.92079" lon="5.12934">
        <ele>147.7</ele>
        <time>2017-04-29T15:10:51Z</time>
      </trkpt>
      <trkpt lat="43.92078" lon="5.12931">
        <ele>147.2</ele>
        <time>2017-04-29T15:10:58Z</time>
      </trkpt>
      <trkpt lat="43.92078" lon="5.12941">
        <ele>145</ele>
        <time>2017-04-29T15:11:29Z</time>
      </trkpt>
      <trkpt lat="43.92076" lon="5.12949">
        <ele>145.1</ele>
        <time>2017-04-29T15:11:36Z</time>
      </trkpt>
      <trkpt lat="43.92073" lon="5.12944">
        <ele>145.3</ele>
        <time>2017-04-29T15:11:43Z</time>
      </trkpt>
      <trkpt lat="43.9207" lon="5.12937">
        <ele>145.4</ele>
        <time>2017-04-29T15:11:50Z</time>
      </trkpt>
      <trkpt lat="43.92068" lon="5.12933">
        <ele>145.6</ele>
        <time>2017-04-29T15:11:57Z</time>
      </trkpt>
      <trkpt lat="43.92065" lon="5.12929">
        <ele>145.7</ele>
        <time>2017-04-29T15:12:04Z</time>
      </trkpt>
      <trkpt lat="43.9206" lon="5.12928">
        <ele>145.8</ele>
        <time>2017-04-29T15:12:11Z</time>
      </trkpt>
      <trkpt lat="43.92062" lon="5.12921">
        <ele>145.5</ele>
        <time>2017-04-29T15:12:40Z</time>
      </trkpt>
      <trkpt lat="43.92067" lon="5.12913">
        <ele>144.5</ele>
        <time>2017-04-29T15:13:03Z</time>
      </trkpt>
      <trkpt lat="43.92069" lon="5.12911">
        <ele>144</ele>
        <time>2017-04-29T15:13:15Z</time>
      </trkpt>
      <trkpt lat="43.9207" lon="5.12904">
        <ele>143.7</ele>
        <time>2017-04-29T15:13:22Z</time>
      </trkpt>
      <trkpt lat="43.92069" lon="5.12895">
        <ele>141.5</ele>
        <time>2017-04-29T15:13:54Z</time>
      </trkpt>
      <trkpt lat="43.92071" lon="5.1289">
        <ele>140.7</ele>
        <time>2017-04-29T15:14:09Z</time>
      </trkpt>
      <trkpt lat="43.92073" lon="5.12888">
        <ele>140.5</ele>
        <time>2017-04-29T15:14:16Z</time>
      </trkpt>
      <trkpt lat="43.9207" lon="5.12884">
        <ele>140.1</ele>
        <time>2017-04-29T15:14:23Z</time>
      </trkpt>
      <trkpt lat="43.92068" lon="5.12881">
        <ele>139.7</ele>
        <time>2017-04-29T15:14:30Z</time>
      </trkpt>
      <trkpt lat="43.9207" lon="5.12878">
        <ele>139</ele>
        <time>2017-04-29T15:14:44Z</time>
      </trkpt>
      <trkpt lat="43.92076" lon="5.12872">
        <ele>133.1</ele>
        <time>2017-04-29T15:14:39Z</time>
      </trkpt>
      <trkpt lat="43.92083" lon="5.12872">
        <ele>132.5</ele>
        <time>2017-04-29T15:15:51Z</time>
      </trkpt>
      <trkpt lat="43.92091" lon="5.12874">
        <ele>132</ele>
        <time>2017-04-29T15:15:58Z</time>
      </trkpt>
      <trkpt lat="43.92098" lon="5.12875">
        <ele>131.9</ele>
        <time>2017-04-29T15:16:05Z</time>
      </trkpt>
      <trkpt lat="43.92105" lon="5.12877">
        <ele>132.4</ele>
        <time>2017-04-29T15:16:12Z</time>
      </trkpt>
      <trkpt lat="43.92107" lon="5.12877">
        <ele>132.5</ele>
        <time>2017-04-29T15:16:19Z</time>
      </trkpt>
      <trkpt lat="43.92114" lon="5.12873">
        <ele>130.9</ele>
        <time>2017-04-29T15:16:29Z</time>
      </trkpt>
      <trkpt lat="43.9212" lon="5.12871">
        <ele>130.5</ele>
        <time>2017-04-29T15:16:36Z</time>
      </trkpt>
      <trkpt lat="43.92124" lon="5.12872">
        <ele>129.9</ele>
        <time>2017-04-29T15:16:43Z</time>
      </trkpt>
      <trkpt lat="43.92128" lon="5.12873">
        <ele>129</ele>
        <time>2017-04-29T15:16:50Z</time>
      </trkpt>
      <trkpt lat="43.9213" lon="5.12874">
        <ele>128.2</ele>
        <time>2017-04-29T15:16:57Z</time>
      </trkpt>
      <trkpt lat="43.92131" lon="5.12878">
        <ele>127.3</ele>
        <time>2017-04-29T15:17:04Z</time>
      </trkpt>
      <trkpt lat="43.92131" lon="5.12876">
        <ele>126.3</ele>
        <time>2017-04-29T15:17:11Z</time>
      </trkpt>
      <trkpt lat="43.92131" lon="5.12871">
        <ele>126</ele>
        <time>2017-04-29T15:17:18Z</time>
      </trkpt>
      <trkpt lat="43.92131" lon="5.12868">
        <ele>125.8</ele>
        <time>2017-04-29T15:17:25Z</time>
      </trkpt>
      <trkpt lat="43.92133" lon="5.12857">
        <ele>123.6</ele>
        <time>2017-04-29T15:17:53Z</time>
      </trkpt>
      <trkpt lat="43.92136" lon="5.12854">
        <ele>123.2</ele>
        <time>2017-04-29T15:18:00Z</time>
      </trkpt>
      <trkpt lat="43.92144" lon="5.12854">
        <ele>122.9</ele>
        <time>2017-04-29T15:18:11Z</time>
      </trkpt>
      <trkpt lat="43.92147" lon="5.12856">
        <ele>122.7</ele>
        <time>2017-04-29T15:18:18Z</time>
      </trkpt>
      <trkpt lat="43.9215" lon="5.12854">
        <ele>122.3</ele>
        <time>2017-04-29T15:18:25Z</time>
      </trkpt>
      <trkpt lat="43.92153" lon="5.12853">
        <ele>121.7</ele>
        <time>2017-04-29T15:18:32Z</time>
      </trkpt>
      <trkpt lat="43.92155" lon="5.12848">
        <ele>121.4</ele>
        <time>2017-04-29T15:18:39Z</time>
      </trkpt>
      <trkpt lat="43.92157" lon="5.12845">
        <ele>120.8</ele>
        <time>2017-04-29T15:18:46Z</time>
      </trkpt>
      <trkpt lat="43.92162" lon="5.12842">
        <ele>119.1</ele>
        <time>2017-04-29T15:18:59Z</time>
      </trkpt>
      <trkpt lat="43.9217" lon="5.12839">
        <ele>117.9</ele>
        <time>2017-04-29T15:19:10Z</time>
      </trkpt>
      <trkpt lat="43.92167" lon="5.12834">
        <ele>117.2</ele>
        <time>2017-04-29T15:19:17Z</time>
      </trkpt>
      <trkpt lat="43.9216" lon="5.12831">
        <ele>116.1</ele>
        <time>2017-04-29T15:19:41Z</time>
      </trkpt>
      <trkpt lat="43.92156" lon="5.12832">
        <ele>115.5</ele>
        <time>2017-04-29T15:19:48Z</time>
      </trkpt>
      <trkpt lat="43.92158" lon="5.12836">
        <ele>114.9</ele>
        <time>2017-04-29T15:20:04Z</time>
      </trkpt>
      <trkpt lat="43.92159" lon="5.12823">
        <ele>115</ele>
        <time>2017-04-29T15:20:11Z</time>
      </trkpt>
      <trkpt lat="43.92162" lon="5.12822">
        <ele>115</ele>
        <time>2017-04-29T15:20:18Z</time>
      </trkpt>
      <trkpt lat="43.92166" lon="5.12821">
        <ele>115.1</ele>
        <time>2017-04-29T15:20:25Z</time>
      </trkpt>
      <trkpt lat="43.92166" lon="5.1282">
        <ele>115.3</ele>
        <time>2017-04-29T15:20:32Z</time>
      </trkpt>
      <trkpt lat="43.92172" lon="5.12821">
        <ele>114</ele>
        <time>2017-04-29T15:20:39Z</time>
      </trkpt>
      <trkpt lat="43.92175" lon="5.12816">
        <ele>113.3</ele>
        <time>2017-04-29T15:20:46Z</time>
      </trkpt>
      <trkpt lat="43.92178" lon="5.12811">
        <ele>112.8</ele>
        <time>2017-04-29T15:20:53Z</time>
      </trkpt>
      <trkpt lat="43.92181" lon="5.12807">
        <ele>112.3</ele>
        <time>2017-04-29T15:21:00Z</time>
      </trkpt>
      <trkpt lat="43.92182" lon="5.12797">
        <ele>112.4</ele>
        <time>2017-04-29T15:21:07Z</time>
      </trkpt>
      <trkpt lat="43.9218" lon="5.12791">
        <ele>112.2</ele>
        <time>2017-04-29T15:21:14Z</time>
      </trkpt>
      <trkpt lat="43.92184" lon="5.12784">
        <ele>112.3</ele>
        <time>2017-04-29T15:21:21Z</time>
      </trkpt>
      <trkpt lat="43.92183" lon="5.12776">
        <ele>112.9</ele>
        <time>2017-04-29T15:21:28Z</time>
      </trkpt>
      <trkpt lat="43.92183" lon="5.12769">
        <ele>113.3</ele>
        <time>2017-04-29T15:21:35Z</time>
      </trkpt>
      <trkpt lat="43.92184" lon="5.12758">
        <ele>112.9</ele>
        <time>2017-04-29T15:21:42Z</time>
      </trkpt>
      <trkpt lat="43.92189" lon="5.12749">
        <ele>110.9</ele>
        <time>2017-04-29T15:21:48Z</time>
      </trkpt>
      <trkpt lat="43.92193" lon="5.12749">
        <ele>109.9</ele>
        <time>2017-04-29T15:21:55Z</time>
      </trkpt>
      <trkpt lat="43.92198" lon="5.1275">
        <ele>109.4</ele>
        <time>2017-04-29T15:22:02Z</time>
      </trkpt>
      <trkpt lat="43.92205" lon="5.12753">
        <ele>109.4</ele>
        <time>2017-04-29T15:22:09Z</time>
      </trkpt>
      <trkpt lat="43.92208" lon="5.12759">
        <ele>108.5</ele>
        <time>2017-04-29T15:22:16Z</time>
      </trkpt>
      <trkpt lat="43.92211" lon="5.12766">
        <ele>108.4</ele>
        <time>2017-04-29T15:22:23Z</time>
      </trkpt>
      <trkpt lat="43.92217" lon="5.12771">
        <ele>108.2</ele>
        <time>2017-04-29T15:22:27Z</time>
      </trkpt>
      <trkpt lat="43.92225" lon="5.12774">
        <ele>108</ele>
        <time>2017-04-29T15:22:30Z</time>
      </trkpt>
      <trkpt lat="43.9223" lon="5.12778">
        <ele>107.5</ele>
        <time>2017-04-29T15:22:37Z</time>
      </trkpt>
      <trkpt lat="43.92233" lon="5.12787">
        <ele>107.5</ele>
        <time>2017-04-29T15:22:54Z</time>
      </trkpt>
      <trkpt lat="43.92232" lon="5.12788">
        <ele>107.5</ele>
        <time>2017-04-29T15:23:01Z</time>
      </trkpt>
    </trkseg>
  </trk>
</gpx>